PWSweather.com
Personal Weather Stations
Station Observations

Enon Chester, VA 23836

Lat: 37.3609267, Lon: -77.31545840000001

Elevation: 89

Station Type: Acurite

http://www.wunderground.com/personal-weather-station/dashboard?ID=KVACHEST67

High Low Average
Temperature 67.1°F19.5°C 29.7°F-1.3°C 49.8°F9.9°C
Dew Point 49.9°F9.9°C 25.4°F-3.7°C 37.6°F3.1°C
Winds 14.5 mph 23.3 kmh Calm Calm 3.0 mph S4.8 kmh S
Wind Gusts 14.5 mph23.3 kmh -- 5.0 mph8.0 kmh
Humidity 86% 45% 64%
Pressure 30.61 in1036.6 mb 30.35 in1027.8 mb -
Precipitation 0.00 in0.0 mm - -
Hour Temp Dew Point Humidity Winds Wind Gusts Pressure Precip Precip Rate Daily Precip Total
12:00 AM 39.0°F3.9°C 28.2°F-2.1°C 65% 2.2 mph SSE3.5 kmh SSE 2.7 mph4.3 kmh 30.61 in1036.6 mb 0.00 in0.0 mm 0.00 in0.0 mm 0.00 in0.0 mm
12:01 AM 38.8°F3.8°C 28.1°F-2.2°C 65% 1.1 mph NE1.8 kmh NE 2.7 mph4.3 kmh 30.61 in1036.6 mb 0.00 in0.0 mm 0.00 in0.0 mm 0.00 in0.0 mm
12:02 AM 38.8°F3.8°C 28.1°F-2.2°C 65% 1.7 mph E2.7 kmh E 2.7 mph4.3 kmh 30.61 in1036.6 mb 0.00 in0.0 mm 0.00 in0.0 mm 0.00 in0.0 mm
12:03 AM 39.0°F3.9°C 28.2°F-2.1°C 65% 2.2 mph NNE3.5 kmh NNE 2.7 mph4.3 kmh 30.61 in1036.6 mb 0.00 in0.0 mm 0.00 in0.0 mm 0.00 in0.0 mm
12:04 AM 39.0°F3.9°C 28.2°F-2.1°C 65% 2.2 mph ESE3.5 kmh ESE 2.7 mph4.3 kmh 30.61 in1036.6 mb 0.00 in0.0 mm 0.00 in0.0 mm 0.00 in0.0 mm
12:05 AM 39.0°F3.9°C 28.2°F-2.1°C 65% 1.7 mph SE2.7 kmh SE 2.7 mph4.3 kmh 30.61 in1036.6 mb 0.00 in0.0 mm 0.00 in0.0 mm 0.00 in0.0 mm
12:06 AM 39.0°F3.9°C 28.2°F-2.1°C 65% Calm Calm 2.7 mph4.3 kmh 30.61 in1036.6 mb 0.00 in0.0 mm 0.00 in0.0 mm 0.00 in0.0 mm
12:07 AM 38.8°F3.8°C 28.1°F-2.2°C 65% 1.1 mph E1.8 kmh E 2.7 mph4.3 kmh 30.61 in1036.6 mb 0.00 in0.0 mm 0.00 in0.0 mm 0.00 in0.0 mm
12:08 AM 38.7°F3.7°C 28.0°F-2.2°C 65% 2.2 mph S3.5 kmh S 2.2 mph3.5 kmh 30.61 in1036.6 mb 0.00 in0.0 mm 0.00 in0.0 mm 0.00 in0.0 mm
12:09 AM 38.8°F3.8°C 28.1°F-2.2°C 65% 1.1 mph SSW1.8 kmh SSW 2.2 mph3.5 kmh 30.61 in1036.6 mb 0.00 in0.0 mm 0.00 in0.0 mm 0.00 in0.0 mm
12:10 AM 38.8°F3.8°C 28.1°F-2.2°C 65% 1.7 mph SE2.7 kmh SE 2.2 mph3.5 kmh 30.61 in1036.6 mb 0.00 in0.0 mm 0.00 in0.0 mm 0.00 in0.0 mm
12:11 AM 38.7°F3.7°C 28.0°F-2.2°C 65% 1.1 mph NE1.8 kmh NE 2.2 mph3.5 kmh 30.61 in1036.6 mb 0.00 in0.0 mm 0.00 in0.0 mm 0.00 in0.0 mm
12:12 AM 38.7°F3.7°C 28.0°F-2.2°C 65% 1.7 mph SE2.7 kmh SE 2.2 mph3.5 kmh 30.61 in1036.6 mb 0.00 in0.0 mm 0.00 in0.0 mm 0.00 in0.0 mm
12:13 AM 38.7°F3.7°C 28.0°F-2.2°C 65% 1.7 mph S2.7 kmh S 2.2 mph3.5 kmh 30.61 in1036.6 mb 0.00 in0.0 mm 0.00 in0.0 mm 0.00 in0.0 mm
12:14 AM 38.7°F3.7°C 28.0°F-2.2°C 65% 1.7 mph E2.7 kmh E 2.2 mph3.5 kmh 30.61 in1036.6 mb 0.00 in0.0 mm 0.00 in0.0 mm 0.00 in0.0 mm
12:15 AM 38.5°F3.6°C 27.8°F-2.3°C 65% 1.7 mph SSW2.7 kmh SSW 2.2 mph3.5 kmh 30.61 in1036.6 mb 0.00 in0.0 mm 0.00 in0.0 mm 0.00 in0.0 mm
12:16 AM 38.5°F3.6°C 27.8°F-2.3°C 65% 1.7 mph NW2.7 kmh NW 2.2 mph3.5 kmh 30.61 in1036.6 mb 0.00 in0.0 mm 0.00 in0.0 mm 0.00 in0.0 mm
12:17 AM 38.5°F3.6°C 27.8°F-2.3°C 65% 2.2 mph SSW3.5 kmh SSW 2.2 mph3.5 kmh 30.61 in1036.6 mb 0.00 in0.0 mm 0.00 in0.0 mm 0.00 in0.0 mm
12:18 AM 38.5°F3.6°C 27.8°F-2.3°C 65% 1.7 mph E2.7 kmh E 2.2 mph3.5 kmh 30.61 in1036.6 mb 0.00 in0.0 mm 0.00 in0.0 mm 0.00 in0.0 mm
12:19 AM 38.3°F3.5°C 27.6°F-2.4°C 65% Calm Calm 2.2 mph3.5 kmh 30.61 in1036.6 mb 0.00 in0.0 mm 0.00 in0.0 mm 0.00 in0.0 mm
12:20 AM 38.3°F3.5°C 27.6°F-2.4°C 65% Calm Calm 2.2 mph3.5 kmh 30.61 in1036.6 mb 0.00 in0.0 mm 0.00 in0.0 mm 0.00 in0.0 mm
12:21 AM 38.3°F3.5°C 27.6°F-2.4°C 65% 1.1 mph SSE1.8 kmh SSE 2.2 mph3.5 kmh 30.61 in1036.6 mb 0.00 in0.0 mm 0.00 in0.0 mm 0.00 in0.0 mm
12:22 AM 38.3°F3.5°C 28.0°F-2.2°C 66% 1.7 mph ESE2.7 kmh ESE 2.2 mph3.5 kmh 30.61 in1036.6 mb 0.00 in0.0 mm 0.00 in0.0 mm 0.00 in0.0 mm
12:23 AM 38.3°F3.5°C 28.0°F-2.2°C 66% 2.2 mph WSW3.5 kmh WSW 2.2 mph3.5 kmh 30.61 in1036.6 mb 0.00 in0.0 mm 0.00 in0.0 mm 0.00 in0.0 mm
12:24 AM 38.3°F3.5°C 28.0°F-2.2°C 66% 1.7 mph N2.7 kmh N 2.2 mph3.5 kmh 30.61 in1036.6 mb 0.00 in0.0 mm 0.00 in0.0 mm 0.00 in0.0 mm
12:25 AM 38.3°F3.5°C 28.0°F-2.2°C 66% 1.7 mph ESE2.7 kmh ESE 2.2 mph3.5 kmh 30.61 in1036.6 mb 0.00 in0.0 mm 0.00 in0.0 mm 0.00 in0.0 mm
12:26 AM 38.3°F3.5°C 28.0°F-2.2°C 66% Calm Calm 2.2 mph3.5 kmh 30.61 in1036.6 mb 0.00 in0.0 mm 0.00 in0.0 mm 0.00 in0.0 mm
12:27 AM 38.1°F3.4°C 27.8°F-2.3°C 66% 1.7 mph E2.7 kmh E 2.2 mph3.5 kmh 30.61 in1036.6 mb 0.00 in0.0 mm 0.00 in0.0 mm 0.00 in0.0 mm
12:28 AM 38.1°F3.4°C 27.8°F-2.3°C 66% 1.1 mph ENE1.8 kmh ENE 2.2 mph3.5 kmh 30.61 in1036.6 mb 0.00 in0.0 mm 0.00 in0.0 mm 0.00 in0.0 mm
12:29 AM 38.1°F3.4°C 27.8°F-2.3°C 66% 2.7 mph ESE4.3 kmh ESE 2.7 mph4.3 kmh 30.61 in1036.6 mb 0.00 in0.0 mm 0.00 in0.0 mm 0.00 in0.0 mm
12:30 AM 38.1°F3.4°C 27.8°F-2.3°C 66% 2.7 mph SSE4.3 kmh SSE 3.2 mph5.1 kmh 30.61 in1036.6 mb 0.00 in0.0 mm 0.00 in0.0 mm 0.00 in0.0 mm
12:31 AM 38.5°F3.6°C 27.8°F-2.3°C 65% 1.1 mph SE1.8 kmh SE 3.2 mph5.1 kmh 30.61 in1036.6 mb 0.00 in0.0 mm 0.00 in0.0 mm 0.00 in0.0 mm
12:32 AM 38.3°F3.5°C 27.6°F-2.4°C 65% Calm Calm 3.2 mph5.1 kmh 30.61 in1036.6 mb 0.00 in0.0 mm 0.00 in0.0 mm 0.00 in0.0 mm
12:33 AM 38.3°F3.5°C 27.6°F-2.4°C 65% 1.1 mph S1.8 kmh S 3.2 mph5.1 kmh 30.61 in1036.6 mb 0.00 in0.0 mm 0.00 in0.0 mm 0.00 in0.0 mm
12:34 AM 38.1°F3.4°C 27.4°F-2.6°C 65% 2.2 mph E3.5 kmh E 3.2 mph5.1 kmh 30.61 in1036.6 mb 0.00 in0.0 mm 0.00 in0.0 mm 0.00 in0.0 mm
12:35 AM 38.1°F3.4°C 27.4°F-2.6°C 65% 1.1 mph SSE1.8 kmh SSE 3.2 mph5.1 kmh 30.61 in1036.6 mb 0.00 in0.0 mm 0.00 in0.0 mm 0.00 in0.0 mm
12:36 AM 37.9°F3.3°C 27.2°F-2.7°C 65% 2.2 mph SSE3.5 kmh SSE 3.2 mph5.1 kmh 30.61 in1036.6 mb 0.00 in0.0 mm 0.00 in0.0 mm 0.00 in0.0 mm
12:37 AM 37.9°F3.3°C 27.2°F-2.7°C 65% 1.1 mph SE1.8 kmh SE 3.2 mph5.1 kmh 30.61 in1036.6 mb 0.00 in0.0 mm 0.00 in0.0 mm 0.00 in0.0 mm
12:38 AM 38.1°F3.4°C 27.4°F-2.6°C 65% 1.1 mph SE1.8 kmh SE 3.2 mph5.1 kmh 30.61 in1036.6 mb 0.00 in0.0 mm 0.00 in0.0 mm 0.00 in0.0 mm
12:39 AM 37.8°F3.2°C 27.1°F-2.7°C 65% Calm Calm 3.2 mph5.1 kmh 30.61 in1036.6 mb 0.00 in0.0 mm 0.00 in0.0 mm 0.00 in0.0 mm
12:40 AM 37.8°F3.2°C 27.5°F-2.5°C 66% 1.7 mph ESE2.7 kmh ESE 2.7 mph4.3 kmh 30.61 in1036.6 mb 0.00 in0.0 mm 0.00 in0.0 mm 0.00 in0.0 mm
12:41 AM 37.8°F3.2°C 27.5°F-2.5°C 66% 1.1 mph SSE1.8 kmh SSE 2.7 mph4.3 kmh 30.61 in1036.6 mb 0.00 in0.0 mm 0.00 in0.0 mm 0.00 in0.0 mm
12:42 AM 37.8°F3.2°C 27.5°F-2.5°C 66% 2.2 mph SSE3.5 kmh SSE 2.7 mph4.3 kmh 30.61 in1036.6 mb 0.00 in0.0 mm 0.00 in0.0 mm 0.00 in0.0 mm
12:43 AM 37.8°F3.2°C 27.5°F-2.5°C 66% 1.1 mph SE1.8 kmh SE 2.7 mph4.3 kmh 30.61 in1036.6 mb 0.00 in0.0 mm 0.00 in0.0 mm 0.00 in0.0 mm
12:44 AM 37.6°F3.1°C 27.3°F-2.6°C 66% Calm Calm 2.7 mph4.3 kmh 30.61 in1036.6 mb 0.00 in0.0 mm 0.00 in0.0 mm 0.00 in0.0 mm
12:45 AM 37.6°F3.1°C 27.3°F-2.6°C 66% 1.7 mph S2.7 kmh S 2.7 mph4.3 kmh 30.61 in1036.6 mb 0.00 in0.0 mm 0.00 in0.0 mm 0.00 in0.0 mm
12:46 AM 37.4°F3.0°C 27.1°F-2.7°C 66% Calm Calm 2.2 mph3.5 kmh 30.61 in1036.6 mb 0.00 in0.0 mm 0.00 in0.0 mm 0.00 in0.0 mm
12:47 AM 37.4°F3.0°C 27.1°F-2.7°C 66% Calm Calm 2.2 mph3.5 kmh 30.61 in1036.6 mb 0.00 in0.0 mm 0.00 in0.0 mm 0.00 in0.0 mm
12:48 AM 37.4°F3.0°C 27.1°F-2.7°C 66% 2.7 mph SSE4.3 kmh SSE 2.7 mph4.3 kmh 30.61 in1036.6 mb 0.00 in0.0 mm 0.00 in0.0 mm 0.00 in0.0 mm
12:49 AM 37.6°F3.1°C 27.3°F-2.6°C 66% Calm Calm 2.7 mph4.3 kmh 30.61 in1036.6 mb 0.00 in0.0 mm 0.00 in0.0 mm 0.00 in0.0 mm
12:50 AM 37.6°F3.1°C 27.3°F-2.6°C 66% 2.2 mph SSE3.5 kmh SSE 2.7 mph4.3 kmh 30.61 in1036.6 mb 0.00 in0.0 mm 0.00 in0.0 mm 0.00 in0.0 mm
12:51 AM 37.6°F3.1°C 27.3°F-2.6°C 66% 1.1 mph SE1.8 kmh SE 2.7 mph4.3 kmh 30.61 in1036.6 mb 0.00 in0.0 mm 0.00 in0.0 mm 0.00 in0.0 mm
12:52 AM 37.4°F3.0°C 27.1°F-2.7°C 66% 1.1 mph S1.8 kmh S 2.7 mph4.3 kmh 30.61 in1036.6 mb 0.00 in0.0 mm 0.00 in0.0 mm 0.00 in0.0 mm
12:53 AM 37.2°F2.9°C 26.9°F-2.8°C 66% 1.7 mph SSE2.7 kmh SSE 2.7 mph4.3 kmh 30.60 in1036.2 mb 0.00 in0.0 mm 0.00 in0.0 mm 0.00 in0.0 mm
12:54 AM 37.4°F3.0°C 27.1°F-2.7°C 66% 1.7 mph SSE2.7 kmh SSE 2.7 mph4.3 kmh 30.60 in1036.2 mb 0.00 in0.0 mm 0.00 in0.0 mm 0.00 in0.0 mm
12:55 AM 37.4°F3.0°C 27.1°F-2.7°C 66% 1.1 mph WSW1.8 kmh WSW 2.7 mph4.3 kmh 30.60 in1036.2 mb 0.00 in0.0 mm 0.00 in0.0 mm 0.00 in0.0 mm
12:56 AM 37.4°F3.0°C 27.1°F-2.7°C 66% 1.7 mph SE2.7 kmh SE 2.7 mph4.3 kmh 30.60 in1036.2 mb 0.00 in0.0 mm 0.00 in0.0 mm 0.00 in0.0 mm
12:57 AM 37.2°F2.9°C 26.9°F-2.8°C 66% 1.7 mph SE2.7 kmh SE 2.7 mph4.3 kmh 30.60 in1036.2 mb 0.00 in0.0 mm 0.00 in0.0 mm 0.00 in0.0 mm
12:58 AM 37.2°F2.9°C 26.9°F-2.8°C 66% 1.7 mph ESE2.7 kmh ESE 2.7 mph4.3 kmh 30.60 in1036.2 mb 0.00 in0.0 mm 0.00 in0.0 mm 0.00 in0.0 mm
12:59 AM 37.2°F2.9°C 26.9°F-2.8°C 66% 1.7 mph S2.7 kmh S 2.2 mph3.5 kmh 30.60 in1036.2 mb 0.00 in0.0 mm 0.00 in0.0 mm 0.00 in0.0 mm
01:00 AM 37.2°F2.9°C 26.9°F-2.8°C 66% 1.7 mph SE2.7 kmh SE 2.2 mph3.5 kmh 30.60 in1036.2 mb 0.00 in0.0 mm 0.00 in0.0 mm 0.00 in0.0 mm
01:01 AM 37.0°F2.8°C 26.7°F-2.9°C 66% 1.1 mph SE1.8 kmh SE 2.2 mph3.5 kmh 30.60 in1036.2 mb 0.00 in0.0 mm 0.00 in0.0 mm 0.00 in0.0 mm
01:02 AM 37.0°F2.8°C 26.7°F-2.9°C 66% 1.1 mph SE1.8 kmh SE 2.2 mph3.5 kmh 30.60 in1036.2 mb 0.00 in0.0 mm 0.00 in0.0 mm 0.00 in0.0 mm
01:03 AM 36.9°F2.7°C 26.6°F-3.0°C 66% 1.7 mph SE2.7 kmh SE 1.7 mph2.7 kmh 30.60 in1036.2 mb 0.00 in0.0 mm 0.00 in0.0 mm 0.00 in0.0 mm
01:04 AM 36.9°F2.7°C 26.6°F-3.0°C 66% 1.7 mph SSE2.7 kmh SSE 1.7 mph2.7 kmh 30.60 in1036.2 mb 0.00 in0.0 mm 0.00 in0.0 mm 0.00 in0.0 mm
01:05 AM 36.9°F2.7°C 26.6°F-3.0°C 66% Calm Calm 1.7 mph2.7 kmh 30.60 in1036.2 mb 0.00 in0.0 mm 0.00 in0.0 mm 0.00 in0.0 mm
01:06 AM 36.9°F2.7°C 26.6°F-3.0°C 66% Calm Calm 1.7 mph2.7 kmh 30.60 in1036.2 mb 0.00 in0.0 mm 0.00 in0.0 mm 0.00 in0.0 mm
01:07 AM 36.7°F2.6°C 26.8°F-2.9°C 67% Calm Calm 1.7 mph2.7 kmh 30.60 in1036.2 mb 0.00 in0.0 mm 0.00 in0.0 mm 0.00 in0.0 mm
01:08 AM 36.5°F2.5°C 26.6°F-3.0°C 67% 1.1 mph SSE1.8 kmh SSE 1.7 mph2.7 kmh 30.60 in1036.2 mb 0.00 in0.0 mm 0.00 in0.0 mm 0.00 in0.0 mm
01:09 AM 36.5°F2.5°C 26.6°F-3.0°C 67% 1.1 mph SSE1.8 kmh SSE 1.7 mph2.7 kmh 30.60 in1036.2 mb 0.00 in0.0 mm 0.00 in0.0 mm 0.00 in0.0 mm
01:10 AM 36.3°F2.4°C 26.4°F-3.1°C 67% 1.1 mph SSE1.8 kmh SSE 1.7 mph2.7 kmh 30.60 in1036.2 mb 0.00 in0.0 mm 0.00 in0.0 mm 0.00 in0.0 mm
01:11 AM 36.3°F2.4°C 26.4°F-3.1°C 67% 1.7 mph SSE2.7 kmh SSE 1.7 mph2.7 kmh 30.60 in1036.2 mb 0.00 in0.0 mm 0.00 in0.0 mm 0.00 in0.0 mm
01:12 AM 36.3°F2.4°C 26.4°F-3.1°C 67% 1.1 mph SSE1.8 kmh SSE 1.7 mph2.7 kmh 30.60 in1036.2 mb 0.00 in0.0 mm 0.00 in0.0 mm 0.00 in0.0 mm
01:13 AM 36.3°F2.4°C 26.4°F-3.1°C 67% Calm Calm 1.7 mph2.7 kmh 30.60 in1036.2 mb 0.00 in0.0 mm 0.00 in0.0 mm 0.00 in0.0 mm
01:14 AM 36.3°F2.4°C 26.8°F-2.9°C 68% Calm Calm 1.7 mph2.7 kmh 30.60 in1036.2 mb 0.00 in0.0 mm 0.00 in0.0 mm 0.00 in0.0 mm
01:15 AM 36.3°F2.4°C 26.8°F-2.9°C 68% Calm Calm 1.7 mph2.7 kmh 30.60 in1036.2 mb 0.00 in0.0 mm 0.00 in0.0 mm 0.00 in0.0 mm
01:16 AM 36.3°F2.4°C 26.8°F-2.9°C 68% Calm Calm 1.7 mph2.7 kmh 30.60 in1036.2 mb 0.00 in0.0 mm 0.00 in0.0 mm 0.00 in0.0 mm
01:17 AM 36.3°F2.4°C 26.8°F-2.9°C 68% Calm Calm 1.7 mph2.7 kmh 30.60 in1036.2 mb 0.00 in0.0 mm 0.00 in0.0 mm 0.00 in0.0 mm
01:18 AM 36.3°F2.4°C 26.8°F-2.9°C 68% Calm Calm 1.7 mph2.7 kmh 30.60 in1036.2 mb 0.00 in0.0 mm 0.00 in0.0 mm 0.00 in0.0 mm
01:19 AM 36.1°F2.3°C 26.6°F-3.0°C 68% Calm Calm 1.7 mph2.7 kmh 30.60 in1036.2 mb 0.00 in0.0 mm 0.00 in0.0 mm 0.00 in0.0 mm
01:20 AM 36.0°F2.2°C 26.5°F-3.1°C 68% Calm Calm 1.7 mph2.7 kmh 30.60 in1036.2 mb 0.00 in0.0 mm 0.00 in0.0 mm 0.00 in0.0 mm
01:21 AM 36.0°F2.2°C 26.5°F-3.1°C 68% Calm Calm 1.7 mph2.7 kmh 30.60 in1036.2 mb 0.00 in0.0 mm 0.00 in0.0 mm 0.00 in0.0 mm
01:22 AM 36.0°F2.2°C 26.5°F-3.1°C 68% Calm Calm 1.1 mph1.8 kmh 30.60 in1036.2 mb 0.00 in0.0 mm 0.00 in0.0 mm 0.00 in0.0 mm
01:23 AM 35.8°F2.1°C 26.3°F-3.2°C 68% Calm Calm -- 30.60 in1036.2 mb 0.00 in0.0 mm 0.00 in0.0 mm 0.00 in0.0 mm
01:24 AM 35.8°F2.1°C 26.3°F-3.2°C 68% Calm Calm -- 30.60 in1036.2 mb 0.00 in0.0 mm 0.00 in0.0 mm 0.00 in0.0 mm
01:25 AM 35.6°F2.0°C 26.1°F-3.3°C 68% Calm Calm -- 30.60 in1036.2 mb 0.00 in0.0 mm 0.00 in0.0 mm 0.00 in0.0 mm
01:26 AM 35.6°F2.0°C 26.1°F-3.3°C 68% Calm Calm -- 30.60 in1036.2 mb 0.00 in0.0 mm 0.00 in0.0 mm 0.00 in0.0 mm
01:27 AM 35.4°F1.9°C 25.9°F-3.4°C 68% Calm Calm -- 30.60 in1036.2 mb 0.00 in0.0 mm 0.00 in0.0 mm 0.00 in0.0 mm
01:28 AM 35.4°F1.9°C 25.9°F-3.4°C 68% Calm Calm -- 30.60 in1036.2 mb 0.00 in0.0 mm 0.00 in0.0 mm 0.00 in0.0 mm
01:29 AM 35.4°F1.9°C 25.9°F-3.4°C 68% Calm Calm -- 30.60 in1036.2 mb 0.00 in0.0 mm 0.00 in0.0 mm 0.00 in0.0 mm
01:30 AM 35.2°F1.8°C 26.1°F-3.3°C 69% Calm Calm -- 30.60 in1036.2 mb 0.00 in0.0 mm 0.00 in0.0 mm 0.00 in0.0 mm
01:31 AM 35.1°F1.7°C 26.0°F-3.3°C 69% Calm Calm -- 30.60 in1036.2 mb 0.00 in0.0 mm 0.00 in0.0 mm 0.00 in0.0 mm
01:32 AM 35.1°F1.7°C 26.0°F-3.3°C 69% Calm Calm -- 30.60 in1036.2 mb 0.00 in0.0 mm 0.00 in0.0 mm 0.00 in0.0 mm
01:33 AM 35.1°F1.7°C 26.0°F-3.3°C 69% Calm Calm -- 30.60 in1036.2 mb 0.00 in0.0 mm 0.00 in0.0 mm 0.00 in0.0 mm
01:34 AM 34.9°F1.6°C 25.8°F-3.4°C 69% Calm Calm -- 30.60 in1036.2 mb 0.00 in0.0 mm 0.00 in0.0 mm 0.00 in0.0 mm
01:35 AM 34.9°F1.6°C 26.1°F-3.3°C 70% Calm Calm -- 30.60 in1036.2 mb 0.00 in0.0 mm 0.00 in0.0 mm 0.00 in0.0 mm
01:36 AM 34.7°F1.5°C 25.9°F-3.4°C 70% Calm Calm -- 30.60 in1036.2 mb 0.00 in0.0 mm 0.00 in0.0 mm 0.00 in0.0 mm
01:37 AM 34.7°F1.5°C 25.9°F-3.4°C 70% Calm Calm -- 30.60 in1036.2 mb 0.00 in0.0 mm 0.00 in0.0 mm 0.00 in0.0 mm
01:38 AM 34.7°F1.5°C 26.3°F-3.2°C 71% Calm Calm -- 30.60 in1036.2 mb 0.00 in0.0 mm 0.00 in0.0 mm 0.00 in0.0 mm
01:39 AM 34.5°F1.4°C 25.7°F-3.5°C 70% Calm Calm -- 30.60 in1036.2 mb 0.00 in0.0 mm 0.00 in0.0 mm 0.00 in0.0 mm
01:40 AM 34.5°F1.4°C 25.7°F-3.5°C 70% Calm Calm -- 30.60 in1036.2 mb 0.00 in0.0 mm 0.00 in0.0 mm 0.00 in0.0 mm
01:41 AM 34.3°F1.3°C 25.6°F-3.6°C 70% Calm Calm -- 30.59 in1035.9 mb 0.00 in0.0 mm 0.00 in0.0 mm 0.00 in0.0 mm
01:42 AM 34.3°F1.3°C 25.6°F-3.6°C 70% Calm Calm -- 30.59 in1035.9 mb 0.00 in0.0 mm 0.00 in0.0 mm 0.00 in0.0 mm
01:43 AM 34.2°F1.2°C 26.1°F-3.3°C 72% Calm Calm -- 30.59 in1035.9 mb 0.00 in0.0 mm 0.00 in0.0 mm 0.00 in0.0 mm
01:44 AM 34.2°F1.2°C 26.1°F-3.3°C 72% Calm Calm -- 30.59 in1035.9 mb 0.00 in0.0 mm 0.00 in0.0 mm 0.00 in0.0 mm
01:45 AM 34.0°F1.1°C 26.3°F-3.2°C 73% Calm Calm -- 30.59 in1035.9 mb 0.00 in0.0 mm 0.00 in0.0 mm 0.00 in0.0 mm
01:46 AM 34.0°F1.1°C 26.9°F-2.8°C 75% Calm Calm -- 30.59 in1035.9 mb 0.00 in0.0 mm 0.00 in0.0 mm 0.00 in0.0 mm
01:47 AM 34.0°F1.1°C 27.2°F-2.7°C 76% 1.1 mph W1.8 kmh W 1.7 mph2.7 kmh 30.59 in1035.9 mb 0.00 in0.0 mm 0.00 in0.0 mm 0.00 in0.0 mm
01:48 AM 34.0°F1.1°C 27.6°F-2.4°C 77% Calm Calm 1.7 mph2.7 kmh 30.59 in1035.9 mb 0.00 in0.0 mm 0.00 in0.0 mm 0.00 in0.0 mm
01:49 AM 33.8°F1.0°C 27.4°F-2.6°C 77% 1.7 mph W2.7 kmh W 1.7 mph2.7 kmh 30.59 in1035.9 mb 0.00 in0.0 mm 0.00 in0.0 mm 0.00 in0.0 mm
01:50 AM 33.8°F1.0°C 27.4°F-2.6°C 77% Calm Calm 1.7 mph2.7 kmh 30.59 in1035.9 mb 0.00 in0.0 mm 0.00 in0.0 mm 0.00 in0.0 mm
01:51 AM 33.8°F1.0°C 27.4°F-2.6°C 77% Calm Calm 1.7 mph2.7 kmh 30.59 in1035.9 mb 0.00 in0.0 mm 0.00 in0.0 mm 0.00 in0.0 mm
01:52 AM 33.8°F1.0°C 27.1°F-2.7°C 76% Calm Calm 1.7 mph2.7 kmh 30.59 in1035.9 mb 0.00 in0.0 mm 0.00 in0.0 mm 0.00 in0.0 mm
01:53 AM 33.6°F0.9°C 26.9°F-2.8°C 76% Calm Calm 1.7 mph2.7 kmh 30.60 in1036.2 mb 0.00 in0.0 mm 0.00 in0.0 mm 0.00 in0.0 mm
01:54 AM 33.6°F0.9°C 26.9°F-2.8°C 76% Calm Calm 1.7 mph2.7 kmh 30.60 in1036.2 mb 0.00 in0.0 mm 0.00 in0.0 mm 0.00 in0.0 mm
01:55 AM 33.6°F0.9°C 26.9°F-2.8°C 76% 1.1 mph W1.8 kmh W 1.7 mph2.7 kmh 30.60 in1036.2 mb 0.00 in0.0 mm 0.00 in0.0 mm 0.00 in0.0 mm
01:56 AM 33.4°F0.8°C 26.7°F-2.9°C 76% Calm Calm 1.7 mph2.7 kmh 30.60 in1036.2 mb 0.00 in0.0 mm 0.00 in0.0 mm 0.00 in0.0 mm
01:57 AM 33.4°F0.8°C 26.7°F-2.9°C 76% Calm Calm 1.7 mph2.7 kmh 30.60 in1036.2 mb 0.00 in0.0 mm 0.00 in0.0 mm 0.00 in0.0 mm
01:58 AM 33.3°F0.7°C 26.9°F-2.8°C 77% Calm Calm 1.7 mph2.7 kmh 30.60 in1036.2 mb 0.00 in0.0 mm 0.00 in0.0 mm 0.00 in0.0 mm
01:59 AM 33.3°F0.7°C 26.9°F-2.8°C 77% Calm Calm 1.7 mph2.7 kmh 30.60 in1036.2 mb 0.00 in0.0 mm 0.00 in0.0 mm 0.00 in0.0 mm
02:00 AM 33.3°F0.7°C 26.9°F-2.8°C 77% Calm Calm 1.1 mph1.8 kmh 30.60 in1036.2 mb 0.00 in0.0 mm 0.00 in0.0 mm 0.00 in0.0 mm
02:01 AM 33.3°F0.7°C 26.6°F-3.0°C 76% Calm Calm 1.1 mph1.8 kmh 30.60 in1036.2 mb 0.00 in0.0 mm 0.00 in0.0 mm 0.00 in0.0 mm
02:02 AM 33.3°F0.7°C 26.6°F-3.0°C 76% Calm Calm 1.1 mph1.8 kmh 30.60 in1036.2 mb 0.00 in0.0 mm 0.00 in0.0 mm 0.00 in0.0 mm
02:03 AM 33.3°F0.7°C 26.6°F-3.0°C 76% 1.7 mph SE2.7 kmh SE 1.7 mph2.7 kmh 30.60 in1036.2 mb 0.00 in0.0 mm 0.00 in0.0 mm 0.00 in0.0 mm
02:04 AM 33.3°F0.7°C 26.6°F-3.0°C 76% 1.7 mph E2.7 kmh E 1.7 mph2.7 kmh 30.60 in1036.2 mb 0.00 in0.0 mm 0.00 in0.0 mm 0.00 in0.0 mm
02:05 AM 33.3°F0.7°C 26.2°F-3.2°C 75% 1.7 mph SSE2.7 kmh SSE 1.7 mph2.7 kmh 30.60 in1036.2 mb 0.00 in0.0 mm 0.00 in0.0 mm 0.00 in0.0 mm
02:06 AM 33.3°F0.7°C 26.2°F-3.2°C 75% Calm Calm 1.7 mph2.7 kmh 30.60 in1036.2 mb 0.00 in0.0 mm 0.00 in0.0 mm 0.00 in0.0 mm
02:07 AM 33.8°F1.0°C 26.4°F-3.1°C 74% Calm Calm 1.7 mph2.7 kmh 30.60 in1036.2 mb 0.00 in0.0 mm 0.00 in0.0 mm 0.00 in0.0 mm
02:08 AM 33.6°F0.9°C 26.2°F-3.2°C 74% 1.7 mph ESE2.7 kmh ESE 1.7 mph2.7 kmh 30.60 in1036.2 mb 0.00 in0.0 mm 0.00 in0.0 mm 0.00 in0.0 mm
02:09 AM 33.4°F0.8°C 26.0°F-3.3°C 74% 1.1 mph ESE1.8 kmh ESE 1.7 mph2.7 kmh 30.60 in1036.2 mb 0.00 in0.0 mm 0.00 in0.0 mm 0.00 in0.0 mm
02:10 AM 33.3°F0.7°C 25.9°F-3.4°C 74% Calm Calm 1.7 mph2.7 kmh 30.60 in1036.2 mb 0.00 in0.0 mm 0.00 in0.0 mm 0.00 in0.0 mm
02:11 AM 33.3°F0.7°C 25.9°F-3.4°C 74% Calm Calm 1.7 mph2.7 kmh 30.60 in1036.2 mb 0.00 in0.0 mm 0.00 in0.0 mm 0.00 in0.0 mm
02:12 AM 33.3°F0.7°C 25.9°F-3.4°C 74% 1.1 mph ESE1.8 kmh ESE 1.7 mph2.7 kmh 30.60 in1036.2 mb 0.00 in0.0 mm 0.00 in0.0 mm 0.00 in0.0 mm
02:13 AM 33.4°F0.8°C 26.0°F-3.3°C 74% 1.7 mph E2.7 kmh E 1.7 mph2.7 kmh 30.60 in1036.2 mb 0.00 in0.0 mm 0.00 in0.0 mm 0.00 in0.0 mm
02:14 AM 33.4°F0.8°C 26.0°F-3.3°C 74% 1.7 mph SSE2.7 kmh SSE 1.7 mph2.7 kmh 30.60 in1036.2 mb 0.00 in0.0 mm 0.00 in0.0 mm 0.00 in0.0 mm
02:15 AM 33.6°F0.9°C 26.2°F-3.2°C 74% 2.2 mph SE3.5 kmh SE 2.2 mph3.5 kmh 30.60 in1036.2 mb 0.00 in0.0 mm 0.00 in0.0 mm 0.00 in0.0 mm
02:16 AM 33.6°F0.9°C 26.2°F-3.2°C 74% 1.1 mph ESE1.8 kmh ESE 2.2 mph3.5 kmh 30.60 in1036.2 mb 0.00 in0.0 mm 0.00 in0.0 mm 0.00 in0.0 mm
02:17 AM 33.6°F0.9°C 26.2°F-3.2°C 74% 1.7 mph SE2.7 kmh SE 2.2 mph3.5 kmh 30.60 in1036.2 mb 0.00 in0.0 mm 0.00 in0.0 mm 0.00 in0.0 mm
02:18 AM 33.8°F1.0°C 26.4°F-3.1°C 74% 1.7 mph SE2.7 kmh SE 2.2 mph3.5 kmh 30.60 in1036.2 mb 0.00 in0.0 mm 0.00 in0.0 mm 0.00 in0.0 mm
02:19 AM 33.8°F1.0°C 26.4°F-3.1°C 74% 1.7 mph SE2.7 kmh SE 2.2 mph3.5 kmh 30.60 in1036.2 mb 0.00 in0.0 mm 0.00 in0.0 mm 0.00 in0.0 mm
02:20 AM 34.0°F1.1°C 26.6°F-3.0°C 74% 1.7 mph SE2.7 kmh SE 2.2 mph3.5 kmh 30.60 in1036.2 mb 0.00 in0.0 mm 0.00 in0.0 mm 0.00 in0.0 mm
02:21 AM 34.0°F1.1°C 26.3°F-3.2°C 73% 1.1 mph SE1.8 kmh SE 2.2 mph3.5 kmh 30.60 in1036.2 mb 0.00 in0.0 mm 0.00 in0.0 mm 0.00 in0.0 mm
02:22 AM 33.8°F1.0°C 26.1°F-3.3°C 73% 1.7 mph SE2.7 kmh SE 2.2 mph3.5 kmh 30.60 in1036.2 mb 0.00 in0.0 mm 0.00 in0.0 mm 0.00 in0.0 mm
02:23 AM 34.0°F1.1°C 26.3°F-3.2°C 73% 1.1 mph SE1.8 kmh SE 2.2 mph3.5 kmh 30.60 in1036.2 mb 0.00 in0.0 mm 0.00 in0.0 mm 0.00 in0.0 mm
02:24 AM 34.2°F1.2°C 26.5°F-3.1°C 73% 1.1 mph SE1.8 kmh SE 2.2 mph3.5 kmh 30.60 in1036.2 mb 0.00 in0.0 mm 0.00 in0.0 mm 0.00 in0.0 mm
02:25 AM 33.8°F1.0°C 26.1°F-3.3°C 73% Calm Calm 2.2 mph3.5 kmh 30.60 in1036.2 mb 0.00 in0.0 mm 0.00 in0.0 mm 0.00 in0.0 mm
02:26 AM 33.8°F1.0°C 26.1°F-3.3°C 73% Calm Calm 2.2 mph3.5 kmh 30.60 in1036.2 mb 0.00 in0.0 mm 0.00 in0.0 mm 0.00 in0.0 mm
02:27 AM 33.6°F0.9°C 25.9°F-3.4°C 73% Calm Calm 2.2 mph3.5 kmh 30.60 in1036.2 mb 0.00 in0.0 mm 0.00 in0.0 mm 0.00 in0.0 mm
02:28 AM 33.6°F0.9°C 25.9°F-3.4°C 73% Calm Calm 2.2 mph3.5 kmh 30.60 in1036.2 mb 0.00 in0.0 mm 0.00 in0.0 mm 0.00 in0.0 mm
02:29 AM 33.6°F0.9°C 25.9°F-3.4°C 73% 1.1 mph SSE1.8 kmh SSE 2.2 mph3.5 kmh 30.60 in1036.2 mb 0.00 in0.0 mm 0.00 in0.0 mm 0.00 in0.0 mm
02:30 AM 33.6°F0.9°C 25.9°F-3.4°C 73% 1.1 mph SE1.8 kmh SE 1.7 mph2.7 kmh 30.60 in1036.2 mb 0.00 in0.0 mm 0.00 in0.0 mm 0.00 in0.0 mm
02:31 AM 33.4°F0.8°C 25.7°F-3.5°C 73% Calm Calm 1.7 mph2.7 kmh 30.60 in1036.2 mb 0.00 in0.0 mm 0.00 in0.0 mm 0.00 in0.0 mm
02:32 AM 33.4°F0.8°C 25.7°F-3.5°C 73% Calm Calm 1.7 mph2.7 kmh 30.60 in1036.2 mb 0.00 in0.0 mm 0.00 in0.0 mm 0.00 in0.0 mm
02:33 AM 33.3°F0.7°C 25.9°F-3.4°C 74% Calm Calm 1.7 mph2.7 kmh 30.60 in1036.2 mb 0.00 in0.0 mm 0.00 in0.0 mm 0.00 in0.0 mm
02:34 AM 33.3°F0.7°C 25.9°F-3.4°C 74% Calm Calm 1.7 mph2.7 kmh 30.60 in1036.2 mb 0.00 in0.0 mm 0.00 in0.0 mm 0.00 in0.0 mm
02:35 AM 33.3°F0.7°C 25.9°F-3.4°C 74% 2.2 mph SSE3.5 kmh SSE 2.2 mph3.5 kmh 30.60 in1036.2 mb 0.00 in0.0 mm 0.00 in0.0 mm 0.00 in0.0 mm
02:36 AM 33.4°F0.8°C 26.0°F-3.3°C 74% Calm Calm 2.2 mph3.5 kmh 30.60 in1036.2 mb 0.00 in0.0 mm 0.00 in0.0 mm 0.00 in0.0 mm
02:37 AM 33.4°F0.8°C 26.0°F-3.3°C 74% Calm Calm 2.2 mph3.5 kmh 30.60 in1036.2 mb 0.00 in0.0 mm 0.00 in0.0 mm 0.00 in0.0 mm
02:38 AM 33.4°F0.8°C 26.0°F-3.3°C 74% 1.7 mph E2.7 kmh E 2.2 mph3.5 kmh 30.60 in1036.2 mb 0.00 in0.0 mm 0.00 in0.0 mm 0.00 in0.0 mm
02:39 AM 33.6°F0.9°C 26.2°F-3.2°C 74% 2.2 mph E3.5 kmh E 2.2 mph3.5 kmh 30.60 in1036.2 mb 0.00 in0.0 mm 0.00 in0.0 mm 0.00 in0.0 mm
02:40 AM 33.4°F0.8°C 26.0°F-3.3°C 74% 1.7 mph E2.7 kmh E 2.2 mph3.5 kmh 30.60 in1036.2 mb 0.00 in0.0 mm 0.00 in0.0 mm 0.00 in0.0 mm
02:41 AM 33.4°F0.8°C 26.0°F-3.3°C 74% Calm Calm 2.2 mph3.5 kmh 30.60 in1036.2 mb 0.00 in0.0 mm 0.00 in0.0 mm 0.00 in0.0 mm
02:42 AM 33.4°F0.8°C 26.0°F-3.3°C 74% 1.1 mph SE1.8 kmh SE 2.2 mph3.5 kmh 30.60 in1036.2 mb 0.00 in0.0 mm 0.00 in0.0 mm 0.00 in0.0 mm
02:43 AM 33.4°F0.8°C 26.0°F-3.3°C 74% 1.1 mph ESE1.8 kmh ESE 2.2 mph3.5 kmh 30.60 in1036.2 mb 0.00 in0.0 mm 0.00 in0.0 mm 0.00 in0.0 mm
02:44 AM 33.4°F0.8°C 26.0°F-3.3°C 74% 1.1 mph SE1.8 kmh SE 2.2 mph3.5 kmh 30.60 in1036.2 mb 0.00 in0.0 mm 0.00 in0.0 mm 0.00 in0.0 mm
02:45 AM 33.4°F0.8°C 26.0°F-3.3°C 74% 1.1 mph ENE1.8 kmh ENE 2.2 mph3.5 kmh 30.60 in1036.2 mb 0.00 in0.0 mm 0.00 in0.0 mm 0.00 in0.0 mm
02:46 AM 33.4°F0.8°C 26.0°F-3.3°C 74% 1.7 mph ENE2.7 kmh ENE 2.2 mph3.5 kmh 30.60 in1036.2 mb 0.00 in0.0 mm 0.00 in0.0 mm 0.00 in0.0 mm
02:47 AM 33.4°F0.8°C 26.0°F-3.3°C 74% 1.1 mph ESE1.8 kmh ESE 2.2 mph3.5 kmh 30.60 in1036.2 mb 0.00 in0.0 mm 0.00 in0.0 mm 0.00 in0.0 mm
02:48 AM 33.3°F0.7°C 25.9°F-3.4°C 74% 2.2 mph WNW3.5 kmh WNW 2.2 mph3.5 kmh 30.60 in1036.2 mb 0.00 in0.0 mm 0.00 in0.0 mm 0.00 in0.0 mm
02:49 AM 33.6°F0.9°C 26.2°F-3.2°C 74% 2.2 mph W3.5 kmh W 2.2 mph3.5 kmh 30.60 in1036.2 mb 0.00 in0.0 mm 0.00 in0.0 mm 0.00 in0.0 mm
02:50 AM 33.6°F0.9°C 26.2°F-3.2°C 74% 1.1 mph ESE1.8 kmh ESE 2.2 mph3.5 kmh 30.60 in1036.2 mb 0.00 in0.0 mm 0.00 in0.0 mm 0.00 in0.0 mm
02:51 AM 33.6°F0.9°C 26.2°F-3.2°C 74% 1.7 mph SSE2.7 kmh SSE 2.7 mph4.3 kmh 30.60 in1036.2 mb 0.00 in0.0 mm 0.00 in0.0 mm 0.00 in0.0 mm
02:52 AM 34.0°F1.1°C 26.3°F-3.2°C 73% 1.1 mph ESE1.8 kmh ESE 2.7 mph4.3 kmh 30.60 in1036.2 mb 0.00 in0.0 mm 0.00 in0.0 mm 0.00 in0.0 mm
02:53 AM 34.0°F1.1°C 26.3°F-3.2°C 73% 3.2 mph NE5.1 kmh NE 3.2 mph5.1 kmh 30.59 in1035.9 mb 0.00 in0.0 mm 0.00 in0.0 mm 0.00 in0.0 mm
02:54 AM 34.0°F1.1°C 26.3°F-3.2°C 73% 1.1 mph S1.8 kmh S 3.2 mph5.1 kmh 30.59 in1035.9 mb 0.00 in0.0 mm 0.00 in0.0 mm 0.00 in0.0 mm
02:55 AM 34.0°F1.1°C 26.3°F-3.2°C 73% Calm Calm 3.2 mph5.1 kmh 30.59 in1035.9 mb 0.00 in0.0 mm 0.00 in0.0 mm 0.00 in0.0 mm
02:56 AM 34.0°F1.1°C 26.3°F-3.2°C 73% Calm Calm 3.2 mph5.1 kmh 30.59 in1035.9 mb 0.00 in0.0 mm 0.00 in0.0 mm 0.00 in0.0 mm
02:57 AM 34.0°F1.1°C 26.3°F-3.2°C 73% 1.7 mph SE2.7 kmh SE 3.7 mph6.0 kmh 30.59 in1035.9 mb 0.00 in0.0 mm 0.00 in0.0 mm 0.00 in0.0 mm
02:58 AM 34.5°F1.4°C 26.4°F-3.1°C 72% 1.7 mph SE2.7 kmh SE 3.7 mph6.0 kmh 30.59 in1035.9 mb 0.00 in0.0 mm 0.00 in0.0 mm 0.00 in0.0 mm
02:59 AM 34.5°F1.4°C 26.4°F-3.1°C 72% 1.1 mph SE1.8 kmh SE 3.7 mph6.0 kmh 30.59 in1035.9 mb 0.00 in0.0 mm 0.00 in0.0 mm 0.00 in0.0 mm
03:00 AM 34.5°F1.4°C 26.4°F-3.1°C 72% 1.7 mph SE2.7 kmh SE 3.7 mph6.0 kmh 30.59 in1035.9 mb 0.00 in0.0 mm 0.00 in0.0 mm 0.00 in0.0 mm
03:01 AM 34.3°F1.3°C 26.2°F-3.2°C 72% 1.1 mph ESE1.8 kmh ESE 3.7 mph6.0 kmh 30.59 in1035.9 mb 0.00 in0.0 mm 0.00 in0.0 mm 0.00 in0.0 mm
03:02 AM 34.2°F1.2°C 26.1°F-3.3°C 72% 1.1 mph ESE1.8 kmh ESE 3.7 mph6.0 kmh 30.59 in1035.9 mb 0.00 in0.0 mm 0.00 in0.0 mm 0.00 in0.0 mm
03:03 AM 34.2°F1.2°C 26.1°F-3.3°C 72% 1.1 mph SE1.8 kmh SE 3.7 mph6.0 kmh 30.59 in1035.9 mb 0.00 in0.0 mm 0.00 in0.0 mm 0.00 in0.0 mm
03:04 AM 34.2°F1.2°C 26.1°F-3.3°C 72% 1.1 mph S1.8 kmh S 3.7 mph6.0 kmh 30.59 in1035.9 mb 0.00 in0.0 mm 0.00 in0.0 mm 0.00 in0.0 mm
03:05 AM 34.2°F1.2°C 26.1°F-3.3°C 72% 1.1 mph SSE1.8 kmh SSE 3.7 mph6.0 kmh 30.59 in1035.9 mb 0.00 in0.0 mm 0.00 in0.0 mm 0.00 in0.0 mm
03:06 AM 34.2°F1.2°C 26.1°F-3.3°C 72% Calm Calm 3.7 mph6.0 kmh 30.59 in1035.9 mb 0.00 in0.0 mm 0.00 in0.0 mm 0.00 in0.0 mm
03:07 AM 34.2°F1.2°C 26.1°F-3.3°C 72% Calm Calm 2.2 mph3.5 kmh 30.59 in1035.9 mb 0.00 in0.0 mm 0.00 in0.0 mm 0.00 in0.0 mm
03:08 AM 34.2°F1.2°C 26.1°F-3.3°C 72% 1.1 mph ESE1.8 kmh ESE 2.2 mph3.5 kmh 30.59 in1035.9 mb 0.00 in0.0 mm 0.00 in0.0 mm 0.00 in0.0 mm
03:09 AM 34.2°F1.2°C 26.1°F-3.3°C 72% 1.1 mph S1.8 kmh S 2.2 mph3.5 kmh 30.59 in1035.9 mb 0.00 in0.0 mm 0.00 in0.0 mm 0.00 in0.0 mm
03:10 AM 34.2°F1.2°C 26.1°F-3.3°C 72% 1.1 mph SSE1.8 kmh SSE 2.2 mph3.5 kmh 30.59 in1035.9 mb 0.00 in0.0 mm 0.00 in0.0 mm 0.00 in0.0 mm
03:11 AM 34.2°F1.2°C 26.1°F-3.3°C 72% 1.7 mph ESE2.7 kmh ESE 2.2 mph3.5 kmh 30.59 in1035.9 mb 0.00 in0.0 mm 0.00 in0.0 mm 0.00 in0.0 mm
03:12 AM 34.2°F1.2°C 26.1°F-3.3°C 72% 2.2 mph ESE3.5 kmh ESE 2.2 mph3.5 kmh 30.59 in1035.9 mb 0.00 in0.0 mm 0.00 in0.0 mm 0.00 in0.0 mm
03:13 AM 34.2°F1.2°C 26.1°F-3.3°C 72% 1.7 mph NE2.7 kmh NE 2.2 mph3.5 kmh 30.59 in1035.9 mb 0.00 in0.0 mm 0.00 in0.0 mm 0.00 in0.0 mm
03:14 AM 34.2°F1.2°C 26.1°F-3.3°C 72% Calm Calm 2.2 mph3.5 kmh 30.59 in1035.9 mb 0.00 in0.0 mm 0.00 in0.0 mm 0.00 in0.0 mm
03:15 AM 34.2°F1.2°C 26.1°F-3.3°C 72% 1.7 mph ESE2.7 kmh ESE 2.2 mph3.5 kmh 30.59 in1035.9 mb 0.00 in0.0 mm 0.00 in0.0 mm 0.00 in0.0 mm
03:16 AM 34.2°F1.2°C 26.1°F-3.3°C 72% 1.7 mph SE2.7 kmh SE 2.2 mph3.5 kmh 30.59 in1035.9 mb 0.00 in0.0 mm 0.00 in0.0 mm 0.00 in0.0 mm
03:17 AM 34.2°F1.2°C 26.1°F-3.3°C 72% 1.1 mph SSE1.8 kmh SSE 2.2 mph3.5 kmh 30.59 in1035.9 mb 0.00 in0.0 mm 0.00 in0.0 mm 0.00 in0.0 mm
03:18 AM 34.2°F1.2°C 26.1°F-3.3°C 72% Calm Calm 2.2 mph3.5 kmh 30.59 in1035.9 mb 0.00 in0.0 mm 0.00 in0.0 mm 0.00 in0.0 mm
03:19 AM 34.2°F1.2°C 26.1°F-3.3°C 72% 1.1 mph ESE1.8 kmh ESE 2.2 mph3.5 kmh 30.59 in1035.9 mb 0.00 in0.0 mm 0.00 in0.0 mm 0.00 in0.0 mm
03:20 AM 34.2°F1.2°C 26.1°F-3.3°C 72% 1.1 mph ESE1.8 kmh ESE 2.2 mph3.5 kmh 30.59 in1035.9 mb 0.00 in0.0 mm 0.00 in0.0 mm 0.00 in0.0 mm
03:21 AM 34.2°F1.2°C 26.1°F-3.3°C 72% Calm Calm 2.2 mph3.5 kmh 30.59 in1035.9 mb 0.00 in0.0 mm 0.00 in0.0 mm 0.00 in0.0 mm
03:22 AM 34.2°F1.2°C 26.1°F-3.3°C 72% 1.7 mph SSW2.7 kmh SSW 2.2 mph3.5 kmh 30.59 in1035.9 mb 0.00 in0.0 mm 0.00 in0.0 mm 0.00 in0.0 mm
03:23 AM 34.2°F1.2°C 26.1°F-3.3°C 72% 1.7 mph ESE2.7 kmh ESE 2.2 mph3.5 kmh 30.59 in1035.9 mb 0.00 in0.0 mm 0.00 in0.0 mm 0.00 in0.0 mm
03:24 AM 34.0°F1.1°C 25.9°F-3.4°C 72% 1.7 mph ESE2.7 kmh ESE 1.7 mph2.7 kmh 30.59 in1035.9 mb 0.00 in0.0 mm 0.00 in0.0 mm 0.00 in0.0 mm
03:25 AM 34.0°F1.1°C 25.9°F-3.4°C 72% 1.1 mph E1.8 kmh E 1.7 mph2.7 kmh 30.59 in1035.9 mb 0.00 in0.0 mm 0.00 in0.0 mm 0.00 in0.0 mm
03:26 AM 34.0°F1.1°C 25.9°F-3.4°C 72% Calm Calm 1.7 mph2.7 kmh 30.59 in1035.9 mb 0.00 in0.0 mm 0.00 in0.0 mm 0.00 in0.0 mm
03:27 AM 34.0°F1.1°C 25.9°F-3.4°C 72% Calm Calm 1.7 mph2.7 kmh 30.59 in1035.9 mb 0.00 in0.0 mm 0.00 in0.0 mm 0.00 in0.0 mm
03:28 AM 34.0°F1.1°C 25.9°F-3.4°C 72% Calm Calm 1.7 mph2.7 kmh 30.59 in1035.9 mb 0.00 in0.0 mm 0.00 in0.0 mm 0.00 in0.0 mm
03:29 AM 34.0°F1.1°C 25.9°F-3.4°C 72% 1.7 mph ENE2.7 kmh ENE 1.7 mph2.7 kmh 30.59 in1035.9 mb 0.00 in0.0 mm 0.00 in0.0 mm 0.00 in0.0 mm
03:30 AM 34.0°F1.1°C 25.9°F-3.4°C 72% 2.2 mph S3.5 kmh S 2.2 mph3.5 kmh 30.59 in1035.9 mb 0.00 in0.0 mm 0.00 in0.0 mm 0.00 in0.0 mm
03:31 AM 34.2°F1.2°C 26.1°F-3.3°C 72% Calm Calm 2.2 mph3.5 kmh 30.59 in1035.9 mb 0.00 in0.0 mm 0.00 in0.0 mm 0.00 in0.0 mm
03:32 AM 34.2°F1.2°C 26.1°F-3.3°C 72% Calm Calm 2.2 mph3.5 kmh 30.59 in1035.9 mb 0.00 in0.0 mm 0.00 in0.0 mm 0.00 in0.0 mm
03:33 AM 34.2°F1.2°C 26.1°F-3.3°C 72% Calm Calm 2.2 mph3.5 kmh 30.59 in1035.9 mb 0.00 in0.0 mm 0.00 in0.0 mm 0.00 in0.0 mm
03:34 AM 34.0°F1.1°C 25.9°F-3.4°C 72% Calm Calm 2.2 mph3.5 kmh 30.59 in1035.9 mb 0.00 in0.0 mm 0.00 in0.0 mm 0.00 in0.0 mm
03:35 AM 34.0°F1.1°C 25.9°F-3.4°C 72% 1.7 mph SW2.7 kmh SW 2.2 mph3.5 kmh 30.59 in1035.9 mb 0.00 in0.0 mm 0.00 in0.0 mm 0.00 in0.0 mm
03:36 AM 34.2°F1.2°C 26.1°F-3.3°C 72% Calm Calm 2.2 mph3.5 kmh 30.59 in1035.9 mb 0.00 in0.0 mm 0.00 in0.0 mm 0.00 in0.0 mm
03:37 AM 34.0°F1.1°C 25.9°F-3.4°C 72% 1.1 mph E1.8 kmh E 2.2 mph3.5 kmh 30.59 in1035.9 mb 0.00 in0.0 mm 0.00 in0.0 mm 0.00 in0.0 mm
03:38 AM 34.0°F1.1°C 25.9°F-3.4°C 72% Calm Calm 2.2 mph3.5 kmh 30.59 in1035.9 mb 0.00 in0.0 mm 0.00 in0.0 mm 0.00 in0.0 mm
03:39 AM 34.0°F1.1°C 25.9°F-3.4°C 72% 1.7 mph SE2.7 kmh SE 2.2 mph3.5 kmh 30.59 in1035.9 mb 0.00 in0.0 mm 0.00 in0.0 mm 0.00 in0.0 mm
03:40 AM 33.8°F1.0°C 25.7°F-3.5°C 72% Calm Calm 2.2 mph3.5 kmh 30.59 in1035.9 mb 0.00 in0.0 mm 0.00 in0.0 mm 0.00 in0.0 mm
03:41 AM 33.8°F1.0°C 25.7°F-3.5°C 72% Calm Calm 2.2 mph3.5 kmh 30.58 in1035.6 mb 0.00 in0.0 mm 0.00 in0.0 mm 0.00 in0.0 mm
03:42 AM 33.8°F1.0°C 25.7°F-3.5°C 72% Calm Calm 2.2 mph3.5 kmh 30.58 in1035.6 mb 0.00 in0.0 mm 0.00 in0.0 mm 0.00 in0.0 mm
03:43 AM 34.0°F1.1°C 25.9°F-3.4°C 72% 1.7 mph ENE2.7 kmh ENE 2.2 mph3.5 kmh 30.58 in1035.6 mb 0.00 in0.0 mm 0.00 in0.0 mm 0.00 in0.0 mm
03:44 AM 34.0°F1.1°C 25.9°F-3.4°C 72% Calm Calm 2.2 mph3.5 kmh 30.58 in1035.6 mb 0.00 in0.0 mm 0.00 in0.0 mm 0.00 in0.0 mm
03:45 AM 34.0°F1.1°C 25.9°F-3.4°C 72% 2.2 mph WNW3.5 kmh WNW 2.2 mph3.5 kmh 30.58 in1035.6 mb 0.00 in0.0 mm 0.00 in0.0 mm 0.00 in0.0 mm
03:46 AM 33.8°F1.0°C 25.7°F-3.5°C 72% Calm Calm 2.2 mph3.5 kmh 30.58 in1035.6 mb 0.00 in0.0 mm 0.00 in0.0 mm 0.00 in0.0 mm
03:47 AM 33.8°F1.0°C 25.7°F-3.5°C 72% Calm Calm 2.2 mph3.5 kmh 30.58 in1035.6 mb 0.00 in0.0 mm 0.00 in0.0 mm 0.00 in0.0 mm
03:48 AM 33.8°F1.0°C 25.7°F-3.5°C 72% 1.1 mph N1.8 kmh N 2.2 mph3.5 kmh 30.58 in1035.6 mb 0.00 in0.0 mm 0.00 in0.0 mm 0.00 in0.0 mm
03:49 AM 33.8°F1.0°C 25.7°F-3.5°C 72% 1.7 mph WNW2.7 kmh WNW 2.2 mph3.5 kmh 30.58 in1035.6 mb 0.00 in0.0 mm 0.00 in0.0 mm 0.00 in0.0 mm
03:50 AM 33.8°F1.0°C 25.7°F-3.5°C 72% 2.7 mph W4.3 kmh W 2.7 mph4.3 kmh 30.58 in1035.6 mb 0.00 in0.0 mm 0.00 in0.0 mm 0.00 in0.0 mm
03:51 AM 33.8°F1.0°C 25.7°F-3.5°C 72% Calm Calm 2.7 mph4.3 kmh 30.58 in1035.6 mb 0.00 in0.0 mm 0.00 in0.0 mm 0.00 in0.0 mm
03:52 AM 33.8°F1.0°C 26.1°F-3.3°C 73% 1.7 mph W2.7 kmh W 2.7 mph4.3 kmh 30.58 in1035.6 mb 0.00 in0.0 mm 0.00 in0.0 mm 0.00 in0.0 mm
03:53 AM 33.8°F1.0°C 26.4°F-3.1°C 74% 1.1 mph WNW1.8 kmh WNW 2.7 mph4.3 kmh 30.59 in1035.9 mb 0.00 in0.0 mm 0.00 in0.0 mm 0.00 in0.0 mm
03:54 AM 33.8°F1.0°C 26.4°F-3.1°C 74% 2.2 mph WNW3.5 kmh WNW 2.7 mph4.3 kmh 30.59 in1035.9 mb 0.00 in0.0 mm 0.00 in0.0 mm 0.00 in0.0 mm
03:55 AM 33.8°F1.0°C 26.7°F-2.9°C 75% 2.2 mph NW3.5 kmh NW 2.7 mph4.3 kmh 30.59 in1035.9 mb 0.00 in0.0 mm 0.00 in0.0 mm 0.00 in0.0 mm
03:56 AM 33.8°F1.0°C 27.1°F-2.7°C 76% 2.2 mph NW3.5 kmh NW 2.7 mph4.3 kmh 30.59 in1035.9 mb 0.00 in0.0 mm 0.00 in0.0 mm 0.00 in0.0 mm
03:57 AM 33.8°F1.0°C 27.1°F-2.7°C 76% 1.7 mph W2.7 kmh W 2.7 mph4.3 kmh 30.59 in1035.9 mb 0.00 in0.0 mm 0.00 in0.0 mm 0.00 in0.0 mm
03:58 AM 33.8°F1.0°C 27.1°F-2.7°C 76% 2.2 mph W3.5 kmh W 2.7 mph4.3 kmh 30.59 in1035.9 mb 0.00 in0.0 mm 0.00 in0.0 mm 0.00 in0.0 mm
03:59 AM 33.8°F1.0°C 27.1°F-2.7°C 76% 1.1 mph W1.8 kmh W 2.7 mph4.3 kmh 30.59 in1035.9 mb 0.00 in0.0 mm 0.00 in0.0 mm 0.00 in0.0 mm
04:00 AM 33.8°F1.0°C 27.1°F-2.7°C 76% 2.2 mph W3.5 kmh W 2.7 mph4.3 kmh 30.59 in1035.9 mb 0.00 in0.0 mm 0.00 in0.0 mm 0.00 in0.0 mm
04:01 AM 33.8°F1.0°C 26.7°F-2.9°C 75% 1.7 mph W2.7 kmh W 2.7 mph4.3 kmh 30.59 in1035.9 mb 0.00 in0.0 mm 0.00 in0.0 mm 0.00 in0.0 mm
04:02 AM 33.8°F1.0°C 26.7°F-2.9°C 75% 1.1 mph WSW1.8 kmh WSW 2.7 mph4.3 kmh 30.59 in1035.9 mb 0.00 in0.0 mm 0.00 in0.0 mm 0.00 in0.0 mm
04:03 AM 33.8°F1.0°C 26.7°F-2.9°C 75% Calm Calm 2.7 mph4.3 kmh 30.59 in1035.9 mb 0.00 in0.0 mm 0.00 in0.0 mm 0.00 in0.0 mm
04:04 AM 33.6°F0.9°C 26.5°F-3.1°C 75% Calm Calm 2.7 mph4.3 kmh 30.59 in1035.9 mb 0.00 in0.0 mm 0.00 in0.0 mm 0.00 in0.0 mm
04:05 AM 33.6°F0.9°C 26.5°F-3.1°C 75% Calm Calm 2.7 mph4.3 kmh 30.59 in1035.9 mb 0.00 in0.0 mm 0.00 in0.0 mm 0.00 in0.0 mm
04:06 AM 33.6°F0.9°C 26.5°F-3.1°C 75% Calm Calm 2.2 mph3.5 kmh 30.59 in1035.9 mb 0.00 in0.0 mm 0.00 in0.0 mm 0.00 in0.0 mm
04:07 AM 33.6°F0.9°C 26.2°F-3.2°C 74% 1.7 mph S2.7 kmh S 2.2 mph3.5 kmh 30.59 in1035.9 mb 0.00 in0.0 mm 0.00 in0.0 mm 0.00 in0.0 mm
04:08 AM 33.6°F0.9°C 26.2°F-3.2°C 74% Calm Calm 2.2 mph3.5 kmh 30.59 in1035.9 mb 0.00 in0.0 mm 0.00 in0.0 mm 0.00 in0.0 mm
04:09 AM 33.6°F0.9°C 26.2°F-3.2°C 74% Calm Calm 2.2 mph3.5 kmh 30.59 in1035.9 mb 0.00 in0.0 mm 0.00 in0.0 mm 0.00 in0.0 mm
04:10 AM 33.4°F0.8°C 26.0°F-3.3°C 74% 1.1 mph SSE1.8 kmh SSE 2.2 mph3.5 kmh 30.59 in1035.9 mb 0.00 in0.0 mm 0.00 in0.0 mm 0.00 in0.0 mm
04:11 AM 33.4°F0.8°C 26.0°F-3.3°C 74% 1.7 mph SE2.7 kmh SE 2.2 mph3.5 kmh 30.59 in1035.9 mb 0.00 in0.0 mm 0.00 in0.0 mm 0.00 in0.0 mm
04:12 AM 33.4°F0.8°C 26.0°F-3.3°C 74% Calm Calm 2.2 mph3.5 kmh 30.59 in1035.9 mb 0.00 in0.0 mm 0.00 in0.0 mm 0.00 in0.0 mm
04:13 AM 33.3°F0.7°C 26.2°F-3.2°C 75% Calm Calm 2.2 mph3.5 kmh 30.59 in1035.9 mb 0.00 in0.0 mm 0.00 in0.0 mm 0.00 in0.0 mm
04:14 AM 33.3°F0.7°C 26.2°F-3.2°C 75% Calm Calm 2.2 mph3.5 kmh 30.59 in1035.9 mb 0.00 in0.0 mm 0.00 in0.0 mm 0.00 in0.0 mm
04:15 AM 33.3°F0.7°C 26.2°F-3.2°C 75% Calm Calm 2.2 mph3.5 kmh 30.59 in1035.9 mb 0.00 in0.0 mm 0.00 in0.0 mm 0.00 in0.0 mm
04:16 AM 33.3°F0.7°C 26.2°F-3.2°C 75% 2.7 mph ESE4.3 kmh ESE 2.7 mph4.3 kmh 30.59 in1035.9 mb 0.00 in0.0 mm 0.00 in0.0 mm 0.00 in0.0 mm
04:17 AM 33.3°F0.7°C 26.2°F-3.2°C 75% 1.1 mph SE1.8 kmh SE 2.7 mph4.3 kmh 30.58 in1035.6 mb 0.00 in0.0 mm 0.00 in0.0 mm 0.00 in0.0 mm
04:18 AM 33.3°F0.7°C 26.2°F-3.2°C 75% Calm Calm 2.7 mph4.3 kmh 30.58 in1035.6 mb 0.00 in0.0 mm 0.00 in0.0 mm 0.00 in0.0 mm
04:19 AM 33.3°F0.7°C 26.2°F-3.2°C 75% 1.7 mph ESE2.7 kmh ESE 2.7 mph4.3 kmh 30.58 in1035.6 mb 0.00 in0.0 mm 0.00 in0.0 mm 0.00 in0.0 mm
04:20 AM 33.4°F0.8°C 26.3°F-3.2°C 75% 1.1 mph N1.8 kmh N 2.7 mph4.3 kmh 30.58 in1035.6 mb 0.00 in0.0 mm 0.00 in0.0 mm 0.00 in0.0 mm
04:21 AM 33.4°F0.8°C 26.3°F-3.2°C 75% 1.1 mph ESE1.8 kmh ESE 2.7 mph4.3 kmh 30.58 in1035.6 mb 0.00 in0.0 mm 0.00 in0.0 mm 0.00 in0.0 mm
04:22 AM 33.4°F0.8°C 26.3°F-3.2°C 75% 2.2 mph SE3.5 kmh SE 2.7 mph4.3 kmh 30.58 in1035.6 mb 0.00 in0.0 mm 0.00 in0.0 mm 0.00 in0.0 mm
04:23 AM 33.4°F0.8°C 26.0°F-3.3°C 74% Calm Calm 2.7 mph4.3 kmh 30.58 in1035.6 mb 0.00 in0.0 mm 0.00 in0.0 mm 0.00 in0.0 mm
04:24 AM 33.4°F0.8°C 26.0°F-3.3°C 74% 2.2 mph S3.5 kmh S 2.7 mph4.3 kmh 30.58 in1035.6 mb 0.00 in0.0 mm 0.00 in0.0 mm 0.00 in0.0 mm
04:25 AM 33.6°F0.9°C 26.2°F-3.2°C 74% 2.7 mph WNW4.3 kmh WNW 3.2 mph5.1 kmh 30.58 in1035.6 mb 0.00 in0.0 mm 0.00 in0.0 mm 0.00 in0.0 mm
04:26 AM 33.6°F0.9°C 26.2°F-3.2°C 74% Calm Calm 3.2 mph5.1 kmh 30.58 in1035.6 mb 0.00 in0.0 mm 0.00 in0.0 mm 0.00 in0.0 mm
04:27 AM 33.6°F0.9°C 26.2°F-3.2°C 74% 2.2 mph NW3.5 kmh NW 3.2 mph5.1 kmh 30.58 in1035.6 mb 0.00 in0.0 mm 0.00 in0.0 mm 0.00 in0.0 mm
04:28 AM 34.0°F1.1°C 26.6°F-3.0°C 74% 1.1 mph W1.8 kmh W 3.2 mph5.1 kmh 30.58 in1035.6 mb 0.00 in0.0 mm 0.00 in0.0 mm 0.00 in0.0 mm
04:29 AM 34.0°F1.1°C 26.3°F-3.2°C 73% 1.1 mph W1.8 kmh W 3.2 mph5.1 kmh 30.58 in1035.6 mb 0.00 in0.0 mm 0.00 in0.0 mm 0.00 in0.0 mm
04:30 AM 34.0°F1.1°C 26.3°F-3.2°C 73% 2.2 mph S3.5 kmh S 3.2 mph5.1 kmh 30.58 in1035.6 mb 0.00 in0.0 mm 0.00 in0.0 mm 0.00 in0.0 mm
04:31 AM 34.0°F1.1°C 26.3°F-3.2°C 73% 1.7 mph ESE2.7 kmh ESE 3.2 mph5.1 kmh 30.58 in1035.6 mb 0.00 in0.0 mm 0.00 in0.0 mm 0.00 in0.0 mm
04:32 AM 34.0°F1.1°C 26.3°F-3.2°C 73% 2.7 mph N4.3 kmh N 3.2 mph5.1 kmh 30.58 in1035.6 mb 0.00 in0.0 mm 0.00 in0.0 mm 0.00 in0.0 mm
04:33 AM 34.0°F1.1°C 26.3°F-3.2°C 73% 1.7 mph ESE2.7 kmh ESE 3.2 mph5.1 kmh 30.58 in1035.6 mb 0.00 in0.0 mm 0.00 in0.0 mm 0.00 in0.0 mm
04:34 AM 34.2°F1.2°C 26.5°F-3.1°C 73% 1.7 mph NNW2.7 kmh NNW 3.2 mph5.1 kmh 30.58 in1035.6 mb 0.00 in0.0 mm 0.00 in0.0 mm 0.00 in0.0 mm
04:35 AM 34.2°F1.2°C 26.5°F-3.1°C 73% 2.2 mph S3.5 kmh S 2.7 mph4.3 kmh 30.58 in1035.6 mb 0.00 in0.0 mm 0.00 in0.0 mm 0.00 in0.0 mm
04:36 AM 34.2°F1.2°C 26.5°F-3.1°C 73% Calm Calm 2.7 mph4.3 kmh 30.58 in1035.6 mb 0.00 in0.0 mm 0.00 in0.0 mm 0.00 in0.0 mm
04:37 AM 34.0°F1.1°C 26.3°F-3.2°C 73% 2.2 mph ESE3.5 kmh ESE 2.7 mph4.3 kmh 30.58 in1035.6 mb 0.00 in0.0 mm 0.00 in0.0 mm 0.00 in0.0 mm
04:38 AM 34.0°F1.1°C 26.3°F-3.2°C 73% 1.7 mph W2.7 kmh W 2.7 mph4.3 kmh 30.58 in1035.6 mb 0.00 in0.0 mm 0.00 in0.0 mm 0.00 in0.0 mm
04:39 AM 34.0°F1.1°C 26.3°F-3.2°C 73% 2.7 mph SE4.3 kmh SE 2.7 mph4.3 kmh 30.58 in1035.6 mb 0.00 in0.0 mm 0.00 in0.0 mm 0.00 in0.0 mm
04:40 AM 34.3°F1.3°C 26.2°F-3.2°C 72% 2.2 mph SSE3.5 kmh SSE 4.2 mph6.8 kmh 30.58 in1035.6 mb 0.00 in0.0 mm 0.00 in0.0 mm 0.00 in0.0 mm
04:41 AM 34.7°F1.5°C 26.6°F-3.0°C 72% 1.7 mph S2.7 kmh S 4.2 mph6.8 kmh 30.58 in1035.6 mb 0.00 in0.0 mm 0.00 in0.0 mm 0.00 in0.0 mm
04:42 AM 34.5°F1.4°C 26.4°F-3.1°C 72% 2.2 mph SE3.5 kmh SE 4.2 mph6.8 kmh 30.58 in1035.6 mb 0.00 in0.0 mm 0.00 in0.0 mm 0.00 in0.0 mm
04:43 AM 34.3°F1.3°C 26.2°F-3.2°C 72% 1.7 mph SW2.7 kmh SW 4.2 mph6.8 kmh 30.58 in1035.6 mb 0.00 in0.0 mm 0.00 in0.0 mm 0.00 in0.0 mm
04:44 AM 34.3°F1.3°C 26.2°F-3.2°C 72% 2.7 mph W4.3 kmh W 4.2 mph6.8 kmh 30.58 in1035.6 mb 0.00 in0.0 mm 0.00 in0.0 mm 0.00 in0.0 mm
04:45 AM 34.5°F1.4°C 26.4°F-3.1°C 72% Calm Calm 4.2 mph6.8 kmh 30.58 in1035.6 mb 0.00 in0.0 mm 0.00 in0.0 mm 0.00 in0.0 mm
04:46 AM 34.5°F1.4°C 26.4°F-3.1°C 72% 1.1 mph NNW1.8 kmh NNW 4.2 mph6.8 kmh 30.58 in1035.6 mb 0.00 in0.0 mm 0.00 in0.0 mm 0.00 in0.0 mm
04:47 AM 34.3°F1.3°C 26.2°F-3.2°C 72% 1.7 mph S2.7 kmh S 4.2 mph6.8 kmh 30.58 in1035.6 mb 0.00 in0.0 mm 0.00 in0.0 mm 0.00 in0.0 mm
04:48 AM 34.3°F1.3°C 26.2°F-3.2°C 72% 1.7 mph S2.7 kmh S 4.2 mph6.8 kmh 30.58 in1035.6 mb 0.00 in0.0 mm 0.00 in0.0 mm 0.00 in0.0 mm
04:49 AM 34.3°F1.3°C 26.2°F-3.2°C 72% 1.1 mph E1.8 kmh E 4.2 mph6.8 kmh 30.58 in1035.6 mb 0.00 in0.0 mm 0.00 in0.0 mm 0.00 in0.0 mm
04:50 AM 34.2°F1.2°C 26.1°F-3.3°C 72% 1.1 mph NNW1.8 kmh NNW 3.7 mph6.0 kmh 30.58 in1035.6 mb 0.00 in0.0 mm 0.00 in0.0 mm 0.00 in0.0 mm
04:51 AM 34.2°F1.2°C 26.1°F-3.3°C 72% 2.2 mph S3.5 kmh S 3.7 mph6.0 kmh 30.58 in1035.6 mb 0.00 in0.0 mm 0.00 in0.0 mm 0.00 in0.0 mm
04:52 AM 34.3°F1.3°C 26.2°F-3.2°C 72% 4.2 mph S6.8 kmh S 4.2 mph6.8 kmh 30.58 in1035.6 mb 0.00 in0.0 mm 0.00 in0.0 mm 0.00 in0.0 mm
04:53 AM 34.7°F1.5°C 26.3°F-3.2°C 71% 2.2 mph SSE3.5 kmh SSE 4.2 mph6.8 kmh 30.58 in1035.6 mb 0.00 in0.0 mm 0.00 in0.0 mm 0.00 in0.0 mm
04:54 AM 34.9°F1.6°C 26.5°F-3.1°C 71% 1.7 mph W2.7 kmh W 4.2 mph6.8 kmh 30.58 in1035.6 mb 0.00 in0.0 mm 0.00 in0.0 mm 0.00 in0.0 mm
04:55 AM 34.5°F1.4°C 26.1°F-3.3°C 71% 1.7 mph WNW2.7 kmh WNW 4.2 mph6.8 kmh 30.58 in1035.6 mb 0.00 in0.0 mm 0.00 in0.0 mm 0.00 in0.0 mm
04:56 AM 34.3°F1.3°C 26.2°F-3.2°C 72% 1.7 mph WNW2.7 kmh WNW 4.2 mph6.8 kmh 30.58 in1035.6 mb 0.00 in0.0 mm 0.00 in0.0 mm 0.00 in0.0 mm
04:57 AM 34.3°F1.3°C 26.2°F-3.2°C 72% 1.1 mph W1.8 kmh W 4.2 mph6.8 kmh 30.58 in1035.6 mb 0.00 in0.0 mm 0.00 in0.0 mm 0.00 in0.0 mm
04:58 AM 34.2°F1.2°C 26.5°F-3.1°C 73% Calm Calm 4.2 mph6.8 kmh 30.58 in1035.6 mb 0.00 in0.0 mm 0.00 in0.0 mm 0.00 in0.0 mm
04:59 AM 34.2°F1.2°C 26.5°F-3.1°C 73% 1.1 mph NW1.8 kmh NW 4.2 mph6.8 kmh 30.58 in1035.6 mb 0.00 in0.0 mm 0.00 in0.0 mm 0.00 in0.0 mm
05:00 AM 34.2°F1.2°C 26.5°F-3.1°C 73% Calm Calm 4.2 mph6.8 kmh 30.58 in1035.6 mb 0.00 in0.0 mm 0.00 in0.0 mm 0.00 in0.0 mm
05:01 AM 34.2°F1.2°C 26.5°F-3.1°C 73% 1.7 mph W2.7 kmh W 4.2 mph6.8 kmh 30.58 in1035.6 mb 0.00 in0.0 mm 0.00 in0.0 mm 0.00 in0.0 mm
05:02 AM 34.0°F1.1°C 26.6°F-3.0°C 74% Calm Calm 4.2 mph6.8 kmh 30.58 in1035.6 mb 0.00 in0.0 mm 0.00 in0.0 mm 0.00 in0.0 mm
05:03 AM 34.0°F1.1°C 26.6°F-3.0°C 74% Calm Calm 2.2 mph3.5 kmh 30.58 in1035.6 mb 0.00 in0.0 mm 0.00 in0.0 mm 0.00 in0.0 mm
05:04 AM 33.8°F1.0°C 26.4°F-3.1°C 74% Calm Calm 2.2 mph3.5 kmh 30.58 in1035.6 mb 0.00 in0.0 mm 0.00 in0.0 mm 0.00 in0.0 mm
05:05 AM 33.8°F1.0°C 26.7°F-2.9°C 75% Calm Calm 2.2 mph3.5 kmh 30.58 in1035.6 mb 0.00 in0.0 mm 0.00 in0.0 mm 0.00 in0.0 mm
05:06 AM 33.8°F1.0°C 26.7°F-2.9°C 75% Calm Calm 1.7 mph2.7 kmh 30.58 in1035.6 mb 0.00 in0.0 mm 0.00 in0.0 mm 0.00 in0.0 mm
05:07 AM 33.6°F0.9°C 26.5°F-3.1°C 75% 1.1 mph W1.8 kmh W 2.2 mph3.5 kmh 30.58 in1035.6 mb 0.00 in0.0 mm 0.00 in0.0 mm 0.00 in0.0 mm
05:08 AM 33.6°F0.9°C 26.5°F-3.1°C 75% Calm Calm 2.2 mph3.5 kmh 30.58 in1035.6 mb 0.00 in0.0 mm 0.00 in0.0 mm 0.00 in0.0 mm
05:09 AM 33.4°F0.8°C 26.3°F-3.2°C 75% 1.1 mph SSE1.8 kmh SSE 2.2 mph3.5 kmh 30.58 in1035.6 mb 0.00 in0.0 mm 0.00 in0.0 mm 0.00 in0.0 mm
05:10 AM 33.4°F0.8°C 26.3°F-3.2°C 75% Calm Calm 2.2 mph3.5 kmh 30.58 in1035.6 mb 0.00 in0.0 mm 0.00 in0.0 mm 0.00 in0.0 mm
05:11 AM 33.4°F0.8°C 26.3°F-3.2°C 75% 1.7 mph ESE2.7 kmh ESE 2.2 mph3.5 kmh 30.58 in1035.6 mb 0.00 in0.0 mm 0.00 in0.0 mm 0.00 in0.0 mm
05:12 AM 33.3°F0.7°C 26.2°F-3.2°C 75% 1.1 mph SE1.8 kmh SE 2.2 mph3.5 kmh 30.58 in1035.6 mb 0.00 in0.0 mm 0.00 in0.0 mm 0.00 in0.0 mm
05:13 AM 33.3°F0.7°C 26.2°F-3.2°C 75% 1.7 mph SSW2.7 kmh SSW 2.2 mph3.5 kmh 30.58 in1035.6 mb 0.00 in0.0 mm 0.00 in0.0 mm 0.00 in0.0 mm
05:14 AM 33.3°F0.7°C 26.2°F-3.2°C 75% 2.2 mph S3.5 kmh S 2.7 mph4.3 kmh 30.58 in1035.6 mb 0.00 in0.0 mm 0.00 in0.0 mm 0.00 in0.0 mm
05:15 AM 33.6°F0.9°C 26.2°F-3.2°C 74% 1.1 mph ENE1.8 kmh ENE 2.7 mph4.3 kmh 30.58 in1035.6 mb 0.00 in0.0 mm 0.00 in0.0 mm 0.00 in0.0 mm
05:16 AM 33.4°F0.8°C 26.0°F-3.3°C 74% 1.1 mph NNW1.8 kmh NNW 2.7 mph4.3 kmh 30.58 in1035.6 mb 0.00 in0.0 mm 0.00 in0.0 mm 0.00 in0.0 mm
05:17 AM 33.4°F0.8°C 26.0°F-3.3°C 74% 1.1 mph S1.8 kmh S 2.7 mph4.3 kmh 30.58 in1035.6 mb 0.00 in0.0 mm 0.00 in0.0 mm 0.00 in0.0 mm
05:18 AM 33.4°F0.8°C 26.0°F-3.3°C 74% Calm Calm 2.7 mph4.3 kmh 30.58 in1035.6 mb 0.00 in0.0 mm 0.00 in0.0 mm 0.00 in0.0 mm
05:19 AM 33.4°F0.8°C 26.0°F-3.3°C 74% 1.1 mph E1.8 kmh E 2.7 mph4.3 kmh 30.58 in1035.6 mb 0.00 in0.0 mm 0.00 in0.0 mm 0.00 in0.0 mm
05:20 AM 33.3°F0.7°C 25.9°F-3.4°C 74% 1.1 mph ENE1.8 kmh ENE 2.7 mph4.3 kmh 30.58 in1035.6 mb 0.00 in0.0 mm 0.00 in0.0 mm 0.00 in0.0 mm
05:21 AM 33.3°F0.7°C 25.9°F-3.4°C 74% Calm Calm 2.7 mph4.3 kmh 30.58 in1035.6 mb 0.00 in0.0 mm 0.00 in0.0 mm 0.00 in0.0 mm
05:22 AM 33.4°F0.8°C 26.0°F-3.3°C 74% 1.7 mph S2.7 kmh S 2.7 mph4.3 kmh 30.58 in1035.6 mb 0.00 in0.0 mm 0.00 in0.0 mm 0.00 in0.0 mm
05:23 AM 33.6°F0.9°C 26.2°F-3.2°C 74% 1.7 mph S2.7 kmh S 2.7 mph4.3 kmh 30.58 in1035.6 mb 0.00 in0.0 mm 0.00 in0.0 mm 0.00 in0.0 mm
05:24 AM 33.6°F0.9°C 26.2°F-3.2°C 74% Calm Calm 2.2 mph3.5 kmh 30.58 in1035.6 mb 0.00 in0.0 mm 0.00 in0.0 mm 0.00 in0.0 mm
05:25 AM 33.4°F0.8°C 26.0°F-3.3°C 74% 1.1 mph E1.8 kmh E 2.2 mph3.5 kmh 30.58 in1035.6 mb 0.00 in0.0 mm 0.00 in0.0 mm 0.00 in0.0 mm
05:26 AM 33.3°F0.7°C 25.9°F-3.4°C 74% Calm Calm 2.2 mph3.5 kmh 30.58 in1035.6 mb 0.00 in0.0 mm 0.00 in0.0 mm 0.00 in0.0 mm
05:27 AM 33.3°F0.7°C 25.9°F-3.4°C 74% Calm Calm 1.7 mph2.7 kmh 30.58 in1035.6 mb 0.00 in0.0 mm 0.00 in0.0 mm 0.00 in0.0 mm
05:28 AM 33.3°F0.7°C 26.2°F-3.2°C 75% Calm Calm 1.7 mph2.7 kmh 30.58 in1035.6 mb 0.00 in0.0 mm 0.00 in0.0 mm 0.00 in0.0 mm
05:29 AM 33.1°F0.6°C 26.1°F-3.3°C 75% Calm Calm 1.7 mph2.7 kmh 30.58 in1035.6 mb 0.00 in0.0 mm 0.00 in0.0 mm 0.00 in0.0 mm
05:30 AM 33.1°F0.6°C 26.1°F-3.3°C 75% Calm Calm 1.7 mph2.7 kmh 30.58 in1035.6 mb 0.00 in0.0 mm 0.00 in0.0 mm 0.00 in0.0 mm
05:31 AM 33.1°F0.6°C 26.1°F-3.3°C 75% Calm Calm 1.7 mph2.7 kmh 30.58 in1035.6 mb 0.00 in0.0 mm 0.00 in0.0 mm 0.00 in0.0 mm
05:32 AM 33.1°F0.6°C 26.1°F-3.3°C 75% 1.1 mph NW1.8 kmh NW 1.7 mph2.7 kmh 30.58 in1035.6 mb 0.00 in0.0 mm 0.00 in0.0 mm 0.00 in0.0 mm
05:33 AM 32.9°F0.5°C 25.9°F-3.4°C 75% 1.1 mph WNW1.8 kmh WNW 1.7 mph2.7 kmh 30.58 in1035.6 mb 0.00 in0.0 mm 0.00 in0.0 mm 0.00 in0.0 mm
05:34 AM 32.9°F0.5°C 26.2°F-3.2°C 76% Calm Calm 1.7 mph2.7 kmh 30.58 in1035.6 mb 0.00 in0.0 mm 0.00 in0.0 mm 0.00 in0.0 mm
05:35 AM 32.9°F0.5°C 26.2°F-3.2°C 76% Calm Calm 2.7 mph4.3 kmh 30.58 in1035.6 mb 0.00 in0.0 mm 0.00 in0.0 mm 0.00 in0.0 mm
05:36 AM 32.9°F0.5°C 26.2°F-3.2°C 76% Calm Calm 2.7 mph4.3 kmh 30.58 in1035.6 mb 0.00 in0.0 mm 0.00 in0.0 mm 0.00 in0.0 mm
05:37 AM 32.9°F0.5°C 26.2°F-3.2°C 76% Calm Calm 2.7 mph4.3 kmh 30.58 in1035.6 mb 0.00 in0.0 mm 0.00 in0.0 mm 0.00 in0.0 mm
05:38 AM 32.7°F0.4°C 26.0°F-3.3°C 76% 1.7 mph WNW2.7 kmh WNW 2.7 mph4.3 kmh 30.58 in1035.6 mb 0.00 in0.0 mm 0.00 in0.0 mm 0.00 in0.0 mm
05:39 AM 32.7°F0.4°C 26.3°F-3.2°C 77% 1.1 mph W1.8 kmh W 2.7 mph4.3 kmh 30.58 in1035.6 mb 0.00 in0.0 mm 0.00 in0.0 mm 0.00 in0.0 mm
05:40 AM 32.7°F0.4°C 26.3°F-3.2°C 77% Calm Calm 2.7 mph4.3 kmh 30.58 in1035.6 mb 0.00 in0.0 mm 0.00 in0.0 mm 0.00 in0.0 mm
05:41 AM 32.5°F0.3°C 26.1°F-3.3°C 77% Calm Calm 2.7 mph4.3 kmh 30.59 in1035.9 mb 0.00 in0.0 mm 0.00 in0.0 mm 0.00 in0.0 mm
05:42 AM 32.5°F0.3°C 26.1°F-3.3°C 77% Calm Calm 2.7 mph4.3 kmh 30.59 in1035.9 mb 0.00 in0.0 mm 0.00 in0.0 mm 0.00 in0.0 mm
05:43 AM 32.5°F0.3°C 26.1°F-3.3°C 77% Calm Calm 2.7 mph4.3 kmh 30.59 in1035.9 mb 0.00 in0.0 mm 0.00 in0.0 mm 0.00 in0.0 mm
05:44 AM 32.4°F0.2°C 26.0°F-3.3°C 77% Calm Calm 2.7 mph4.3 kmh 30.59 in1035.9 mb 0.00 in0.0 mm 0.00 in0.0 mm 0.00 in0.0 mm
05:45 AM 32.4°F0.2°C 26.0°F-3.3°C 77% Calm Calm 2.2 mph3.5 kmh 30.59 in1035.9 mb 0.00 in0.0 mm 0.00 in0.0 mm 0.00 in0.0 mm
05:46 AM 32.4°F0.2°C 26.0°F-3.3°C 77% Calm Calm 2.2 mph3.5 kmh 30.59 in1035.9 mb 0.00 in0.0 mm 0.00 in0.0 mm 0.00 in0.0 mm
05:47 AM 32.4°F0.2°C 26.0°F-3.3°C 77% Calm Calm 2.2 mph3.5 kmh 30.59 in1035.9 mb 0.00 in0.0 mm 0.00 in0.0 mm 0.00 in0.0 mm
05:48 AM 32.4°F0.2°C 26.0°F-3.3°C 77% Calm Calm 2.2 mph3.5 kmh 30.59 in1035.9 mb 0.00 in0.0 mm 0.00 in0.0 mm 0.00 in0.0 mm
05:49 AM 32.2°F0.1°C 25.8°F-3.4°C 77% Calm Calm 1.1 mph1.8 kmh 30.59 in1035.9 mb 0.00 in0.0 mm 0.00 in0.0 mm 0.00 in0.0 mm
05:50 AM 32.2°F0.1°C 25.8°F-3.4°C 77% Calm Calm 1.1 mph1.8 kmh 30.59 in1035.9 mb 0.00 in0.0 mm 0.00 in0.0 mm 0.00 in0.0 mm
05:51 AM 32.2°F0.1°C 25.8°F-3.4°C 77% Calm Calm 1.1 mph1.8 kmh 30.59 in1035.9 mb 0.00 in0.0 mm 0.00 in0.0 mm 0.00 in0.0 mm
05:52 AM 32.0°F0.0°C 25.6°F-3.6°C 77% 1.1 mph SE1.8 kmh SE 1.1 mph1.8 kmh 30.59 in1035.9 mb 0.00 in0.0 mm 0.00 in0.0 mm 0.00 in0.0 mm
05:53 AM 32.0°F0.0°C 25.6°F-3.6°C 77% Calm Calm 1.1 mph1.8 kmh 30.59 in1035.9 mb 0.00 in0.0 mm 0.00 in0.0 mm 0.00 in0.0 mm
05:54 AM 32.0°F0.0°C 25.6°F-3.6°C 77% Calm Calm 1.1 mph1.8 kmh 30.59 in1035.9 mb 0.00 in0.0 mm 0.00 in0.0 mm 0.00 in0.0 mm
05:55 AM 31.8°F-0.1°C 25.4°F-3.7°C 77% Calm Calm 1.1 mph1.8 kmh 30.59 in1035.9 mb 0.00 in0.0 mm 0.00 in0.0 mm 0.00 in0.0 mm
05:56 AM 31.8°F-0.1°C 25.7°F-3.5°C 78% Calm Calm 1.1 mph1.8 kmh 30.59 in1035.9 mb 0.00 in0.0 mm 0.00 in0.0 mm 0.00 in0.0 mm
05:57 AM 31.6°F-0.2°C 25.5°F-3.6°C 78% Calm Calm 1.1 mph1.8 kmh 30.59 in1035.9 mb 0.00 in0.0 mm 0.00 in0.0 mm 0.00 in0.0 mm
05:58 AM 31.6°F-0.2°C 25.5°F-3.6°C 78% Calm Calm 1.1 mph1.8 kmh 30.59 in1035.9 mb 0.00 in0.0 mm 0.00 in0.0 mm 0.00 in0.0 mm
05:59 AM 31.5°F-0.3°C 25.8°F-3.4°C 79% Calm Calm 1.1 mph1.8 kmh 30.59 in1035.9 mb 0.00 in0.0 mm 0.00 in0.0 mm 0.00 in0.0 mm
06:00 AM 31.5°F-0.3°C 25.8°F-3.4°C 79% Calm Calm 1.1 mph1.8 kmh 30.59 in1035.9 mb 0.00 in0.0 mm 0.00 in0.0 mm 0.00 in0.0 mm
06:01 AM 31.5°F-0.3°C 26.4°F-3.1°C 81% Calm Calm 1.1 mph1.8 kmh 30.59 in1035.9 mb 0.00 in0.0 mm 0.00 in0.0 mm 0.00 in0.0 mm
06:02 AM 31.5°F-0.3°C 26.7°F-2.9°C 82% Calm Calm -- 30.59 in1035.9 mb 0.00 in0.0 mm 0.00 in0.0 mm 0.00 in0.0 mm
06:03 AM 31.5°F-0.3°C 26.7°F-2.9°C 82% Calm Calm -- 30.59 in1035.9 mb 0.00 in0.0 mm 0.00 in0.0 mm 0.00 in0.0 mm
06:04 AM 31.3°F-0.4°C 26.5°F-3.1°C 82% Calm Calm -- 30.59 in1035.9 mb 0.00 in0.0 mm 0.00 in0.0 mm 0.00 in0.0 mm
06:05 AM 31.3°F-0.4°C 26.5°F-3.1°C 82% Calm Calm -- 30.59 in1035.9 mb 0.00 in0.0 mm 0.00 in0.0 mm 0.00 in0.0 mm
06:06 AM 31.3°F-0.4°C 26.5°F-3.1°C 82% Calm Calm -- 30.59 in1035.9 mb 0.00 in0.0 mm 0.00 in0.0 mm 0.00 in0.0 mm
06:07 AM 31.3°F-0.4°C 26.5°F-3.1°C 82% Calm Calm -- 30.59 in1035.9 mb 0.00 in0.0 mm 0.00 in0.0 mm 0.00 in0.0 mm
06:08 AM 31.3°F-0.4°C 26.5°F-3.1°C 82% Calm Calm -- 30.59 in1035.9 mb 0.00 in0.0 mm 0.00 in0.0 mm 0.00 in0.0 mm
06:09 AM 31.3°F-0.4°C 26.5°F-3.1°C 82% Calm Calm -- 30.59 in1035.9 mb 0.00 in0.0 mm 0.00 in0.0 mm 0.00 in0.0 mm
06:10 AM 31.3°F-0.4°C 26.5°F-3.1°C 82% Calm Calm -- 30.59 in1035.9 mb 0.00 in0.0 mm 0.00 in0.0 mm 0.00 in0.0 mm
06:11 AM 31.3°F-0.4°C 26.5°F-3.1°C 82% Calm Calm -- 30.59 in1035.9 mb 0.00 in0.0 mm 0.00 in0.0 mm 0.00 in0.0 mm
06:12 AM 31.1°F-0.5°C 26.3°F-3.2°C 82% Calm Calm -- 30.59 in1035.9 mb 0.00 in0.0 mm 0.00 in0.0 mm 0.00 in0.0 mm
06:13 AM 31.1°F-0.5°C 26.3°F-3.2°C 82% Calm Calm -- 30.59 in1035.9 mb 0.00 in0.0 mm 0.00 in0.0 mm 0.00 in0.0 mm
06:14 AM 31.1°F-0.5°C 26.3°F-3.2°C 82% Calm Calm -- 30.59 in1035.9 mb 0.00 in0.0 mm 0.00 in0.0 mm 0.00 in0.0 mm
06:15 AM 31.1°F-0.5°C 26.3°F-3.2°C 82% Calm Calm -- 30.59 in1035.9 mb 0.00 in0.0 mm 0.00 in0.0 mm 0.00 in0.0 mm
06:16 AM 31.1°F-0.5°C 26.3°F-3.2°C 82% Calm Calm -- 30.59 in1035.9 mb 0.00 in0.0 mm 0.00 in0.0 mm 0.00 in0.0 mm
06:17 AM 30.9°F-0.6°C 26.1°F-3.3°C 82% Calm Calm -- 30.59 in1035.9 mb 0.00 in0.0 mm 0.00 in0.0 mm 0.00 in0.0 mm
06:18 AM 30.9°F-0.6°C 26.1°F-3.3°C 82% Calm Calm -- 30.59 in1035.9 mb 0.00 in0.0 mm 0.00 in0.0 mm 0.00 in0.0 mm
06:19 AM 30.9°F-0.6°C 26.4°F-3.1°C 83% Calm Calm -- 30.59 in1035.9 mb 0.00 in0.0 mm 0.00 in0.0 mm 0.00 in0.0 mm
06:20 AM 30.7°F-0.7°C 26.2°F-3.2°C 83% Calm Calm -- 30.59 in1035.9 mb 0.00 in0.0 mm 0.00 in0.0 mm 0.00 in0.0 mm
06:21 AM 30.7°F-0.7°C 26.2°F-3.2°C 83% Calm Calm -- 30.59 in1035.9 mb 0.00 in0.0 mm 0.00 in0.0 mm 0.00 in0.0 mm
06:22 AM 30.7°F-0.7°C 26.2°F-3.2°C 83% Calm Calm -- 30.59 in1035.9 mb 0.00 in0.0 mm 0.00 in0.0 mm 0.00 in0.0 mm
06:23 AM 30.7°F-0.7°C 26.2°F-3.2°C 83% Calm Calm -- 30.59 in1035.9 mb 0.00 in0.0 mm 0.00 in0.0 mm 0.00 in0.0 mm
06:24 AM 30.7°F-0.7°C 26.2°F-3.2°C 83% Calm Calm -- 30.59 in1035.9 mb 0.00 in0.0 mm 0.00 in0.0 mm 0.00 in0.0 mm
06:25 AM 30.7°F-0.7°C 26.2°F-3.2°C 83% Calm Calm -- 30.59 in1035.9 mb 0.00 in0.0 mm 0.00 in0.0 mm 0.00 in0.0 mm
06:26 AM 30.7°F-0.7°C 26.2°F-3.2°C 83% Calm Calm -- 30.59 in1035.9 mb 0.00 in0.0 mm 0.00 in0.0 mm 0.00 in0.0 mm
06:27 AM 30.7°F-0.7°C 26.2°F-3.2°C 83% Calm Calm -- 30.59 in1035.9 mb 0.00 in0.0 mm 0.00 in0.0 mm 0.00 in0.0 mm
06:28 AM 30.7°F-0.7°C 26.4°F-3.1°C 84% Calm Calm -- 30.59 in1035.9 mb 0.00 in0.0 mm 0.00 in0.0 mm 0.00 in0.0 mm
06:29 AM 30.7°F-0.7°C 26.4°F-3.1°C 84% Calm Calm -- 30.59 in1035.9 mb 0.00 in0.0 mm 0.00 in0.0 mm 0.00 in0.0 mm
06:30 AM 30.7°F-0.7°C 26.4°F-3.1°C 84% Calm Calm -- 30.59 in1035.9 mb 0.00 in0.0 mm 0.00 in0.0 mm 0.00 in0.0 mm
06:31 AM 30.7°F-0.7°C 26.4°F-3.1°C 84% Calm Calm -- 30.59 in1035.9 mb 0.00 in0.0 mm 0.00 in0.0 mm 0.00 in0.0 mm
06:32 AM 30.7°F-0.7°C 26.7°F-2.9°C 85% Calm Calm -- 30.59 in1035.9 mb 0.00 in0.0 mm 0.00 in0.0 mm 0.00 in0.0 mm
06:33 AM 30.7°F-0.7°C 26.7°F-2.9°C 85% Calm Calm -- 30.59 in1035.9 mb 0.00 in0.0 mm 0.00 in0.0 mm 0.00 in0.0 mm
06:34 AM 30.7°F-0.7°C 26.7°F-2.9°C 85% Calm Calm -- 30.59 in1035.9 mb 0.00 in0.0 mm 0.00 in0.0 mm 0.00 in0.0 mm
06:35 AM 30.7°F-0.7°C 26.7°F-2.9°C 85% Calm Calm -- 30.59 in1035.9 mb 0.00 in0.0 mm 0.00 in0.0 mm 0.00 in0.0 mm
06:36 AM 30.7°F-0.7°C 26.7°F-2.9°C 85% Calm Calm -- 30.59 in1035.9 mb 0.00 in0.0 mm 0.00 in0.0 mm 0.00 in0.0 mm
06:37 AM 30.7°F-0.7°C 26.7°F-2.9°C 85% Calm Calm -- 30.59 in1035.9 mb 0.00 in0.0 mm 0.00 in0.0 mm 0.00 in0.0 mm
06:38 AM 30.7°F-0.7°C 26.7°F-2.9°C 85% Calm Calm -- 30.59 in1035.9 mb 0.00 in0.0 mm 0.00 in0.0 mm 0.00 in0.0 mm
06:39 AM 30.7°F-0.7°C 26.7°F-2.9°C 85% Calm Calm -- 30.59 in1035.9 mb 0.00 in0.0 mm 0.00 in0.0 mm 0.00 in0.0 mm
06:40 AM 30.7°F-0.7°C 26.7°F-2.9°C 85% Calm Calm -- 30.59 in1035.9 mb 0.00 in0.0 mm 0.00 in0.0 mm 0.00 in0.0 mm
06:41 AM 30.7°F-0.7°C 26.7°F-2.9°C 85% Calm Calm -- 30.59 in1035.9 mb 0.00 in0.0 mm 0.00 in0.0 mm 0.00 in0.0 mm
06:42 AM 30.7°F-0.7°C 26.7°F-2.9°C 85% Calm Calm -- 30.59 in1035.9 mb 0.00 in0.0 mm 0.00 in0.0 mm 0.00 in0.0 mm
06:43 AM 30.7°F-0.7°C 26.7°F-2.9°C 85% Calm Calm -- 30.59 in1035.9 mb 0.00 in0.0 mm 0.00 in0.0 mm 0.00 in0.0 mm
06:44 AM 30.7°F-0.7°C 26.7°F-2.9°C 85% 1.7 mph W2.7 kmh W 1.7 mph2.7 kmh 30.59 in1035.9 mb 0.00 in0.0 mm 0.00 in0.0 mm 0.00 in0.0 mm
06:45 AM 30.7°F-0.7°C 27.0°F-2.8°C 86% Calm Calm 1.7 mph2.7 kmh 30.59 in1035.9 mb 0.00 in0.0 mm 0.00 in0.0 mm 0.00 in0.0 mm
06:46 AM 30.7°F-0.7°C 27.0°F-2.8°C 86% Calm Calm 1.7 mph2.7 kmh 30.59 in1035.9 mb 0.00 in0.0 mm 0.00 in0.0 mm 0.00 in0.0 mm
06:47 AM 30.7°F-0.7°C 27.0°F-2.8°C 86% Calm Calm 1.7 mph2.7 kmh 30.59 in1035.9 mb 0.00 in0.0 mm 0.00 in0.0 mm 0.00 in0.0 mm
06:48 AM 30.6°F-0.8°C 26.9°F-2.8°C 86% 1.1 mph W1.8 kmh W 1.7 mph2.7 kmh 30.59 in1035.9 mb 0.00 in0.0 mm 0.00 in0.0 mm 0.00 in0.0 mm
06:49 AM 30.6°F-0.8°C 26.9°F-2.8°C 86% 1.1 mph W1.8 kmh W 1.7 mph2.7 kmh 30.59 in1035.9 mb 0.00 in0.0 mm 0.00 in0.0 mm 0.00 in0.0 mm
06:50 AM 30.6°F-0.8°C 26.9°F-2.8°C 86% 1.1 mph W1.8 kmh W 1.7 mph2.7 kmh 30.59 in1035.9 mb 0.00 in0.0 mm 0.00 in0.0 mm 0.00 in0.0 mm
06:51 AM 30.6°F-0.8°C 26.9°F-2.8°C 86% Calm Calm 1.7 mph2.7 kmh 30.59 in1035.9 mb 0.00 in0.0 mm 0.00 in0.0 mm 0.00 in0.0 mm
06:52 AM 30.6°F-0.8°C 26.9°F-2.8°C 86% 1.1 mph W1.8 kmh W 1.7 mph2.7 kmh 30.60 in1036.2 mb 0.00 in0.0 mm 0.00 in0.0 mm 0.00 in0.0 mm
06:53 AM 30.6°F-0.8°C 26.9°F-2.8°C 86% 1.1 mph W1.8 kmh W 1.7 mph2.7 kmh 30.60 in1036.2 mb 0.00 in0.0 mm 0.00 in0.0 mm 0.00 in0.0 mm
06:54 AM 30.6°F-0.8°C 26.9°F-2.8°C 86% Calm Calm 1.7 mph2.7 kmh 30.60 in1036.2 mb 0.00 in0.0 mm 0.00 in0.0 mm 0.00 in0.0 mm
06:55 AM 30.6°F-0.8°C 26.6°F-3.0°C 85% Calm Calm 1.7 mph2.7 kmh 30.60 in1036.2 mb 0.00 in0.0 mm 0.00 in0.0 mm 0.00 in0.0 mm
06:56 AM 30.6°F-0.8°C 26.6°F-3.0°C 85% Calm Calm 1.7 mph2.7 kmh 30.60 in1036.2 mb 0.00 in0.0 mm 0.00 in0.0 mm 0.00 in0.0 mm
06:57 AM 30.6°F-0.8°C 26.6°F-3.0°C 85% Calm Calm 1.7 mph2.7 kmh 30.60 in1036.2 mb 0.00 in0.0 mm 0.00 in0.0 mm 0.00 in0.0 mm
06:58 AM 30.4°F-0.9°C 26.4°F-3.1°C 85% Calm Calm 1.7 mph2.7 kmh 30.60 in1036.2 mb 0.00 in0.0 mm 0.00 in0.0 mm 0.00 in0.0 mm
06:59 AM 30.4°F-0.9°C 26.4°F-3.1°C 85% Calm Calm 1.7 mph2.7 kmh 30.60 in1036.2 mb 0.00 in0.0 mm 0.00 in0.0 mm 0.00 in0.0 mm
07:00 AM 30.4°F-0.9°C 26.4°F-3.1°C 85% Calm Calm 1.1 mph1.8 kmh 30.60 in1036.2 mb 0.00 in0.0 mm 0.00 in0.0 mm 0.00 in0.0 mm
07:01 AM 30.4°F-0.9°C 26.4°F-3.1°C 85% Calm Calm 1.1 mph1.8 kmh 30.60 in1036.2 mb 0.00 in0.0 mm 0.00 in0.0 mm 0.00 in0.0 mm
07:02 AM 30.4°F-0.9°C 26.2°F-3.2°C 84% Calm Calm 1.1 mph1.8 kmh 30.60 in1036.2 mb 0.00 in0.0 mm 0.00 in0.0 mm 0.00 in0.0 mm
07:03 AM 30.4°F-0.9°C 26.2°F-3.2°C 84% Calm Calm 1.1 mph1.8 kmh 30.60 in1036.2 mb 0.00 in0.0 mm 0.00 in0.0 mm 0.00 in0.0 mm
07:04 AM 30.4°F-0.9°C 26.2°F-3.2°C 84% Calm Calm -- 30.60 in1036.2 mb 0.00 in0.0 mm 0.00 in0.0 mm 0.00 in0.0 mm
07:05 AM 30.4°F-0.9°C 26.2°F-3.2°C 84% Calm Calm -- 30.60 in1036.2 mb 0.00 in0.0 mm 0.00 in0.0 mm 0.00 in0.0 mm
07:06 AM 30.4°F-0.9°C 26.2°F-3.2°C 84% Calm Calm -- 30.60 in1036.2 mb 0.00 in0.0 mm 0.00 in0.0 mm 0.00 in0.0 mm
07:07 AM 30.4°F-0.9°C 26.2°F-3.2°C 84% Calm Calm -- 30.60 in1036.2 mb 0.00 in0.0 mm 0.00 in0.0 mm 0.00 in0.0 mm
07:08 AM 30.4°F-0.9°C 26.2°F-3.2°C 84% Calm Calm -- 30.60 in1036.2 mb 0.00 in0.0 mm 0.00 in0.0 mm 0.00 in0.0 mm
07:09 AM 30.4°F-0.9°C 26.2°F-3.2°C 84% Calm Calm -- 30.60 in1036.2 mb 0.00 in0.0 mm 0.00 in0.0 mm 0.00 in0.0 mm
07:10 AM 30.2°F-1.0°C 26.0°F-3.3°C 84% Calm Calm -- 30.60 in1036.2 mb 0.00 in0.0 mm 0.00 in0.0 mm 0.00 in0.0 mm
07:11 AM 30.2°F-1.0°C 26.0°F-3.3°C 84% Calm Calm -- 30.60 in1036.2 mb 0.00 in0.0 mm 0.00 in0.0 mm 0.00 in0.0 mm
07:12 AM 30.2°F-1.0°C 26.0°F-3.3°C 84% Calm Calm -- 30.60 in1036.2 mb 0.00 in0.0 mm 0.00 in0.0 mm 0.00 in0.0 mm
07:13 AM 30.2°F-1.0°C 26.0°F-3.3°C 84% Calm Calm -- 30.60 in1036.2 mb 0.00 in0.0 mm 0.00 in0.0 mm 0.00 in0.0 mm
07:14 AM 30.2°F-1.0°C 26.0°F-3.3°C 84% Calm Calm -- 30.60 in1036.2 mb 0.00 in0.0 mm 0.00 in0.0 mm 0.00 in0.0 mm
07:15 AM 30.2°F-1.0°C 26.0°F-3.3°C 84% Calm Calm -- 30.60 in1036.2 mb 0.00 in0.0 mm 0.00 in0.0 mm 0.00 in0.0 mm
07:16 AM 30.2°F-1.0°C 26.0°F-3.3°C 84% Calm Calm -- 30.60 in1036.2 mb 0.00 in0.0 mm 0.00 in0.0 mm 0.00 in0.0 mm
07:17 AM 30.2°F-1.0°C 26.0°F-3.3°C 84% Calm Calm -- 30.59 in1035.9 mb 0.00 in0.0 mm 0.00 in0.0 mm 0.00 in0.0 mm
07:18 AM 30.0°F-1.1°C 25.8°F-3.4°C 84% Calm Calm -- 30.59 in1035.9 mb 0.00 in0.0 mm 0.00 in0.0 mm 0.00 in0.0 mm
07:19 AM 29.8°F-1.2°C 25.6°F-3.6°C 84% Calm Calm -- 30.59 in1035.9 mb 0.00 in0.0 mm 0.00 in0.0 mm 0.00 in0.0 mm
07:20 AM 29.8°F-1.2°C 25.6°F-3.6°C 84% Calm Calm -- 30.59 in1035.9 mb 0.00 in0.0 mm 0.00 in0.0 mm 0.00 in0.0 mm
07:21 AM 29.8°F-1.2°C 25.6°F-3.6°C 84% Calm Calm -- 30.59 in1035.9 mb 0.00 in0.0 mm 0.00 in0.0 mm 0.00 in0.0 mm
07:22 AM 29.8°F-1.2°C 25.6°F-3.6°C 84% Calm Calm -- 30.59 in1035.9 mb 0.00 in0.0 mm 0.00 in0.0 mm 0.00 in0.0 mm
07:23 AM 29.8°F-1.2°C 25.6°F-3.6°C 84% Calm Calm -- 30.59 in1035.9 mb 0.00 in0.0 mm 0.00 in0.0 mm 0.00 in0.0 mm
07:24 AM 29.7°F-1.3°C 25.5°F-3.6°C 84% Calm Calm -- 30.59 in1035.9 mb 0.00 in0.0 mm 0.00 in0.0 mm 0.00 in0.0 mm
07:25 AM 29.7°F-1.3°C 25.5°F-3.6°C 84% Calm Calm -- 30.59 in1035.9 mb 0.00 in0.0 mm 0.00 in0.0 mm 0.00 in0.0 mm
07:26 AM 29.7°F-1.3°C 25.5°F-3.6°C 84% Calm Calm -- 30.59 in1035.9 mb 0.00 in0.0 mm 0.00 in0.0 mm 0.00 in0.0 mm
07:27 AM 29.7°F-1.3°C 25.5°F-3.6°C 84% Calm Calm -- 30.59 in1035.9 mb 0.00 in0.0 mm 0.00 in0.0 mm 0.00 in0.0 mm
07:28 AM 29.7°F-1.3°C 25.8°F-3.4°C 85% Calm Calm -- 30.59 in1035.9 mb 0.00 in0.0 mm 0.00 in0.0 mm 0.00 in0.0 mm
07:29 AM 29.7°F-1.3°C 25.8°F-3.4°C 85% Calm Calm -- 30.60 in1036.2 mb 0.00 in0.0 mm 0.00 in0.0 mm 0.00 in0.0 mm
07:30 AM 29.7°F-1.3°C 25.8°F-3.4°C 85% Calm Calm -- 30.60 in1036.2 mb 0.00 in0.0 mm 0.00 in0.0 mm 0.00 in0.0 mm
07:31 AM 29.7°F-1.3°C 25.5°F-3.6°C 84% Calm Calm -- 30.60 in1036.2 mb 0.00 in0.0 mm 0.00 in0.0 mm 0.00 in0.0 mm
07:32 AM 29.7°F-1.3°C 25.5°F-3.6°C 84% Calm Calm -- 30.60 in1036.2 mb 0.00 in0.0 mm 0.00 in0.0 mm 0.00 in0.0 mm
07:33 AM 29.7°F-1.3°C 25.5°F-3.6°C 84% Calm Calm -- 30.60 in1036.2 mb 0.00 in0.0 mm 0.00 in0.0 mm 0.00 in0.0 mm
07:34 AM 29.7°F-1.3°C 25.5°F-3.6°C 84% Calm Calm -- 30.60 in1036.2 mb 0.00 in0.0 mm 0.00 in0.0 mm 0.00 in0.0 mm
07:35 AM 29.7°F-1.3°C 25.5°F-3.6°C 84% Calm Calm -- 30.60 in1036.2 mb 0.00 in0.0 mm 0.00 in0.0 mm 0.00 in0.0 mm
07:36 AM 29.7°F-1.3°C 25.5°F-3.6°C 84% Calm Calm -- 30.60 in1036.2 mb 0.00 in0.0 mm 0.00 in0.0 mm 0.00 in0.0 mm
07:37 AM 29.7°F-1.3°C 25.5°F-3.6°C 84% Calm Calm -- 30.60 in1036.2 mb 0.00 in0.0 mm 0.00 in0.0 mm 0.00 in0.0 mm
07:38 AM 29.7°F-1.3°C 25.5°F-3.6°C 84% Calm Calm -- 30.60 in1036.2 mb 0.00 in0.0 mm 0.00 in0.0 mm 0.00 in0.0 mm
07:39 AM 29.7°F-1.3°C 25.5°F-3.6°C 84% Calm Calm -- 30.60 in1036.2 mb 0.00 in0.0 mm 0.00 in0.0 mm 0.00 in0.0 mm
07:40 AM 29.7°F-1.3°C 25.5°F-3.6°C 84% Calm Calm -- 30.60 in1036.2 mb 0.00 in0.0 mm 0.00 in0.0 mm 0.00 in0.0 mm
07:41 AM 29.7°F-1.3°C 25.5°F-3.6°C 84% Calm Calm -- 30.60 in1036.2 mb 0.00 in0.0 mm 0.00 in0.0 mm 0.00 in0.0 mm
07:42 AM 29.7°F-1.3°C 25.5°F-3.6°C 84% Calm Calm -- 30.60 in1036.2 mb 0.00 in0.0 mm 0.00 in0.0 mm 0.00 in0.0 mm
07:43 AM 29.7°F-1.3°C 25.5°F-3.6°C 84% Calm Calm -- 30.60 in1036.2 mb 0.00 in0.0 mm 0.00 in0.0 mm 0.00 in0.0 mm
07:44 AM 29.7°F-1.3°C 25.5°F-3.6°C 84% Calm Calm -- 30.60 in1036.2 mb 0.00 in0.0 mm 0.00 in0.0 mm 0.00 in0.0 mm
07:45 AM 29.7°F-1.3°C 25.5°F-3.6°C 84% Calm Calm -- 30.60 in1036.2 mb 0.00 in0.0 mm 0.00 in0.0 mm 0.00 in0.0 mm
07:46 AM 29.8°F-1.2°C 25.6°F-3.6°C 84% 1.7 mph SSE2.7 kmh SSE 1.7 mph2.7 kmh 30.60 in1036.2 mb 0.00 in0.0 mm 0.00 in0.0 mm 0.00 in0.0 mm
07:47 AM 29.8°F-1.2°C 25.6°F-3.6°C 84% Calm Calm 1.7 mph2.7 kmh 30.60 in1036.2 mb 0.00 in0.0 mm 0.00 in0.0 mm 0.00 in0.0 mm
07:48 AM 29.8°F-1.2°C 25.6°F-3.6°C 84% Calm Calm 1.7 mph2.7 kmh 30.60 in1036.2 mb 0.00 in0.0 mm 0.00 in0.0 mm 0.00 in0.0 mm
07:49 AM 30.0°F-1.1°C 25.8°F-3.4°C 84% 1.1 mph ESE1.8 kmh ESE 1.7 mph2.7 kmh 30.60 in1036.2 mb 0.00 in0.0 mm 0.00 in0.0 mm 0.00 in0.0 mm
07:50 AM 30.0°F-1.1°C 25.8°F-3.4°C 84% Calm Calm 1.7 mph2.7 kmh 30.60 in1036.2 mb 0.00 in0.0 mm 0.00 in0.0 mm 0.00 in0.0 mm
07:51 AM 30.2°F-1.0°C 26.0°F-3.3°C 84% Calm Calm 1.7 mph2.7 kmh 30.60 in1036.2 mb 0.00 in0.0 mm 0.00 in0.0 mm 0.00 in0.0 mm
07:52 AM 30.2°F-1.0°C 26.0°F-3.3°C 84% Calm Calm 1.7 mph2.7 kmh 30.60 in1036.2 mb 0.00 in0.0 mm 0.00 in0.0 mm 0.00 in0.0 mm
07:53 AM 30.4°F-0.9°C 26.2°F-3.2°C 84% Calm Calm 1.7 mph2.7 kmh 30.60 in1036.2 mb 0.00 in0.0 mm 0.00 in0.0 mm 0.00 in0.0 mm
07:54 AM 30.4°F-0.9°C 26.2°F-3.2°C 84% Calm Calm 1.7 mph2.7 kmh 30.60 in1036.2 mb 0.00 in0.0 mm 0.00 in0.0 mm 0.00 in0.0 mm
07:55 AM 30.6°F-0.8°C 26.4°F-3.1°C 84% Calm Calm 1.7 mph2.7 kmh 30.60 in1036.2 mb 0.00 in0.0 mm 0.00 in0.0 mm 0.00 in0.0 mm
07:56 AM 30.7°F-0.7°C 26.4°F-3.1°C 84% Calm Calm 1.7 mph2.7 kmh 30.60 in1036.2 mb 0.00 in0.0 mm 0.00 in0.0 mm 0.00 in0.0 mm
07:57 AM 30.9°F-0.6°C 26.6°F-3.0°C 84% 1.7 mph ENE2.7 kmh ENE 1.7 mph2.7 kmh 30.60 in1036.2 mb 0.00 in0.0 mm 0.00 in0.0 mm 0.00 in0.0 mm
07:58 AM 31.3°F-0.4°C 26.7°F-2.9°C 83% 1.7 mph SE2.7 kmh SE 1.7 mph2.7 kmh 30.60 in1036.2 mb 0.00 in0.0 mm 0.00 in0.0 mm 0.00 in0.0 mm
07:59 AM 31.6°F-0.2°C 27.0°F-2.8°C 83% Calm Calm 1.7 mph2.7 kmh 30.60 in1036.2 mb 0.00 in0.0 mm 0.00 in0.0 mm 0.00 in0.0 mm
08:00 AM 31.6°F-0.2°C 27.0°F-2.8°C 83% Calm Calm 1.7 mph2.7 kmh 30.60 in1036.2 mb 0.00 in0.0 mm 0.00 in0.0 mm 0.00 in0.0 mm
08:01 AM 31.6°F-0.2°C 26.7°F-2.9°C 82% 1.1 mph SE1.8 kmh SE 1.7 mph2.7 kmh 30.60 in1036.2 mb 0.00 in0.0 mm 0.00 in0.0 mm 0.00 in0.0 mm
08:02 AM 31.8°F-0.1°C 26.9°F-2.8°C 82% 1.1 mph ESE1.8 kmh ESE 1.7 mph2.7 kmh 30.60 in1036.2 mb 0.00 in0.0 mm 0.00 in0.0 mm 0.00 in0.0 mm
08:03 AM 32.0°F0.0°C 27.1°F-2.7°C 82% 2.2 mph ESE3.5 kmh ESE 2.2 mph3.5 kmh 30.60 in1036.2 mb 0.00 in0.0 mm 0.00 in0.0 mm 0.00 in0.0 mm
08:04 AM 32.2°F0.1°C 27.0°F-2.8°C 81% Calm Calm 2.2 mph3.5 kmh 30.60 in1036.2 mb 0.00 in0.0 mm 0.00 in0.0 mm 0.00 in0.0 mm
08:05 AM 32.5°F0.3°C 27.0°F-2.8°C 80% 2.2 mph ESE3.5 kmh ESE 2.2 mph3.5 kmh 30.60 in1036.2 mb 0.00 in0.0 mm 0.00 in0.0 mm 0.00 in0.0 mm
08:06 AM 32.7°F0.4°C 26.9°F-2.8°C 79% 1.1 mph SSE1.8 kmh SSE 2.2 mph3.5 kmh 30.60 in1036.2 mb 0.00 in0.0 mm 0.00 in0.0 mm 0.00 in0.0 mm
08:07 AM 32.9°F0.5°C 27.1°F-2.7°C 79% 2.2 mph SE3.5 kmh SE 2.2 mph3.5 kmh 30.60 in1036.2 mb 0.00 in0.0 mm 0.00 in0.0 mm 0.00 in0.0 mm
08:08 AM 33.3°F0.7°C 27.2°F-2.7°C 78% 1.7 mph SE2.7 kmh SE 2.2 mph3.5 kmh 30.60 in1036.2 mb 0.00 in0.0 mm 0.00 in0.0 mm 0.00 in0.0 mm
08:09 AM 33.4°F0.8°C 27.3°F-2.6°C 78% Calm Calm 2.2 mph3.5 kmh 30.60 in1036.2 mb 0.00 in0.0 mm 0.00 in0.0 mm 0.00 in0.0 mm
08:10 AM 33.4°F0.8°C 27.3°F-2.6°C 78% 1.1 mph WSW1.8 kmh WSW 2.2 mph3.5 kmh 30.60 in1036.2 mb 0.00 in0.0 mm 0.00 in0.0 mm 0.00 in0.0 mm
08:11 AM 33.4°F0.8°C 27.3°F-2.6°C 78% 1.1 mph SSE1.8 kmh SSE 2.2 mph3.5 kmh 30.60 in1036.2 mb 0.00 in0.0 mm 0.00 in0.0 mm 0.00 in0.0 mm
08:12 AM 33.4°F0.8°C 27.3°F-2.6°C 78% 2.2 mph S3.5 kmh S 2.2 mph3.5 kmh 30.60 in1036.2 mb 0.00 in0.0 mm 0.00 in0.0 mm 0.00 in0.0 mm
08:13 AM 33.8°F1.0°C 27.7°F-2.4°C 78% 1.1 mph S1.8 kmh S 2.2 mph3.5 kmh 30.60 in1036.2 mb 0.00 in0.0 mm 0.00 in0.0 mm 0.00 in0.0 mm
08:14 AM 33.8°F1.0°C 27.7°F-2.4°C 78% 1.1 mph SSW1.8 kmh SSW 2.2 mph3.5 kmh 30.60 in1036.2 mb 0.00 in0.0 mm 0.00 in0.0 mm 0.00 in0.0 mm
08:15 AM 34.3°F1.3°C 27.9°F-2.3°C 77% 2.2 mph S3.5 kmh S 3.2 mph5.1 kmh 30.60 in1036.2 mb 0.00 in0.0 mm 0.00 in0.0 mm 0.00 in0.0 mm
08:16 AM 34.5°F1.4°C 27.7°F-2.4°C 76% 2.2 mph ESE3.5 kmh ESE 3.2 mph5.1 kmh 30.60 in1036.2 mb 0.00 in0.0 mm 0.00 in0.0 mm 0.00 in0.0 mm
08:17 AM 35.4°F1.9°C 28.0°F-2.2°C 74% 1.1 mph NNE1.8 kmh NNE 3.2 mph5.1 kmh 30.59 in1035.9 mb 0.00 in0.0 mm 0.00 in0.0 mm 0.00 in0.0 mm
08:18 AM 35.8°F2.1°C 28.0°F-2.2°C 73% 1.7 mph NE2.7 kmh NE 3.2 mph5.1 kmh 30.59 in1035.9 mb 0.00 in0.0 mm 0.00 in0.0 mm 0.00 in0.0 mm
08:19 AM 36.3°F2.4°C 28.2°F-2.1°C 72% 2.7 mph E4.3 kmh E 3.2 mph5.1 kmh 30.59 in1035.9 mb 0.00 in0.0 mm 0.00 in0.0 mm 0.00 in0.0 mm
08:20 AM 36.7°F2.6°C 28.2°F-2.1°C 71% 2.2 mph S3.5 kmh S 3.2 mph5.1 kmh 30.59 in1035.9 mb 0.00 in0.0 mm 0.00 in0.0 mm 0.00 in0.0 mm
08:21 AM 37.0°F2.8°C 28.1°F-2.2°C 70% 2.7 mph SSE4.3 kmh SSE 3.2 mph5.1 kmh 30.59 in1035.9 mb 0.00 in0.0 mm 0.00 in0.0 mm 0.00 in0.0 mm
08:22 AM 37.0°F2.8°C 28.1°F-2.2°C 70% 4.2 mph SSE6.8 kmh SSE 4.2 mph6.8 kmh 30.59 in1035.9 mb 0.00 in0.0 mm 0.00 in0.0 mm 0.00 in0.0 mm
08:23 AM 37.4°F3.0°C 28.2°F-2.1°C 69% 1.7 mph SE2.7 kmh SE 4.2 mph6.8 kmh 30.59 in1035.9 mb 0.00 in0.0 mm 0.00 in0.0 mm 0.00 in0.0 mm
08:24 AM 37.6°F3.1°C 28.4°F-2.0°C 69% 2.7 mph SSE4.3 kmh SSE 4.2 mph6.8 kmh 30.59 in1035.9 mb 0.00 in0.0 mm 0.00 in0.0 mm 0.00 in0.0 mm
08:25 AM 37.8°F3.2°C 28.2°F-2.1°C 68% 2.2 mph W3.5 kmh W 4.2 mph6.8 kmh 30.59 in1035.9 mb 0.00 in0.0 mm 0.00 in0.0 mm 0.00 in0.0 mm
08:26 AM 37.8°F3.2°C 28.2°F-2.1°C 68% 2.7 mph NNW4.3 kmh NNW 4.2 mph6.8 kmh 30.59 in1035.9 mb 0.00 in0.0 mm 0.00 in0.0 mm 0.00 in0.0 mm
08:27 AM 37.8°F3.2°C 28.2°F-2.1°C 68% 3.2 mph N5.1 kmh N 4.2 mph6.8 kmh 30.59 in1035.9 mb 0.00 in0.0 mm 0.00 in0.0 mm 0.00 in0.0 mm
08:28 AM 37.8°F3.2°C 28.2°F-2.1°C 68% 1.7 mph NNW2.7 kmh NNW 4.2 mph6.8 kmh 30.59 in1035.9 mb 0.00 in0.0 mm 0.00 in0.0 mm 0.00 in0.0 mm
08:29 AM 37.8°F3.2°C 28.2°F-2.1°C 68% 1.7 mph WNW2.7 kmh WNW 4.2 mph6.8 kmh 30.59 in1035.9 mb 0.00 in0.0 mm 0.00 in0.0 mm 0.00 in0.0 mm
08:30 AM 37.9°F3.3°C 27.9°F-2.3°C 67% 3.7 mph NNW6.0 kmh NNW 4.2 mph6.8 kmh 30.59 in1035.9 mb 0.00 in0.0 mm 0.00 in0.0 mm 0.00 in0.0 mm
08:31 AM 38.3°F3.5°C 27.6°F-2.4°C 65% 2.2 mph NNW3.5 kmh NNW 4.2 mph6.8 kmh 30.59 in1035.9 mb 0.00 in0.0 mm 0.00 in0.0 mm 0.00 in0.0 mm
08:32 AM 38.7°F3.7°C 28.0°F-2.2°C 65% 1.7 mph NNW2.7 kmh NNW 4.2 mph6.8 kmh 30.59 in1035.9 mb 0.00 in0.0 mm 0.00 in0.0 mm 0.00 in0.0 mm
08:33 AM 38.8°F3.8°C 28.1°F-2.2°C 65% 1.7 mph ESE2.7 kmh ESE 4.2 mph6.8 kmh 30.59 in1035.9 mb 0.00 in0.0 mm 0.00 in0.0 mm 0.00 in0.0 mm
08:34 AM 38.8°F3.8°C 28.1°F-2.2°C 65% 3.2 mph NNW5.1 kmh NNW 4.2 mph6.8 kmh 30.59 in1035.9 mb 0.00 in0.0 mm 0.00 in0.0 mm 0.00 in0.0 mm
08:35 AM 38.7°F3.7°C 28.0°F-2.2°C 65% 2.7 mph NW4.3 kmh NW 4.2 mph6.8 kmh 30.59 in1035.9 mb 0.00 in0.0 mm 0.00 in0.0 mm 0.00 in0.0 mm
08:36 AM 38.7°F3.7°C 28.0°F-2.2°C 65% 2.7 mph WSW4.3 kmh WSW 4.2 mph6.8 kmh 30.59 in1035.9 mb 0.00 in0.0 mm 0.00 in0.0 mm 0.00 in0.0 mm
08:37 AM 38.7°F3.7°C 28.0°F-2.2°C 65% 2.7 mph W4.3 kmh W 4.2 mph6.8 kmh 30.59 in1035.9 mb 0.00 in0.0 mm 0.00 in0.0 mm 0.00 in0.0 mm
08:38 AM 38.7°F3.7°C 28.0°F-2.2°C 65% 3.2 mph W5.1 kmh W 4.2 mph6.8 kmh 30.59 in1035.9 mb 0.00 in0.0 mm 0.00 in0.0 mm 0.00 in0.0 mm
08:39 AM 38.7°F3.7°C 28.0°F-2.2°C 65% 4.2 mph WNW6.8 kmh WNW 4.2 mph6.8 kmh 30.59 in1035.9 mb 0.00 in0.0 mm 0.00 in0.0 mm 0.00 in0.0 mm
08:40 AM 38.8°F3.8°C 28.1°F-2.2°C 65% 4.7 mph WNW7.6 kmh WNW 4.7 mph7.6 kmh 30.59 in1035.9 mb 0.00 in0.0 mm 0.00 in0.0 mm 0.00 in0.0 mm
08:41 AM 38.8°F3.8°C 28.1°F-2.2°C 65% 4.7 mph W7.6 kmh W 4.7 mph7.6 kmh 30.59 in1035.9 mb 0.00 in0.0 mm 0.00 in0.0 mm 0.00 in0.0 mm
08:42 AM 39.0°F3.9°C 28.2°F-2.1°C 65% 4.2 mph NW6.8 kmh NW 4.7 mph7.6 kmh 30.59 in1035.9 mb 0.00 in0.0 mm 0.00 in0.0 mm 0.00 in0.0 mm
08:43 AM 39.0°F3.9°C 28.2°F-2.1°C 65% 3.7 mph NW6.0 kmh NW 4.7 mph7.6 kmh 30.59 in1035.9 mb 0.00 in0.0 mm 0.00 in0.0 mm 0.00 in0.0 mm
08:44 AM 39.0°F3.9°C 28.2°F-2.1°C 65% 3.2 mph NNW5.1 kmh NNW 4.7 mph7.6 kmh 30.59 in1035.9 mb 0.00 in0.0 mm 0.00 in0.0 mm 0.00 in0.0 mm
08:45 AM 39.0°F3.9°C 27.9°F-2.3°C 64% 2.2 mph W3.5 kmh W 4.7 mph7.6 kmh 30.59 in1035.9 mb 0.00 in0.0 mm 0.00 in0.0 mm 0.00 in0.0 mm
08:46 AM 39.2°F4.0°C 28.1°F-2.2°C 64% 1.7 mph WNW2.7 kmh WNW 4.7 mph7.6 kmh 30.59 in1035.9 mb 0.00 in0.0 mm 0.00 in0.0 mm 0.00 in0.0 mm
08:47 AM 39.2°F4.0°C 28.1°F-2.2°C 64% 2.2 mph WNW3.5 kmh WNW 4.7 mph7.6 kmh 30.59 in1035.9 mb 0.00 in0.0 mm 0.00 in0.0 mm 0.00 in0.0 mm
08:48 AM 39.4°F4.1°C 27.9°F-2.3°C 63% 1.7 mph S2.7 kmh S 4.7 mph7.6 kmh 30.59 in1035.9 mb 0.00 in0.0 mm 0.00 in0.0 mm 0.00 in0.0 mm
08:49 AM 39.6°F4.2°C 28.4°F-2.0°C 64% 2.7 mph W4.3 kmh W 4.7 mph7.6 kmh 30.59 in1035.9 mb 0.00 in0.0 mm 0.00 in0.0 mm 0.00 in0.0 mm
08:50 AM 39.6°F4.2°C 27.7°F-2.4°C 62% 5.8 mph W9.3 kmh W 5.8 mph9.3 kmh 30.59 in1035.9 mb 0.00 in0.0 mm 0.00 in0.0 mm 0.00 in0.0 mm
08:51 AM 39.7°F4.3°C 27.4°F-2.6°C 61% 5.8 mph W9.3 kmh W 5.8 mph9.3 kmh 30.59 in1035.9 mb 0.00 in0.0 mm 0.00 in0.0 mm 0.00 in0.0 mm
08:52 AM 39.7°F4.3°C 27.4°F-2.6°C 61% 3.7 mph SW6.0 kmh SW 5.8 mph9.3 kmh 30.59 in1035.9 mb 0.00 in0.0 mm 0.00 in0.0 mm 0.00 in0.0 mm
08:53 AM 39.7°F4.3°C 27.4°F-2.6°C 61% 4.7 mph W7.6 kmh W 5.8 mph9.3 kmh 30.59 in1035.9 mb 0.00 in0.0 mm 0.00 in0.0 mm 0.00 in0.0 mm
08:54 AM 39.9°F4.4°C 27.6°F-2.4°C 61% 4.7 mph WSW7.6 kmh WSW 5.8 mph9.3 kmh 30.59 in1035.9 mb 0.00 in0.0 mm 0.00 in0.0 mm 0.00 in0.0 mm
08:55 AM 40.1°F4.5°C 27.3°F-2.6°C 60% 4.2 mph W6.8 kmh W 5.8 mph9.3 kmh 30.59 in1035.9 mb 0.00 in0.0 mm 0.00 in0.0 mm 0.00 in0.0 mm
08:56 AM 40.1°F4.5°C 27.3°F-2.6°C 60% 4.7 mph W7.6 kmh W 5.8 mph9.3 kmh 30.59 in1035.9 mb 0.00 in0.0 mm 0.00 in0.0 mm 0.00 in0.0 mm
08:57 AM 40.3°F4.6°C 27.5°F-2.5°C 60% 4.7 mph NW7.6 kmh NW 7.3 mph11.7 kmh 30.59 in1035.9 mb 0.00 in0.0 mm 0.00 in0.0 mm 0.00 in0.0 mm
08:58 AM 40.3°F4.6°C 27.5°F-2.5°C 60% 4.7 mph W7.6 kmh W 7.3 mph11.7 kmh 30.59 in1035.9 mb 0.00 in0.0 mm 0.00 in0.0 mm 0.00 in0.0 mm
08:59 AM 40.3°F4.6°C 27.9°F-2.3°C 61% 3.2 mph W5.1 kmh W 7.3 mph11.7 kmh 30.59 in1035.9 mb 0.00 in0.0 mm 0.00 in0.0 mm 0.00 in0.0 mm
09:00 AM 40.5°F4.7°C 28.1°F-2.2°C 61% 3.2 mph W5.1 kmh W 7.3 mph11.7 kmh 30.59 in1035.9 mb 0.00 in0.0 mm 0.00 in0.0 mm 0.00 in0.0 mm
09:01 AM 40.5°F4.7°C 28.1°F-2.2°C 61% 3.2 mph W5.1 kmh W 7.3 mph11.7 kmh 30.59 in1035.9 mb 0.00 in0.0 mm 0.00 in0.0 mm 0.00 in0.0 mm
09:02 AM 40.6°F4.8°C 27.8°F-2.3°C 60% 2.7 mph W4.3 kmh W 7.3 mph11.7 kmh 30.59 in1035.9 mb 0.00 in0.0 mm 0.00 in0.0 mm 0.00 in0.0 mm
09:03 AM 40.8°F4.9°C 28.0°F-2.2°C 60% 6.3 mph WSW10.1 kmh WSW 7.3 mph11.7 kmh 30.59 in1035.9 mb 0.00 in0.0 mm 0.00 in0.0 mm 0.00 in0.0 mm
09:04 AM 41.0°F5.0°C 28.2°F-2.1°C 60% 6.8 mph W10.9 kmh W 7.3 mph11.7 kmh 30.60 in1036.2 mb 0.00 in0.0 mm 0.00 in0.0 mm 0.00 in0.0 mm
09:05 AM 41.2°F5.1°C 28.4°F-2.0°C 60% 4.7 mph WSW7.6 kmh WSW 7.3 mph11.7 kmh 30.60 in1036.2 mb 0.00 in0.0 mm 0.00 in0.0 mm 0.00 in0.0 mm
09:06 AM 41.2°F5.1°C 28.4°F-2.0°C 60% 3.7 mph W6.0 kmh W 7.3 mph11.7 kmh 30.60 in1036.2 mb 0.00 in0.0 mm 0.00 in0.0 mm 0.00 in0.0 mm
09:07 AM 41.4°F5.2°C 28.6°F-1.9°C 60% 5.8 mph W9.3 kmh W 7.3 mph11.7 kmh 30.60 in1036.2 mb 0.00 in0.0 mm 0.00 in0.0 mm 0.00 in0.0 mm
09:08 AM 41.4°F5.2°C 28.6°F-1.9°C 60% 6.3 mph W10.1 kmh W 7.3 mph11.7 kmh 30.60 in1036.2 mb 0.00 in0.0 mm 0.00 in0.0 mm 0.00 in0.0 mm
09:09 AM 41.5°F5.3°C 28.3°F-2.1°C 59% 4.7 mph W7.6 kmh W 7.3 mph11.7 kmh 30.60 in1036.2 mb 0.00 in0.0 mm 0.00 in0.0 mm 0.00 in0.0 mm
09:10 AM 41.5°F5.3°C 28.7°F-1.8°C 60% 4.2 mph SSW6.8 kmh SSW 7.3 mph11.7 kmh 30.60 in1036.2 mb 0.00 in0.0 mm 0.00 in0.0 mm 0.00 in0.0 mm
09:11 AM 41.5°F5.3°C 28.7°F-1.8°C 60% 4.2 mph W6.8 kmh W 7.3 mph11.7 kmh 30.60 in1036.2 mb 0.00 in0.0 mm 0.00 in0.0 mm 0.00 in0.0 mm
09:12 AM 41.7°F5.4°C 28.9°F-1.7°C 60% 3.2 mph NNE5.1 kmh NNE 7.3 mph11.7 kmh 30.60 in1036.2 mb 0.00 in0.0 mm 0.00 in0.0 mm 0.00 in0.0 mm
09:13 AM 41.9°F5.5°C 28.6°F-1.9°C 59% 4.7 mph W7.6 kmh W 7.3 mph11.7 kmh 30.60 in1036.2 mb 0.00 in0.0 mm 0.00 in0.0 mm 0.00 in0.0 mm
09:14 AM 41.9°F5.5°C 28.6°F-1.9°C 59% 2.2 mph WNW3.5 kmh WNW 7.3 mph11.7 kmh 30.60 in1036.2 mb 0.00 in0.0 mm 0.00 in0.0 mm 0.00 in0.0 mm
09:15 AM 42.1°F5.6°C 28.8°F-1.8°C 59% 3.7 mph W6.0 kmh W 7.3 mph11.7 kmh 30.60 in1036.2 mb 0.00 in0.0 mm 0.00 in0.0 mm 0.00 in0.0 mm
09:16 AM 42.1°F5.6°C 28.8°F-1.8°C 59% 4.7 mph SSE7.6 kmh SSE 7.3 mph11.7 kmh 30.60 in1036.2 mb 0.00 in0.0 mm 0.00 in0.0 mm 0.00 in0.0 mm
09:17 AM 42.4°F5.8°C 29.1°F-1.6°C 59% 4.7 mph W7.6 kmh W 6.3 mph10.1 kmh 30.59 in1035.9 mb 0.00 in0.0 mm 0.00 in0.0 mm 0.00 in0.0 mm
09:18 AM 42.4°F5.8°C 29.1°F-1.6°C 59% 3.2 mph W5.1 kmh W 5.3 mph8.5 kmh 30.59 in1035.9 mb 0.00 in0.0 mm 0.00 in0.0 mm 0.00 in0.0 mm
09:19 AM 42.4°F5.8°C 29.5°F-1.4°C 60% Calm Calm 5.3 mph8.5 kmh 30.59 in1035.9 mb 0.00 in0.0 mm 0.00 in0.0 mm 0.00 in0.0 mm
09:20 AM 42.6°F5.9°C 29.3°F-1.5°C 59% 2.2 mph WSW3.5 kmh WSW 5.3 mph8.5 kmh 30.59 in1035.9 mb 0.00 in0.0 mm 0.00 in0.0 mm 0.00 in0.0 mm
09:21 AM 42.8°F6.0°C 29.5°F-1.4°C 59% 4.2 mph WSW6.8 kmh WSW 5.3 mph8.5 kmh 30.59 in1035.9 mb 0.00 in0.0 mm 0.00 in0.0 mm 0.00 in0.0 mm
09:22 AM 43.0°F6.1°C 29.7°F-1.3°C 59% 1.7 mph W2.7 kmh W 5.3 mph8.5 kmh 30.59 in1035.9 mb 0.00 in0.0 mm 0.00 in0.0 mm 0.00 in0.0 mm
09:23 AM 43.0°F6.1°C 29.7°F-1.3°C 59% 2.2 mph WNW3.5 kmh WNW 5.3 mph8.5 kmh 30.59 in1035.9 mb 0.00 in0.0 mm 0.00 in0.0 mm 0.00 in0.0 mm
09:24 AM 43.2°F6.2°C 29.9°F-1.2°C 59% 2.7 mph W4.3 kmh W 5.3 mph8.5 kmh 30.59 in1035.9 mb 0.00 in0.0 mm 0.00 in0.0 mm 0.00 in0.0 mm
09:25 AM 43.5°F6.4°C 29.7°F-1.3°C 58% 2.7 mph NNW4.3 kmh NNW 5.3 mph8.5 kmh 30.59 in1035.9 mb 0.00 in0.0 mm 0.00 in0.0 mm 0.00 in0.0 mm
09:26 AM 43.5°F6.4°C 29.7°F-1.3°C 58% 4.7 mph W7.6 kmh W 5.3 mph8.5 kmh 30.59 in1035.9 mb 0.00 in0.0 mm 0.00 in0.0 mm 0.00 in0.0 mm
09:27 AM 43.5°F6.4°C 29.7°F-1.3°C 58% 2.7 mph W4.3 kmh W 5.3 mph8.5 kmh 30.59 in1035.9 mb 0.00 in0.0 mm 0.00 in0.0 mm 0.00 in0.0 mm
09:28 AM 43.7°F6.5°C 29.9°F-1.2°C 58% 2.2 mph W3.5 kmh W 5.3 mph8.5 kmh 30.59 in1035.9 mb 0.00 in0.0 mm 0.00 in0.0 mm 0.00 in0.0 mm
09:29 AM 43.9°F6.6°C 29.7°F-1.3°C 57% 2.7 mph W4.3 kmh W 5.3 mph8.5 kmh 30.59 in1035.9 mb 0.00 in0.0 mm 0.00 in0.0 mm 0.00 in0.0 mm
09:30 AM 44.2°F6.8°C 29.9°F-1.2°C 57% 2.2 mph WNW3.5 kmh WNW 5.3 mph8.5 kmh 30.59 in1035.9 mb 0.00 in0.0 mm 0.00 in0.0 mm 0.00 in0.0 mm
09:31 AM 44.2°F6.8°C 29.5°F-1.4°C 56% 5.3 mph WNW8.5 kmh WNW 5.3 mph8.5 kmh 30.59 in1035.9 mb 0.00 in0.0 mm 0.00 in0.0 mm 0.00 in0.0 mm
09:32 AM 44.2°F6.8°C 29.9°F-1.2°C 57% 1.7 mph S2.7 kmh S 5.3 mph8.5 kmh 30.59 in1035.9 mb 0.00 in0.0 mm 0.00 in0.0 mm 0.00 in0.0 mm
09:33 AM 44.2°F6.8°C 29.5°F-1.4°C 56% 3.7 mph SSE6.0 kmh SSE 5.3 mph8.5 kmh 30.59 in1035.9 mb 0.00 in0.0 mm 0.00 in0.0 mm 0.00 in0.0 mm
09:34 AM 44.4°F6.9°C 29.7°F-1.3°C 56% 2.2 mph ENE3.5 kmh ENE 5.3 mph8.5 kmh 30.59 in1035.9 mb 0.00 in0.0 mm 0.00 in0.0 mm 0.00 in0.0 mm
09:35 AM 44.8°F7.1°C 30.1°F-1.1°C 56% 3.7 mph W6.0 kmh W 5.3 mph8.5 kmh 30.59 in1035.9 mb 0.00 in0.0 mm 0.00 in0.0 mm 0.00 in0.0 mm
09:36 AM 44.8°F7.1°C 29.6°F-1.3°C 55% 1.7 mph W2.7 kmh W 5.3 mph8.5 kmh 30.59 in1035.9 mb 0.00 in0.0 mm 0.00 in0.0 mm 0.00 in0.0 mm
09:37 AM 45.0°F7.2°C 30.3°F-0.9°C 56% 2.2 mph E3.5 kmh E 5.3 mph8.5 kmh 30.59 in1035.9 mb 0.00 in0.0 mm 0.00 in0.0 mm 0.00 in0.0 mm
09:38 AM 45.1°F7.3°C 29.9°F-1.2°C 55% 3.7 mph SSE6.0 kmh SSE 5.3 mph8.5 kmh 30.59 in1035.9 mb 0.00 in0.0 mm 0.00 in0.0 mm 0.00 in0.0 mm
09:39 AM 45.1°F7.3°C 29.9°F-1.2°C 55% 3.7 mph W6.0 kmh W 5.3 mph8.5 kmh 30.59 in1035.9 mb 0.00 in0.0 mm 0.00 in0.0 mm 0.00 in0.0 mm
09:40 AM 45.0°F7.2°C 29.8°F-1.2°C 55% 2.7 mph ESE4.3 kmh ESE 5.3 mph8.5 kmh 30.59 in1035.9 mb 0.00 in0.0 mm 0.00 in0.0 mm 0.00 in0.0 mm
09:41 AM 45.1°F7.3°C 30.4°F-0.9°C 56% 2.2 mph S3.5 kmh S 5.3 mph8.5 kmh 30.59 in1035.9 mb 0.00 in0.0 mm 0.00 in0.0 mm 0.00 in0.0 mm
09:42 AM 45.3°F7.4°C 30.5°F-0.8°C 56% 2.2 mph S3.5 kmh S 4.7 mph7.6 kmh 30.59 in1035.9 mb 0.00 in0.0 mm 0.00 in0.0 mm 0.00 in0.0 mm
09:43 AM 45.5°F7.5°C 30.3°F-0.9°C 55% 3.2 mph S5.1 kmh S 4.7 mph7.6 kmh 30.59 in1035.9 mb 0.00 in0.0 mm 0.00 in0.0 mm 0.00 in0.0 mm
09:44 AM 45.5°F7.5°C 30.7°F-0.7°C 56% 3.2 mph SSW5.1 kmh SSW 4.7 mph7.6 kmh 30.59 in1035.9 mb 0.00 in0.0 mm 0.00 in0.0 mm 0.00 in0.0 mm
09:45 AM 45.9°F7.7°C 31.1°F-0.5°C 56% 4.7 mph S7.6 kmh S 4.7 mph7.6 kmh 30.59 in1035.9 mb 0.00 in0.0 mm 0.00 in0.0 mm 0.00 in0.0 mm
09:46 AM 45.9°F7.7°C 30.7°F-0.7°C 55% 2.7 mph S4.3 kmh S 4.7 mph7.6 kmh 30.59 in1035.9 mb 0.00 in0.0 mm 0.00 in0.0 mm 0.00 in0.0 mm
09:47 AM 46.0°F7.8°C 30.7°F-0.7°C 55% 2.2 mph WNW3.5 kmh WNW 4.7 mph7.6 kmh 30.59 in1035.9 mb 0.00 in0.0 mm 0.00 in0.0 mm 0.00 in0.0 mm
09:48 AM 46.0°F7.8°C 30.7°F-0.7°C 55% 1.7 mph SE2.7 kmh SE 4.7 mph7.6 kmh 30.59 in1035.9 mb 0.00 in0.0 mm 0.00 in0.0 mm 0.00 in0.0 mm
09:49 AM 46.2°F7.9°C 30.5°F-0.8°C 54% 4.2 mph SE6.8 kmh SE 4.7 mph7.6 kmh 30.59 in1035.9 mb 0.00 in0.0 mm 0.00 in0.0 mm 0.00 in0.0 mm
09:50 AM 46.4°F8.0°C 30.7°F-0.7°C 54% 1.7 mph ESE2.7 kmh ESE 4.7 mph7.6 kmh 30.59 in1035.9 mb 0.00 in0.0 mm 0.00 in0.0 mm 0.00 in0.0 mm
09:51 AM 46.6°F8.1°C 30.9°F-0.6°C 54% 3.7 mph WNW6.0 kmh WNW 4.7 mph7.6 kmh 30.59 in1035.9 mb 0.00 in0.0 mm 0.00 in0.0 mm 0.00 in0.0 mm
09:52 AM 46.6°F8.1°C 31.3°F-0.4°C 55% 3.2 mph E5.1 kmh E 4.7 mph7.6 kmh 30.59 in1035.9 mb 0.00 in0.0 mm 0.00 in0.0 mm 0.00 in0.0 mm
09:53 AM 46.4°F8.0°C 31.6°F-0.2°C 56% 2.2 mph E3.5 kmh E 4.7 mph7.6 kmh 30.59 in1035.9 mb 0.00 in0.0 mm 0.00 in0.0 mm 0.00 in0.0 mm
09:54 AM 46.6°F8.1°C 31.3°F-0.4°C 55% 3.7 mph W6.0 kmh W 4.7 mph7.6 kmh 30.59 in1035.9 mb 0.00 in0.0 mm 0.00 in0.0 mm 0.00 in0.0 mm
09:55 AM 46.6°F8.1°C 31.3°F-0.4°C 55% 2.2 mph W3.5 kmh W 4.7 mph7.6 kmh 30.59 in1035.9 mb 0.00 in0.0 mm 0.00 in0.0 mm 0.00 in0.0 mm
09:56 AM 46.6°F8.1°C 31.3°F-0.4°C 55% 1.1 mph SSW1.8 kmh SSW 4.2 mph6.8 kmh 30.59 in1035.9 mb 0.00 in0.0 mm 0.00 in0.0 mm 0.00 in0.0 mm
09:57 AM 46.9°F8.3°C 31.6°F-0.2°C 55% 8.3 mph SSW13.4 kmh SSW 8.3 mph13.4 kmh 30.59 in1035.9 mb 0.00 in0.0 mm 0.00 in0.0 mm 0.00 in0.0 mm
09:58 AM 46.8°F8.2°C 31.5°F-0.3°C 55% 2.2 mph W3.5 kmh W 8.3 mph13.4 kmh 30.59 in1035.9 mb 0.00 in0.0 mm 0.00 in0.0 mm 0.00 in0.0 mm
09:59 AM 46.9°F8.3°C 31.6°F-0.2°C 55% 6.3 mph N10.1 kmh N 8.3 mph13.4 kmh 30.59 in1035.9 mb 0.00 in0.0 mm 0.00 in0.0 mm 0.00 in0.0 mm
10:00 AM 46.9°F8.3°C 31.6°F-0.2°C 55% 5.3 mph W8.5 kmh W 8.3 mph13.4 kmh 30.59 in1035.9 mb 0.00 in0.0 mm 0.00 in0.0 mm 0.00 in0.0 mm
10:04 AM 47.8°F8.8°C 32.9°F0.5°C 56% 5.8 mph W9.3 kmh W 8.3 mph13.4 kmh 30.59 in1035.9 mb 0.00 in0.0 mm 0.00 in0.0 mm 0.00 in0.0 mm
10:05 AM 47.5°F8.6°C 32.1°F0.1°C 55% 1.7 mph W2.7 kmh W 8.3 mph13.4 kmh 30.59 in1035.9 mb 0.00 in0.0 mm 0.00 in0.0 mm 0.00 in0.0 mm
10:06 AM 47.7°F8.7°C 32.3°F0.2°C 55% 2.2 mph S3.5 kmh S 8.3 mph13.4 kmh 30.59 in1035.9 mb 0.00 in0.0 mm 0.00 in0.0 mm 0.00 in0.0 mm
10:07 AM 48.2°F9.0°C 32.8°F0.4°C 55% 2.7 mph ESE4.3 kmh ESE 8.3 mph13.4 kmh 30.59 in1035.9 mb 0.00 in0.0 mm 0.00 in0.0 mm 0.00 in0.0 mm
10:08 AM 48.4°F9.1°C 33.0°F0.6°C 55% 6.3 mph W10.1 kmh W 6.3 mph10.1 kmh 30.59 in1035.9 mb 0.00 in0.0 mm 0.00 in0.0 mm 0.00 in0.0 mm
10:09 AM 48.4°F9.1°C 33.0°F0.6°C 55% 1.7 mph W2.7 kmh W 6.8 mph10.9 kmh 30.59 in1035.9 mb 0.00 in0.0 mm 0.00 in0.0 mm 0.00 in0.0 mm
10:10 AM 47.8°F8.8°C 32.4°F0.2°C 55% 4.7 mph W7.6 kmh W 6.8 mph10.9 kmh 30.59 in1035.9 mb 0.00 in0.0 mm 0.00 in0.0 mm 0.00 in0.0 mm
10:11 AM 48.0°F8.9°C 32.6°F0.3°C 55% 5.8 mph W9.3 kmh W 6.8 mph10.9 kmh 30.59 in1035.9 mb 0.00 in0.0 mm 0.00 in0.0 mm 0.00 in0.0 mm
10:12 AM 48.0°F8.9°C 32.6°F0.3°C 55% 1.7 mph S2.7 kmh S 6.8 mph10.9 kmh 30.59 in1035.9 mb 0.00 in0.0 mm 0.00 in0.0 mm 0.00 in0.0 mm
10:13 AM 48.2°F9.0°C 33.2°F0.7°C 56% 2.7 mph WSW4.3 kmh WSW 6.8 mph10.9 kmh 30.59 in1035.9 mb 0.00 in0.0 mm 0.00 in0.0 mm 0.00 in0.0 mm
10:14 AM 48.4°F9.1°C 33.4°F0.8°C 56% 3.7 mph W6.0 kmh W 6.8 mph10.9 kmh 30.59 in1035.9 mb 0.00 in0.0 mm 0.00 in0.0 mm 0.00 in0.0 mm
10:15 AM 48.4°F9.1°C 33.0°F0.6°C 55% 2.7 mph SSE4.3 kmh SSE 6.8 mph10.9 kmh 30.59 in1035.9 mb 0.00 in0.0 mm 0.00 in0.0 mm 0.00 in0.0 mm
10:16 AM 48.7°F9.3°C 33.7°F0.9°C 56% 4.7 mph S7.6 kmh S 6.8 mph10.9 kmh 30.59 in1035.9 mb 0.00 in0.0 mm 0.00 in0.0 mm 0.00 in0.0 mm
10:17 AM 49.3°F9.6°C 33.4°F0.8°C 54% 1.7 mph ESE2.7 kmh ESE 6.8 mph10.9 kmh 30.58 in1035.6 mb 0.00 in0.0 mm 0.00 in0.0 mm 0.00 in0.0 mm
10:18 AM 49.3°F9.6°C 33.4°F0.8°C 54% 1.7 mph W2.7 kmh W 6.8 mph10.9 kmh 30.58 in1035.6 mb 0.00 in0.0 mm 0.00 in0.0 mm 0.00 in0.0 mm
10:19 AM 49.3°F9.6°C 33.8°F1.0°C 55% Calm Calm 5.8 mph9.3 kmh 30.58 in1035.6 mb 0.00 in0.0 mm 0.00 in0.0 mm 0.00 in0.0 mm
10:20 AM 49.3°F9.6°C 33.8°F1.0°C 55% 2.7 mph W4.3 kmh W 5.8 mph9.3 kmh 30.58 in1035.6 mb 0.00 in0.0 mm 0.00 in0.0 mm 0.00 in0.0 mm
10:21 AM 49.5°F9.7°C 34.0°F1.1°C 55% 5.8 mph SSE9.3 kmh SSE 5.8 mph9.3 kmh 30.58 in1035.6 mb 0.00 in0.0 mm 0.00 in0.0 mm 0.00 in0.0 mm
10:22 AM 49.8°F9.9°C 33.8°F1.0°C 54% 2.7 mph SSE4.3 kmh SSE 5.8 mph9.3 kmh 30.58 in1035.6 mb 0.00 in0.0 mm 0.00 in0.0 mm 0.00 in0.0 mm
10:23 AM 50.0°F10.0°C 34.0°F1.1°C 54% 2.7 mph SSE4.3 kmh SSE 5.8 mph9.3 kmh 30.58 in1035.6 mb 0.00 in0.0 mm 0.00 in0.0 mm 0.00 in0.0 mm
10:24 AM 49.8°F9.9°C 33.8°F1.0°C 54% 4.2 mph SSE6.8 kmh SSE 5.8 mph9.3 kmh 30.58 in1035.6 mb 0.00 in0.0 mm 0.00 in0.0 mm 0.00 in0.0 mm
10:25 AM 50.0°F10.0°C 34.0°F1.1°C 54% 3.2 mph ESE5.1 kmh ESE 5.8 mph9.3 kmh 30.58 in1035.6 mb 0.00 in0.0 mm 0.00 in0.0 mm 0.00 in0.0 mm
10:26 AM 50.2°F10.1°C 34.2°F1.2°C 54% 5.3 mph SE8.5 kmh SE 5.8 mph9.3 kmh 30.58 in1035.6 mb 0.00 in0.0 mm 0.00 in0.0 mm 0.00 in0.0 mm
10:27 AM 50.2°F10.1°C 33.7°F0.9°C 53% 1.7 mph NW2.7 kmh NW 5.8 mph9.3 kmh 30.58 in1035.6 mb 0.00 in0.0 mm 0.00 in0.0 mm 0.00 in0.0 mm
10:28 AM 50.2°F10.1°C 33.7°F0.9°C 53% 1.7 mph ESE2.7 kmh ESE 5.8 mph9.3 kmh 30.58 in1035.6 mb 0.00 in0.0 mm 0.00 in0.0 mm 0.00 in0.0 mm
10:29 AM 50.9°F10.5°C 34.4°F1.3°C 53% 3.2 mph WSW5.1 kmh WSW 5.8 mph9.3 kmh 30.58 in1035.6 mb 0.00 in0.0 mm 0.00 in0.0 mm 0.00 in0.0 mm
10:30 AM 50.9°F10.5°C 34.4°F1.3°C 53% 4.2 mph W6.8 kmh W 5.8 mph9.3 kmh 30.58 in1035.6 mb 0.00 in0.0 mm 0.00 in0.0 mm 0.00 in0.0 mm
10:31 AM 50.4°F10.2°C 34.4°F1.3°C 54% 4.2 mph WSW6.8 kmh WSW 5.3 mph8.5 kmh 30.58 in1035.6 mb 0.00 in0.0 mm 0.00 in0.0 mm 0.00 in0.0 mm
10:32 AM 50.5°F10.3°C 34.5°F1.4°C 54% 5.3 mph W8.5 kmh W 5.3 mph8.5 kmh 30.58 in1035.6 mb 0.00 in0.0 mm 0.00 in0.0 mm 0.00 in0.0 mm
10:33 AM 51.1°F10.6°C 35.5°F1.9°C 55% 5.3 mph W8.5 kmh W 5.3 mph8.5 kmh 30.58 in1035.6 mb 0.00 in0.0 mm 0.00 in0.0 mm 0.00 in0.0 mm
10:34 AM 50.9°F10.5°C 34.9°F1.6°C 54% 5.8 mph W9.3 kmh W 5.8 mph9.3 kmh 30.58 in1035.6 mb 0.00 in0.0 mm 0.00 in0.0 mm 0.00 in0.0 mm
10:35 AM 50.7°F10.4°C 34.7°F1.5°C 54% 4.7 mph W7.6 kmh W 5.8 mph9.3 kmh 30.58 in1035.6 mb 0.00 in0.0 mm 0.00 in0.0 mm 0.00 in0.0 mm
10:36 AM 50.7°F10.4°C 34.7°F1.5°C 54% 4.7 mph W7.6 kmh W 5.8 mph9.3 kmh 30.58 in1035.6 mb 0.00 in0.0 mm 0.00 in0.0 mm 0.00 in0.0 mm
10:37 AM 50.9°F10.5°C 34.9°F1.6°C 54% 3.2 mph W5.1 kmh W 5.8 mph9.3 kmh 30.58 in1035.6 mb 0.00 in0.0 mm 0.00 in0.0 mm 0.00 in0.0 mm
10:38 AM 51.3°F10.7°C 35.2°F1.8°C 54% 2.7 mph WSW4.3 kmh WSW 5.8 mph9.3 kmh 30.58 in1035.6 mb 0.00 in0.0 mm 0.00 in0.0 mm 0.00 in0.0 mm
10:39 AM 51.3°F10.7°C 35.2°F1.8°C 54% 3.7 mph NW6.0 kmh NW 5.8 mph9.3 kmh 30.58 in1035.6 mb 0.00 in0.0 mm 0.00 in0.0 mm 0.00 in0.0 mm
10:40 AM 51.4°F10.8°C 35.3°F1.8°C 54% 4.7 mph W7.6 kmh W 5.8 mph9.3 kmh 30.57 in1035.2 mb 0.00 in0.0 mm 0.00 in0.0 mm 0.00 in0.0 mm
10:41 AM 51.4°F10.8°C 35.3°F1.8°C 54% 2.2 mph WSW3.5 kmh WSW 5.8 mph9.3 kmh 30.57 in1035.2 mb 0.00 in0.0 mm 0.00 in0.0 mm 0.00 in0.0 mm
10:42 AM 51.8°F11.0°C 35.7°F2.1°C 54% 1.7 mph ESE2.7 kmh ESE 5.8 mph9.3 kmh 30.57 in1035.2 mb 0.00 in0.0 mm 0.00 in0.0 mm 0.00 in0.0 mm
10:43 AM 52.3°F11.3°C 36.2°F2.3°C 54% 3.7 mph SSE6.0 kmh SSE 5.8 mph9.3 kmh 30.57 in1035.2 mb 0.00 in0.0 mm 0.00 in0.0 mm 0.00 in0.0 mm
10:44 AM 52.7°F11.5°C 36.1°F2.3°C 53% 3.7 mph SSE6.0 kmh SSE 5.3 mph8.5 kmh 30.57 in1035.2 mb 0.00 in0.0 mm 0.00 in0.0 mm 0.00 in0.0 mm
10:45 AM 52.9°F11.6°C 36.2°F2.3°C 53% 1.1 mph SSW1.8 kmh SSW 5.3 mph8.5 kmh 30.57 in1035.2 mb 0.00 in0.0 mm 0.00 in0.0 mm 0.00 in0.0 mm
10:46 AM 52.9°F11.6°C 36.2°F2.3°C 53% 1.7 mph NNW2.7 kmh NNW 5.3 mph8.5 kmh 30.57 in1035.2 mb 0.00 in0.0 mm 0.00 in0.0 mm 0.00 in0.0 mm
10:47 AM 52.9°F11.6°C 36.2°F2.3°C 53% 2.7 mph SSW4.3 kmh SSW 5.3 mph8.5 kmh 30.57 in1035.2 mb 0.00 in0.0 mm 0.00 in0.0 mm 0.00 in0.0 mm
10:48 AM 53.1°F11.7°C 36.4°F2.4°C 53% 2.7 mph W4.3 kmh W 5.3 mph8.5 kmh 30.57 in1035.2 mb 0.00 in0.0 mm 0.00 in0.0 mm 0.00 in0.0 mm
10:49 AM 53.2°F11.8°C 36.5°F2.5°C 53% 3.2 mph W5.1 kmh W 5.3 mph8.5 kmh 30.57 in1035.2 mb 0.00 in0.0 mm 0.00 in0.0 mm 0.00 in0.0 mm
10:50 AM 53.1°F11.7°C 36.9°F2.7°C 54% 2.2 mph W3.5 kmh W 5.3 mph8.5 kmh 30.57 in1035.2 mb 0.00 in0.0 mm 0.00 in0.0 mm 0.00 in0.0 mm
10:51 AM 52.9°F11.6°C 37.2°F2.9°C 55% 7.3 mph SW11.7 kmh SW 7.3 mph11.7 kmh 30.57 in1035.2 mb 0.00 in0.0 mm 0.00 in0.0 mm 0.00 in0.0 mm
10:52 AM 52.9°F11.6°C 37.2°F2.9°C 55% 4.7 mph NNE7.6 kmh NNE 7.3 mph11.7 kmh 30.57 in1035.2 mb 0.00 in0.0 mm 0.00 in0.0 mm 0.00 in0.0 mm
10:53 AM 52.9°F11.6°C 37.2°F2.9°C 55% 7.3 mph NW11.7 kmh NW 7.3 mph11.7 kmh 30.56 in1034.9 mb 0.00 in0.0 mm 0.00 in0.0 mm 0.00 in0.0 mm
10:54 AM 52.9°F11.6°C 37.2°F2.9°C 55% 3.7 mph S6.0 kmh S 7.3 mph11.7 kmh 30.56 in1034.9 mb 0.00 in0.0 mm 0.00 in0.0 mm 0.00 in0.0 mm
10:55 AM 53.2°F11.8°C 37.5°F3.1°C 55% 2.7 mph NW4.3 kmh NW 7.3 mph11.7 kmh 30.56 in1034.9 mb 0.00 in0.0 mm 0.00 in0.0 mm 0.00 in0.0 mm
10:56 AM 53.2°F11.8°C 37.5°F3.1°C 55% 3.2 mph SSW5.1 kmh SSW 7.3 mph11.7 kmh 30.56 in1034.9 mb 0.00 in0.0 mm 0.00 in0.0 mm 0.00 in0.0 mm
10:57 AM 53.8°F12.1°C 38.0°F3.3°C 55% 3.7 mph W6.0 kmh W 7.3 mph11.7 kmh 30.56 in1034.9 mb 0.00 in0.0 mm 0.00 in0.0 mm 0.00 in0.0 mm
10:58 AM 53.8°F12.1°C 38.0°F3.3°C 55% 3.2 mph W5.1 kmh W 7.3 mph11.7 kmh 30.56 in1034.9 mb 0.00 in0.0 mm 0.00 in0.0 mm 0.00 in0.0 mm
10:59 AM 53.6°F12.0°C 38.3°F3.5°C 56% 4.2 mph SW6.8 kmh SW 7.3 mph11.7 kmh 30.56 in1034.9 mb 0.00 in0.0 mm 0.00 in0.0 mm 0.00 in0.0 mm
11:00 AM 53.6°F12.0°C 38.7°F3.7°C 57% 3.2 mph W5.1 kmh W 7.3 mph11.7 kmh 30.56 in1034.9 mb 0.00 in0.0 mm 0.00 in0.0 mm 0.00 in0.0 mm
11:01 AM 53.8°F12.1°C 38.5°F3.6°C 56% 2.7 mph WSW4.3 kmh WSW 7.3 mph11.7 kmh 30.56 in1034.9 mb 0.00 in0.0 mm 0.00 in0.0 mm 0.00 in0.0 mm
11:02 AM 54.1°F12.3°C 38.3°F3.5°C 55% 2.7 mph SSE4.3 kmh SSE 7.3 mph11.7 kmh 30.56 in1034.9 mb 0.00 in0.0 mm 0.00 in0.0 mm 0.00 in0.0 mm
11:03 AM 54.1°F12.3°C 38.3°F3.5°C 55% 2.7 mph W4.3 kmh W 4.7 mph7.6 kmh 30.56 in1034.9 mb 0.00 in0.0 mm 0.00 in0.0 mm 0.00 in0.0 mm
11:04 AM 54.0°F12.2°C 38.2°F3.4°C 55% 3.7 mph W6.0 kmh W 4.7 mph7.6 kmh 30.56 in1034.9 mb 0.00 in0.0 mm 0.00 in0.0 mm 0.00 in0.0 mm
11:05 AM 54.1°F12.3°C 38.3°F3.5°C 55% 5.8 mph W9.3 kmh W 5.8 mph9.3 kmh 30.55 in1034.5 mb 0.00 in0.0 mm 0.00 in0.0 mm 0.00 in0.0 mm
11:06 AM 54.1°F12.3°C 38.3°F3.5°C 55% 3.7 mph NW6.0 kmh NW 5.8 mph9.3 kmh 30.55 in1034.5 mb 0.00 in0.0 mm 0.00 in0.0 mm 0.00 in0.0 mm
11:07 AM 54.0°F12.2°C 38.2°F3.4°C 55% 4.7 mph W7.6 kmh W 7.3 mph11.7 kmh 30.55 in1034.5 mb 0.00 in0.0 mm 0.00 in0.0 mm 0.00 in0.0 mm
11:08 AM 54.0°F12.2°C 38.7°F3.7°C 56% 2.7 mph W4.3 kmh W 7.3 mph11.7 kmh 30.55 in1034.5 mb 0.00 in0.0 mm 0.00 in0.0 mm 0.00 in0.0 mm
11:09 AM 53.8°F12.1°C 38.5°F3.6°C 56% 5.3 mph W8.5 kmh W 7.3 mph11.7 kmh 30.55 in1034.5 mb 0.00 in0.0 mm 0.00 in0.0 mm 0.00 in0.0 mm
11:10 AM 54.1°F12.3°C 38.8°F3.8°C 56% 3.2 mph W5.1 kmh W 7.3 mph11.7 kmh 30.55 in1034.5 mb 0.00 in0.0 mm 0.00 in0.0 mm 0.00 in0.0 mm
11:11 AM 54.1°F12.3°C 38.8°F3.8°C 56% 4.2 mph W6.8 kmh W 7.3 mph11.7 kmh 30.55 in1034.5 mb 0.00 in0.0 mm 0.00 in0.0 mm 0.00 in0.0 mm
11:16 AM 54.7°F12.6°C 39.3°F4.1°C 56% 4.7 mph W7.6 kmh W 5.3 mph8.5 kmh 30.55 in1034.5 mb 0.00 in0.0 mm 0.00 in0.0 mm 0.00 in0.0 mm
11:17 AM 55.0°F12.8°C 40.0°F4.4°C 57% 4.2 mph W6.8 kmh W 5.3 mph8.5 kmh 30.55 in1034.5 mb 0.00 in0.0 mm 0.00 in0.0 mm 0.00 in0.0 mm
11:18 AM 55.2°F12.9°C 39.8°F4.3°C 56% 1.1 mph E1.8 kmh E 5.3 mph8.5 kmh 30.55 in1034.5 mb 0.00 in0.0 mm 0.00 in0.0 mm 0.00 in0.0 mm
11:19 AM 55.9°F13.3°C 40.0°F4.4°C 55% 2.7 mph SSE4.3 kmh SSE 5.3 mph8.5 kmh 30.55 in1034.5 mb 0.00 in0.0 mm 0.00 in0.0 mm 0.00 in0.0 mm
11:20 AM 55.9°F13.3°C 40.0°F4.4°C 55% 3.7 mph SE6.0 kmh SE 4.7 mph7.6 kmh 30.55 in1034.5 mb 0.00 in0.0 mm 0.00 in0.0 mm 0.00 in0.0 mm
11:21 AM 56.3°F13.5°C 40.3°F4.6°C 55% 2.2 mph SSE3.5 kmh SSE 4.7 mph7.6 kmh 30.55 in1034.5 mb 0.00 in0.0 mm 0.00 in0.0 mm 0.00 in0.0 mm
11:22 AM 56.5°F13.6°C 40.5°F4.7°C 55% 3.2 mph S5.1 kmh S 4.7 mph7.6 kmh 30.55 in1034.5 mb 0.00 in0.0 mm 0.00 in0.0 mm 0.00 in0.0 mm
11:23 AM 56.7°F13.7°C 40.2°F4.6°C 54% 2.7 mph ESE4.3 kmh ESE 4.7 mph7.6 kmh 30.55 in1034.5 mb 0.00 in0.0 mm 0.00 in0.0 mm 0.00 in0.0 mm
11:24 AM 56.5°F13.6°C 40.1°F4.5°C 54% 7.8 mph W12.6 kmh W 7.8 mph12.6 kmh 30.55 in1034.5 mb 0.00 in0.0 mm 0.00 in0.0 mm 0.00 in0.0 mm
11:25 AM 56.7°F13.7°C 40.7°F4.8°C 55% 2.7 mph E4.3 kmh E 7.8 mph12.6 kmh 30.55 in1034.5 mb 0.00 in0.0 mm 0.00 in0.0 mm 0.00 in0.0 mm
11:26 AM 56.5°F13.6°C 40.5°F4.7°C 55% 5.3 mph WNW8.5 kmh WNW 7.8 mph12.6 kmh 30.55 in1034.5 mb 0.00 in0.0 mm 0.00 in0.0 mm 0.00 in0.0 mm
11:27 AM 56.5°F13.6°C 41.0°F5.0°C 56% 2.7 mph WSW4.3 kmh WSW 7.8 mph12.6 kmh 30.55 in1034.5 mb 0.00 in0.0 mm 0.00 in0.0 mm 0.00 in0.0 mm
11:28 AM 56.8°F13.8°C 41.3°F5.2°C 56% 2.7 mph SW4.3 kmh SW 7.8 mph12.6 kmh 30.55 in1034.5 mb 0.00 in0.0 mm 0.00 in0.0 mm 0.00 in0.0 mm
11:29 AM 57.2°F14.0°C 41.2°F5.1°C 55% 3.2 mph WNW5.1 kmh WNW 7.8 mph12.6 kmh 30.54 in1034.2 mb 0.00 in0.0 mm 0.00 in0.0 mm 0.00 in0.0 mm
11:30 AM 57.4°F14.1°C 41.4°F5.2°C 55% 4.2 mph E6.8 kmh E 7.8 mph12.6 kmh 30.54 in1034.2 mb 0.00 in0.0 mm 0.00 in0.0 mm 0.00 in0.0 mm
11:31 AM 57.4°F14.1°C 41.4°F5.2°C 55% 4.7 mph W7.6 kmh W 7.8 mph12.6 kmh 30.54 in1034.2 mb 0.00 in0.0 mm 0.00 in0.0 mm 0.00 in0.0 mm
11:32 AM 57.0°F13.9°C 41.9°F5.5°C 57% 3.7 mph W6.0 kmh W 7.8 mph12.6 kmh 30.54 in1034.2 mb 0.00 in0.0 mm 0.00 in0.0 mm 0.00 in0.0 mm
11:33 AM 56.8°F13.8°C 41.7°F5.4°C 57% 2.2 mph S3.5 kmh S 7.8 mph12.6 kmh 30.54 in1034.2 mb 0.00 in0.0 mm 0.00 in0.0 mm 0.00 in0.0 mm
11:34 AM 57.6°F14.2°C 42.0°F5.6°C 56% 5.3 mph S8.5 kmh S 6.3 mph10.1 kmh 30.54 in1034.2 mb 0.00 in0.0 mm 0.00 in0.0 mm 0.00 in0.0 mm
11:35 AM 57.6°F14.2°C 42.0°F5.6°C 56% 3.7 mph W6.0 kmh W 6.3 mph10.1 kmh 30.54 in1034.2 mb 0.00 in0.0 mm 0.00 in0.0 mm 0.00 in0.0 mm
11:36 AM 57.7°F14.3°C 42.1°F5.6°C 56% 3.7 mph W6.0 kmh W 6.3 mph10.1 kmh 30.54 in1034.2 mb 0.00 in0.0 mm 0.00 in0.0 mm 0.00 in0.0 mm
11:37 AM 58.3°F14.6°C 42.2°F5.7°C 55% 1.7 mph S2.7 kmh S 6.3 mph10.1 kmh 30.54 in1034.2 mb 0.00 in0.0 mm 0.00 in0.0 mm 0.00 in0.0 mm
11:38 AM 58.5°F14.7°C 42.4°F5.8°C 55% 4.2 mph W6.8 kmh W 6.3 mph10.1 kmh 30.54 in1034.2 mb 0.00 in0.0 mm 0.00 in0.0 mm 0.00 in0.0 mm
11:39 AM 58.3°F14.6°C 42.2°F5.7°C 55% 4.7 mph W7.6 kmh W 6.8 mph10.9 kmh 30.54 in1034.2 mb 0.00 in0.0 mm 0.00 in0.0 mm 0.00 in0.0 mm
11:40 AM 57.6°F14.2°C 42.0°F5.6°C 56% 3.7 mph W6.0 kmh W 6.8 mph10.9 kmh 30.54 in1034.2 mb 0.00 in0.0 mm 0.00 in0.0 mm 0.00 in0.0 mm
11:41 AM 57.7°F14.3°C 42.1°F5.6°C 56% 5.8 mph WNW9.3 kmh WNW 6.8 mph10.9 kmh 30.53 in1033.9 mb 0.00 in0.0 mm 0.00 in0.0 mm 0.00 in0.0 mm
11:42 AM 57.9°F14.4°C 42.3°F5.7°C 56% 4.7 mph W7.6 kmh W 6.8 mph10.9 kmh 30.53 in1033.9 mb 0.00 in0.0 mm 0.00 in0.0 mm 0.00 in0.0 mm
11:43 AM 58.1°F14.5°C 42.5°F5.8°C 56% 3.7 mph SW6.0 kmh SW 6.8 mph10.9 kmh 30.53 in1033.9 mb 0.00 in0.0 mm 0.00 in0.0 mm 0.00 in0.0 mm
11:44 AM 58.3°F14.6°C 42.7°F5.9°C 56% 3.2 mph NE5.1 kmh NE 6.8 mph10.9 kmh 30.53 in1033.9 mb 0.00 in0.0 mm 0.00 in0.0 mm 0.00 in0.0 mm
11:45 AM 58.5°F14.7°C 42.9°F6.1°C 56% 2.2 mph SE3.5 kmh SE 6.8 mph10.9 kmh 30.53 in1033.9 mb 0.00 in0.0 mm 0.00 in0.0 mm 0.00 in0.0 mm
11:46 AM 59.2°F15.1°C 43.5°F6.4°C 56% 1.7 mph E2.7 kmh E 6.8 mph10.9 kmh 30.53 in1033.9 mb 0.00 in0.0 mm 0.00 in0.0 mm 0.00 in0.0 mm
11:47 AM 59.2°F15.1°C 43.5°F6.4°C 56% 2.2 mph WNW3.5 kmh WNW 6.8 mph10.9 kmh 30.53 in1033.9 mb 0.00 in0.0 mm 0.00 in0.0 mm 0.00 in0.0 mm
11:48 AM 59.4°F15.2°C 43.2°F6.2°C 55% 2.7 mph SSE4.3 kmh SSE 6.8 mph10.9 kmh 30.53 in1033.9 mb 0.00 in0.0 mm 0.00 in0.0 mm 0.00 in0.0 mm
11:49 AM 60.1°F15.6°C 43.4°F6.3°C 54% 3.2 mph ESE5.1 kmh ESE 5.8 mph9.3 kmh 30.53 in1033.9 mb 0.00 in0.0 mm 0.00 in0.0 mm 0.00 in0.0 mm
11:50 AM 59.9°F15.5°C 43.2°F6.2°C 54% 3.7 mph SE6.0 kmh SE 5.8 mph9.3 kmh 30.53 in1033.9 mb 0.00 in0.0 mm 0.00 in0.0 mm 0.00 in0.0 mm
11:51 AM 59.7°F15.4°C 43.0°F6.1°C 54% 1.7 mph WNW2.7 kmh WNW 5.8 mph9.3 kmh 30.53 in1033.9 mb 0.00 in0.0 mm 0.00 in0.0 mm 0.00 in0.0 mm
11:52 AM 60.1°F15.6°C 43.4°F6.3°C 54% 4.7 mph WNW7.6 kmh WNW 5.8 mph9.3 kmh 30.52 in1033.5 mb 0.00 in0.0 mm 0.00 in0.0 mm 0.00 in0.0 mm
11:53 AM 59.9°F15.5°C 43.2°F6.2°C 54% 4.2 mph W6.8 kmh W 5.8 mph9.3 kmh 30.52 in1033.5 mb 0.00 in0.0 mm 0.00 in0.0 mm 0.00 in0.0 mm
11:54 AM 59.9°F15.5°C 43.2°F6.2°C 54% 2.2 mph NNW3.5 kmh NNW 5.8 mph9.3 kmh 30.52 in1033.5 mb 0.00 in0.0 mm 0.00 in0.0 mm 0.00 in0.0 mm
11:55 AM 59.9°F15.5°C 43.2°F6.2°C 54% 4.2 mph ESE6.8 kmh ESE 5.8 mph9.3 kmh 30.52 in1033.5 mb 0.00 in0.0 mm 0.00 in0.0 mm 0.00 in0.0 mm
11:56 AM 59.9°F15.5°C 43.2°F6.2°C 54% 3.2 mph NE5.1 kmh NE 6.3 mph10.1 kmh 30.52 in1033.5 mb 0.00 in0.0 mm 0.00 in0.0 mm 0.00 in0.0 mm
11:57 AM 60.3°F15.7°C 43.6°F6.4°C 54% 3.7 mph E6.0 kmh E 6.3 mph10.1 kmh 30.52 in1033.5 mb 0.00 in0.0 mm 0.00 in0.0 mm 0.00 in0.0 mm
11:58 AM 60.4°F15.8°C 43.7°F6.5°C 54% 3.2 mph SSE5.1 kmh SSE 6.3 mph10.1 kmh 30.52 in1033.5 mb 0.00 in0.0 mm 0.00 in0.0 mm 0.00 in0.0 mm
11:59 AM 60.4°F15.8°C 43.7°F6.5°C 54% 1.7 mph SE2.7 kmh SE 6.3 mph10.1 kmh 30.52 in1033.5 mb 0.00 in0.0 mm 0.00 in0.0 mm 0.00 in0.0 mm
12:00 PM 60.6°F15.9°C 43.9°F6.6°C 54% 3.7 mph SE6.0 kmh SE 6.3 mph10.1 kmh 30.52 in1033.5 mb 0.00 in0.0 mm 0.00 in0.0 mm 0.00 in0.0 mm
12:01 PM 60.6°F15.9°C 43.9°F6.6°C 54% 3.2 mph SW5.1 kmh SW 6.3 mph10.1 kmh 30.52 in1033.5 mb 0.00 in0.0 mm 0.00 in0.0 mm 0.00 in0.0 mm
12:02 PM 60.8°F16.0°C 43.6°F6.4°C 53% 3.7 mph SSW6.0 kmh SSW 6.3 mph10.1 kmh 30.52 in1033.5 mb 0.00 in0.0 mm 0.00 in0.0 mm 0.00 in0.0 mm
12:03 PM 60.8°F16.0°C 43.1°F6.2°C 52% 4.2 mph N6.8 kmh N 6.3 mph10.1 kmh 30.52 in1033.5 mb 0.00 in0.0 mm 0.00 in0.0 mm 0.00 in0.0 mm
12:04 PM 61.0°F16.1°C 43.7°F6.5°C 53% 4.7 mph N7.6 kmh N 8.3 mph13.4 kmh 30.52 in1033.5 mb 0.00 in0.0 mm 0.00 in0.0 mm 0.00 in0.0 mm
12:05 PM 60.8°F16.0°C 44.0°F6.7°C 54% 5.3 mph WNW8.5 kmh WNW 8.3 mph13.4 kmh 30.51 in1033.2 mb 0.00 in0.0 mm 0.00 in0.0 mm 0.00 in0.0 mm
12:06 PM 60.6°F15.9°C 43.9°F6.6°C 54% 3.2 mph WNW5.1 kmh WNW 8.3 mph13.4 kmh 30.51 in1033.2 mb 0.00 in0.0 mm 0.00 in0.0 mm 0.00 in0.0 mm
12:07 PM 60.6°F15.9°C 43.9°F6.6°C 54% 3.7 mph W6.0 kmh W 8.3 mph13.4 kmh 30.51 in1033.2 mb 0.00 in0.0 mm 0.00 in0.0 mm 0.00 in0.0 mm
12:08 PM 61.2°F16.2°C 44.4°F6.9°C 54% 6.3 mph WNW10.1 kmh WNW 8.3 mph13.4 kmh 30.51 in1033.2 mb 0.00 in0.0 mm 0.00 in0.0 mm 0.00 in0.0 mm
12:09 PM 61.2°F16.2°C 44.4°F6.9°C 54% 8.9 mph W14.3 kmh W 8.9 mph14.3 kmh 30.51 in1033.2 mb 0.00 in0.0 mm 0.00 in0.0 mm 0.00 in0.0 mm
12:10 PM 61.3°F16.3°C 44.0°F6.7°C 53% 9.4 mph W15.1 kmh W 9.4 mph15.1 kmh 30.51 in1033.2 mb 0.00 in0.0 mm 0.00 in0.0 mm 0.00 in0.0 mm
12:11 PM 61.3°F16.3°C 44.0°F6.7°C 53% 6.3 mph W10.1 kmh W 9.4 mph15.1 kmh 30.51 in1033.2 mb 0.00 in0.0 mm 0.00 in0.0 mm 0.00 in0.0 mm
12:12 PM 61.2°F16.2°C 43.9°F6.6°C 53% 5.8 mph SW9.3 kmh SW 9.9 mph15.9 kmh 30.51 in1033.2 mb 0.00 in0.0 mm 0.00 in0.0 mm 0.00 in0.0 mm
12:13 PM 61.0°F16.1°C 44.2°F6.8°C 54% 7.3 mph SW11.7 kmh SW 9.9 mph15.9 kmh 30.51 in1033.2 mb 0.00 in0.0 mm 0.00 in0.0 mm 0.00 in0.0 mm
12:18 PM 61.0°F16.1°C 44.2°F6.8°C 54% 5.3 mph W8.5 kmh W 9.9 mph15.9 kmh 30.50 in1032.8 mb 0.00 in0.0 mm 0.00 in0.0 mm 0.00 in0.0 mm
12:19 PM 61.5°F16.4°C 44.2°F6.8°C 53% 6.8 mph W10.9 kmh W 9.9 mph15.9 kmh 30.50 in1032.8 mb 0.00 in0.0 mm 0.00 in0.0 mm 0.00 in0.0 mm
12:20 PM 61.9°F16.6°C 44.6°F7.0°C 53% 5.3 mph W8.5 kmh W 9.9 mph15.9 kmh 30.50 in1032.8 mb 0.00 in0.0 mm 0.00 in0.0 mm 0.00 in0.0 mm
12:21 PM 61.9°F16.6°C 44.6°F7.0°C 53% 3.2 mph SSW5.1 kmh SSW 9.9 mph15.9 kmh 30.50 in1032.8 mb 0.00 in0.0 mm 0.00 in0.0 mm 0.00 in0.0 mm
12:22 PM 62.1°F16.7°C 44.8°F7.1°C 53% 4.7 mph SSW7.6 kmh SSW 7.3 mph11.7 kmh 30.50 in1032.8 mb 0.00 in0.0 mm 0.00 in0.0 mm 0.00 in0.0 mm
12:23 PM 62.2°F16.8°C 44.9°F7.2°C 53% 1.7 mph ENE2.7 kmh ENE 9.9 mph15.9 kmh 30.50 in1032.8 mb 0.00 in0.0 mm 0.00 in0.0 mm 0.00 in0.0 mm
12:24 PM 63.0°F17.2°C 45.1°F7.3°C 52% 4.7 mph SSW7.6 kmh SSW 9.9 mph15.9 kmh 30.50 in1032.8 mb 0.00 in0.0 mm 0.00 in0.0 mm 0.00 in0.0 mm
12:25 PM 63.1°F17.3°C 45.2°F7.3°C 52% 2.7 mph SSW4.3 kmh SSW 9.9 mph15.9 kmh 30.50 in1032.8 mb 0.00 in0.0 mm 0.00 in0.0 mm 0.00 in0.0 mm
12:26 PM 63.1°F17.3°C 45.2°F7.3°C 52% 10.4 mph WNW16.7 kmh WNW 10.4 mph16.7 kmh 30.50 in1032.8 mb 0.00 in0.0 mm 0.00 in0.0 mm 0.00 in0.0 mm
12:27 PM 62.8°F17.1°C 44.9°F7.2°C 52% 5.3 mph W8.5 kmh W 11.9 mph19.2 kmh 30.50 in1032.8 mb 0.00 in0.0 mm 0.00 in0.0 mm 0.00 in0.0 mm
12:28 PM 63.5°F17.5°C 46.1°F7.8°C 53% 3.2 mph E5.1 kmh E 11.9 mph19.2 kmh 30.50 in1032.8 mb 0.00 in0.0 mm 0.00 in0.0 mm 0.00 in0.0 mm
12:29 PM 63.7°F17.6°C 45.7°F7.6°C 52% 4.2 mph W6.8 kmh W 11.9 mph19.2 kmh 30.49 in1032.5 mb 0.00 in0.0 mm 0.00 in0.0 mm 0.00 in0.0 mm
12:30 PM 63.7°F17.6°C 45.7°F7.6°C 52% 3.7 mph NE6.0 kmh NE 11.9 mph19.2 kmh 30.49 in1032.5 mb 0.00 in0.0 mm 0.00 in0.0 mm 0.00 in0.0 mm
12:31 PM 63.5°F17.5°C 45.6°F7.6°C 52% 4.7 mph ESE7.6 kmh ESE 11.9 mph19.2 kmh 30.49 in1032.5 mb 0.00 in0.0 mm 0.00 in0.0 mm 0.00 in0.0 mm
12:32 PM 63.1°F17.3°C 45.2°F7.3°C 52% 6.3 mph NE10.1 kmh NE 11.9 mph19.2 kmh 30.49 in1032.5 mb 0.00 in0.0 mm 0.00 in0.0 mm 0.00 in0.0 mm
12:33 PM 62.6°F17.0°C 44.7°F7.1°C 52% 3.7 mph SW6.0 kmh SW 11.9 mph19.2 kmh 30.49 in1032.5 mb 0.00 in0.0 mm 0.00 in0.0 mm 0.00 in0.0 mm
12:34 PM 62.6°F17.0°C 44.7°F7.1°C 52% 6.3 mph S10.1 kmh S 11.9 mph19.2 kmh 30.49 in1032.5 mb 0.00 in0.0 mm 0.00 in0.0 mm 0.00 in0.0 mm
12:35 PM 63.0°F17.2°C 45.1°F7.3°C 52% 4.7 mph S7.6 kmh S 11.9 mph19.2 kmh 30.49 in1032.5 mb 0.00 in0.0 mm 0.00 in0.0 mm 0.00 in0.0 mm
12:36 PM 63.1°F17.3°C 45.2°F7.3°C 52% 2.7 mph NW4.3 kmh NW 11.9 mph19.2 kmh 30.49 in1032.5 mb 0.00 in0.0 mm 0.00 in0.0 mm 0.00 in0.0 mm
12:37 PM 63.3°F17.4°C 45.4°F7.4°C 52% 7.3 mph S11.7 kmh S 7.8 mph12.6 kmh 30.49 in1032.5 mb 0.00 in0.0 mm 0.00 in0.0 mm 0.00 in0.0 mm
12:38 PM 63.5°F17.5°C 45.0°F7.2°C 51% 7.8 mph SE12.6 kmh SE 7.8 mph12.6 kmh 30.49 in1032.5 mb 0.00 in0.0 mm 0.00 in0.0 mm 0.00 in0.0 mm
12:39 PM 63.5°F17.5°C 45.0°F7.2°C 51% 7.8 mph S12.6 kmh S 7.8 mph12.6 kmh 30.49 in1032.5 mb 0.00 in0.0 mm 0.00 in0.0 mm 0.00 in0.0 mm
12:40 PM 63.7°F17.6°C 45.7°F7.6°C 52% 4.2 mph ESE6.8 kmh ESE 7.8 mph12.6 kmh 30.49 in1032.5 mb 0.00 in0.0 mm 0.00 in0.0 mm 0.00 in0.0 mm
12:41 PM 63.9°F17.7°C 45.9°F7.7°C 52% 4.7 mph SE7.6 kmh SE 7.8 mph12.6 kmh 30.48 in1032.2 mb 0.00 in0.0 mm 0.00 in0.0 mm 0.00 in0.0 mm
12:42 PM 64.0°F17.8°C 45.5°F7.5°C 51% 4.7 mph S7.6 kmh S 7.8 mph12.6 kmh 30.48 in1032.2 mb 0.00 in0.0 mm 0.00 in0.0 mm 0.00 in0.0 mm
12:43 PM 63.7°F17.6°C 45.2°F7.3°C 51% 7.8 mph SSE12.6 kmh SSE 7.8 mph12.6 kmh 30.48 in1032.2 mb 0.00 in0.0 mm 0.00 in0.0 mm 0.00 in0.0 mm
12:44 PM 63.3°F17.4°C 45.4°F7.4°C 52% 4.7 mph SSE7.6 kmh SSE 7.8 mph12.6 kmh 30.48 in1032.2 mb 0.00 in0.0 mm 0.00 in0.0 mm 0.00 in0.0 mm
12:45 PM 63.3°F17.4°C 45.4°F7.4°C 52% 10.9 mph WSW17.5 kmh WSW 10.9 mph17.5 kmh 30.48 in1032.2 mb 0.00 in0.0 mm 0.00 in0.0 mm 0.00 in0.0 mm
12:46 PM 63.5°F17.5°C 45.6°F7.6°C 52% 3.2 mph SSE5.1 kmh SSE 10.9 mph17.5 kmh 30.48 in1032.2 mb 0.00 in0.0 mm 0.00 in0.0 mm 0.00 in0.0 mm
12:47 PM 63.9°F17.7°C 45.9°F7.7°C 52% 3.7 mph W6.0 kmh W 10.9 mph17.5 kmh 30.48 in1032.2 mb 0.00 in0.0 mm 0.00 in0.0 mm 0.00 in0.0 mm
12:48 PM 64.0°F17.8°C 46.0°F7.8°C 52% 3.2 mph ESE5.1 kmh ESE 10.9 mph17.5 kmh 30.48 in1032.2 mb 0.00 in0.0 mm 0.00 in0.0 mm 0.00 in0.0 mm
12:49 PM 64.4°F18.0°C 45.9°F7.7°C 51% 5.3 mph SE8.5 kmh SE 10.9 mph17.5 kmh 30.48 in1032.2 mb 0.00 in0.0 mm 0.00 in0.0 mm 0.00 in0.0 mm
12:50 PM 64.4°F18.0°C 45.9°F7.7°C 51% 10.9 mph SE17.5 kmh SE 10.9 mph17.5 kmh 30.48 in1032.2 mb 0.00 in0.0 mm 0.00 in0.0 mm 0.00 in0.0 mm
12:51 PM 64.4°F18.0°C 45.9°F7.7°C 51% 3.2 mph W5.1 kmh W 10.9 mph17.5 kmh 30.48 in1032.2 mb 0.00 in0.0 mm 0.00 in0.0 mm 0.00 in0.0 mm
12:52 PM 64.2°F17.9°C 45.7°F7.6°C 51% 4.7 mph SW7.6 kmh SW 10.9 mph17.5 kmh 30.48 in1032.2 mb 0.00 in0.0 mm 0.00 in0.0 mm 0.00 in0.0 mm
12:53 PM 64.2°F17.9°C 45.7°F7.6°C 51% 11.9 mph NW19.2 kmh NW 11.9 mph19.2 kmh 30.47 in1031.8 mb 0.00 in0.0 mm 0.00 in0.0 mm 0.00 in0.0 mm
12:54 PM 64.2°F17.9°C 45.2°F7.3°C 50% 4.7 mph ESE7.6 kmh ESE 11.9 mph19.2 kmh 30.47 in1031.8 mb 0.00 in0.0 mm 0.00 in0.0 mm 0.00 in0.0 mm
12:55 PM 64.4°F18.0°C 45.4°F7.4°C 50% 2.7 mph ESE4.3 kmh ESE 11.9 mph19.2 kmh 30.47 in1031.8 mb 0.00 in0.0 mm 0.00 in0.0 mm 0.00 in0.0 mm
12:56 PM 64.6°F18.1°C 45.5°F7.5°C 50% 4.2 mph W6.8 kmh W 11.9 mph19.2 kmh 30.47 in1031.8 mb 0.00 in0.0 mm 0.00 in0.0 mm 0.00 in0.0 mm
12:57 PM 64.4°F18.0°C 45.4°F7.4°C 50% 2.2 mph NNE3.5 kmh NNE 11.9 mph19.2 kmh 30.47 in1031.8 mb 0.00 in0.0 mm 0.00 in0.0 mm 0.00 in0.0 mm
12:58 PM 64.4°F18.0°C 45.4°F7.4°C 50% 4.7 mph WSW7.6 kmh WSW 11.9 mph19.2 kmh 30.47 in1031.8 mb 0.00 in0.0 mm 0.00 in0.0 mm 0.00 in0.0 mm
12:59 PM 64.4°F18.0°C 45.9°F7.7°C 51% 3.2 mph SSE5.1 kmh SSE 11.9 mph19.2 kmh 30.47 in1031.8 mb 0.00 in0.0 mm 0.00 in0.0 mm 0.00 in0.0 mm
01:00 PM 64.4°F18.0°C 45.9°F7.7°C 51% 3.2 mph N5.1 kmh N 11.9 mph19.2 kmh 30.47 in1031.8 mb 0.00 in0.0 mm 0.00 in0.0 mm 0.00 in0.0 mm
01:01 PM 64.8°F18.2°C 45.7°F7.6°C 50% 6.3 mph W10.1 kmh W 11.9 mph19.2 kmh 30.47 in1031.8 mb 0.00 in0.0 mm 0.00 in0.0 mm 0.00 in0.0 mm
01:02 PM 64.4°F18.0°C 45.4°F7.4°C 50% 5.3 mph WNW8.5 kmh WNW 11.9 mph19.2 kmh 30.47 in1031.8 mb 0.00 in0.0 mm 0.00 in0.0 mm 0.00 in0.0 mm
01:03 PM 64.4°F18.0°C 45.4°F7.4°C 50% 4.7 mph NNW7.6 kmh NNW 6.3 mph10.1 kmh 30.47 in1031.8 mb 0.00 in0.0 mm 0.00 in0.0 mm 0.00 in0.0 mm
01:04 PM 64.8°F18.2°C 45.7°F7.6°C 50% 4.2 mph SSE6.8 kmh SSE 6.3 mph10.1 kmh 30.47 in1031.8 mb 0.00 in0.0 mm 0.00 in0.0 mm 0.00 in0.0 mm
01:05 PM 64.8°F18.2°C 45.7°F7.6°C 50% 14.5 mph W23.3 kmh W 14.5 mph23.3 kmh 30.46 in1031.5 mb 0.00 in0.0 mm 0.00 in0.0 mm 0.00 in0.0 mm
01:06 PM 64.6°F18.1°C 45.5°F7.5°C 50% 5.3 mph SE8.5 kmh SE 14.5 mph23.3 kmh 30.46 in1031.5 mb 0.00 in0.0 mm 0.00 in0.0 mm 0.00 in0.0 mm
01:07 PM 64.4°F18.0°C 45.4°F7.4°C 50% 4.2 mph S6.8 kmh S 14.5 mph23.3 kmh 30.46 in1031.5 mb 0.00 in0.0 mm 0.00 in0.0 mm 0.00 in0.0 mm
01:08 PM 64.9°F18.3°C 45.3°F7.4°C 49% 5.3 mph SSW8.5 kmh SSW 14.5 mph23.3 kmh 30.46 in1031.5 mb 0.00 in0.0 mm 0.00 in0.0 mm 0.00 in0.0 mm
01:09 PM 64.9°F18.3°C 45.3°F7.4°C 49% 6.8 mph W10.9 kmh W 14.5 mph23.3 kmh 30.46 in1031.5 mb 0.00 in0.0 mm 0.00 in0.0 mm 0.00 in0.0 mm
01:10 PM 64.8°F18.2°C 45.7°F7.6°C 50% 3.2 mph S5.1 kmh S 14.5 mph23.3 kmh 30.46 in1031.5 mb 0.00 in0.0 mm 0.00 in0.0 mm 0.00 in0.0 mm
01:11 PM 64.9°F18.3°C 45.8°F7.7°C 50% 4.7 mph SSE7.6 kmh SSE 14.5 mph23.3 kmh 30.46 in1031.5 mb 0.00 in0.0 mm 0.00 in0.0 mm 0.00 in0.0 mm
01:12 PM 65.1°F18.4°C 45.5°F7.5°C 49% 7.3 mph W11.7 kmh W 14.5 mph23.3 kmh 30.46 in1031.5 mb 0.00 in0.0 mm 0.00 in0.0 mm 0.00 in0.0 mm
01:13 PM 64.9°F18.3°C 45.3°F7.4°C 49% 4.7 mph SE7.6 kmh SE 14.5 mph23.3 kmh 30.46 in1031.5 mb 0.00 in0.0 mm 0.00 in0.0 mm 0.00 in0.0 mm
01:14 PM 64.9°F18.3°C 45.3°F7.4°C 49% 3.2 mph S5.1 kmh S 14.5 mph23.3 kmh 30.46 in1031.5 mb 0.00 in0.0 mm 0.00 in0.0 mm 0.00 in0.0 mm
01:15 PM 65.3°F18.5°C 45.6°F7.6°C 49% 3.2 mph E5.1 kmh E 14.5 mph23.3 kmh 30.46 in1031.5 mb 0.00 in0.0 mm 0.00 in0.0 mm 0.00 in0.0 mm
01:16 PM 65.3°F18.5°C 45.6°F7.6°C 49% 4.2 mph SSW6.8 kmh SSW 7.3 mph11.7 kmh 30.45 in1031.2 mb 0.00 in0.0 mm 0.00 in0.0 mm 0.00 in0.0 mm
01:17 PM 65.3°F18.5°C 45.6°F7.6°C 49% 4.7 mph S7.6 kmh S 7.3 mph11.7 kmh 30.45 in1031.2 mb 0.00 in0.0 mm 0.00 in0.0 mm 0.00 in0.0 mm
01:18 PM 65.1°F18.4°C 45.5°F7.5°C 49% 6.3 mph W10.1 kmh W 7.3 mph11.7 kmh 30.45 in1031.2 mb 0.00 in0.0 mm 0.00 in0.0 mm 0.00 in0.0 mm
01:19 PM 65.3°F18.5°C 45.6°F7.6°C 49% 2.7 mph NNE4.3 kmh NNE 7.3 mph11.7 kmh 30.45 in1031.2 mb 0.00 in0.0 mm 0.00 in0.0 mm 0.00 in0.0 mm
01:20 PM 65.3°F18.5°C 45.6°F7.6°C 49% 4.7 mph SSE7.6 kmh SSE 7.3 mph11.7 kmh 30.45 in1031.2 mb 0.00 in0.0 mm 0.00 in0.0 mm 0.00 in0.0 mm
01:21 PM 65.1°F18.4°C 45.5°F7.5°C 49% 4.2 mph N6.8 kmh N 7.3 mph11.7 kmh 30.45 in1031.2 mb 0.00 in0.0 mm 0.00 in0.0 mm 0.00 in0.0 mm
01:22 PM 64.9°F18.3°C 45.3°F7.4°C 49% 3.7 mph SSE6.0 kmh SSE 7.3 mph11.7 kmh 30.45 in1031.2 mb 0.00 in0.0 mm 0.00 in0.0 mm 0.00 in0.0 mm
01:23 PM 64.9°F18.3°C 45.3°F7.4°C 49% 8.9 mph S14.3 kmh S 8.9 mph14.3 kmh 30.45 in1031.2 mb 0.00 in0.0 mm 0.00 in0.0 mm 0.00 in0.0 mm
01:24 PM 64.6°F18.1°C 45.0°F7.2°C 49% 4.7 mph S7.6 kmh S 8.9 mph14.3 kmh 30.45 in1031.2 mb 0.00 in0.0 mm 0.00 in0.0 mm 0.00 in0.0 mm
01:25 PM 64.6°F18.1°C 45.0°F7.2°C 49% 6.3 mph S10.1 kmh S 8.9 mph14.3 kmh 30.45 in1031.2 mb 0.00 in0.0 mm 0.00 in0.0 mm 0.00 in0.0 mm
01:26 PM 64.8°F18.2°C 45.2°F7.3°C 49% 4.2 mph W6.8 kmh W 8.9 mph14.3 kmh 30.45 in1031.2 mb 0.00 in0.0 mm 0.00 in0.0 mm 0.00 in0.0 mm
01:27 PM 65.1°F18.4°C 45.5°F7.5°C 49% 4.2 mph SSW6.8 kmh SSW 8.9 mph14.3 kmh 30.45 in1031.2 mb 0.00 in0.0 mm 0.00 in0.0 mm 0.00 in0.0 mm
01:28 PM 65.1°F18.4°C 45.5°F7.5°C 49% 2.7 mph S4.3 kmh S 8.9 mph14.3 kmh 30.45 in1031.2 mb 0.00 in0.0 mm 0.00 in0.0 mm 0.00 in0.0 mm
01:29 PM 65.8°F18.8°C 45.6°F7.6°C 48% 3.2 mph SSE5.1 kmh SSE 8.9 mph14.3 kmh 30.45 in1031.2 mb 0.00 in0.0 mm 0.00 in0.0 mm 0.00 in0.0 mm
01:30 PM 66.0°F18.9°C 45.7°F7.6°C 48% 3.7 mph ESE6.0 kmh ESE 8.9 mph14.3 kmh 30.45 in1031.2 mb 0.00 in0.0 mm 0.00 in0.0 mm 0.00 in0.0 mm
01:31 PM 66.0°F18.9°C 45.7°F7.6°C 48% 3.7 mph WNW6.0 kmh WNW 8.9 mph14.3 kmh 30.45 in1031.2 mb 0.00 in0.0 mm 0.00 in0.0 mm 0.00 in0.0 mm
01:32 PM 65.7°F18.7°C 45.5°F7.5°C 48% 10.9 mph W17.5 kmh W 10.9 mph17.5 kmh 30.45 in1031.2 mb 0.00 in0.0 mm 0.00 in0.0 mm 0.00 in0.0 mm
01:33 PM 65.5°F18.6°C 45.8°F7.7°C 49% 6.8 mph W10.9 kmh W 10.9 mph17.5 kmh 30.45 in1031.2 mb 0.00 in0.0 mm 0.00 in0.0 mm 0.00 in0.0 mm
01:34 PM 65.7°F18.7°C 46.0°F7.8°C 49% 7.3 mph WNW11.7 kmh WNW 10.9 mph17.5 kmh 30.45 in1031.2 mb 0.00 in0.0 mm 0.00 in0.0 mm 0.00 in0.0 mm
01:35 PM 65.5°F18.6°C 45.8°F7.7°C 49% 8.3 mph N13.4 kmh N 10.9 mph17.5 kmh 30.45 in1031.2 mb 0.00 in0.0 mm 0.00 in0.0 mm 0.00 in0.0 mm
01:36 PM 65.7°F18.7°C 45.5°F7.5°C 48% 5.8 mph S9.3 kmh S 10.9 mph17.5 kmh 30.45 in1031.2 mb 0.00 in0.0 mm 0.00 in0.0 mm 0.00 in0.0 mm
01:37 PM 65.8°F18.8°C 45.6°F7.6°C 48% 6.3 mph WSW10.1 kmh WSW 10.9 mph17.5 kmh 30.45 in1031.2 mb 0.00 in0.0 mm 0.00 in0.0 mm 0.00 in0.0 mm
01:38 PM 65.7°F18.7°C 45.5°F7.5°C 48% 3.2 mph N5.1 kmh N 10.9 mph17.5 kmh 30.45 in1031.2 mb 0.00 in0.0 mm 0.00 in0.0 mm 0.00 in0.0 mm
01:39 PM 65.8°F18.8°C 45.6°F7.6°C 48% 2.7 mph W4.3 kmh W 11.4 mph18.3 kmh 30.45 in1031.2 mb 0.00 in0.0 mm 0.00 in0.0 mm 0.00 in0.0 mm
01:40 PM 66.0°F18.9°C 46.3°F7.9°C 49% 3.7 mph SSW6.0 kmh SSW 11.4 mph18.3 kmh 30.44 in1030.8 mb 0.00 in0.0 mm 0.00 in0.0 mm 0.00 in0.0 mm
01:41 PM 66.2°F19.0°C 45.9°F7.7°C 48% 9.9 mph SW15.9 kmh SW 11.4 mph18.3 kmh 30.44 in1030.8 mb 0.00 in0.0 mm 0.00 in0.0 mm 0.00 in0.0 mm
01:42 PM 66.0°F18.9°C 45.7°F7.6°C 48% 5.3 mph SW8.5 kmh SW 11.4 mph18.3 kmh 30.44 in1030.8 mb 0.00 in0.0 mm 0.00 in0.0 mm 0.00 in0.0 mm
01:43 PM 66.0°F18.9°C 45.7°F7.6°C 48% 4.2 mph WNW6.8 kmh WNW 11.4 mph18.3 kmh 30.44 in1030.8 mb 0.00 in0.0 mm 0.00 in0.0 mm 0.00 in0.0 mm
01:44 PM 66.0°F18.9°C 45.2°F7.3°C 47% 3.7 mph S6.0 kmh S 11.4 mph18.3 kmh 30.44 in1030.8 mb 0.00 in0.0 mm 0.00 in0.0 mm 0.00 in0.0 mm
01:45 PM 66.2°F19.0°C 45.4°F7.4°C 47% 4.7 mph ESE7.6 kmh ESE 11.4 mph18.3 kmh 30.44 in1030.8 mb 0.00 in0.0 mm 0.00 in0.0 mm 0.00 in0.0 mm
01:46 PM 66.2°F19.0°C 45.4°F7.4°C 47% 3.7 mph W6.0 kmh W 11.4 mph18.3 kmh 30.44 in1030.8 mb 0.00 in0.0 mm 0.00 in0.0 mm 0.00 in0.0 mm
01:47 PM 66.4°F19.1°C 46.1°F7.8°C 48% 2.7 mph SSE4.3 kmh SSE 11.4 mph18.3 kmh 30.44 in1030.8 mb 0.00 in0.0 mm 0.00 in0.0 mm 0.00 in0.0 mm
01:48 PM 66.7°F19.3°C 46.4°F8.0°C 48% 4.2 mph W6.8 kmh W 11.4 mph18.3 kmh 30.44 in1030.8 mb 0.00 in0.0 mm 0.00 in0.0 mm 0.00 in0.0 mm
01:49 PM 66.4°F19.1°C 46.1°F7.8°C 48% 6.3 mph WNW10.1 kmh WNW 9.9 mph15.9 kmh 30.44 in1030.8 mb 0.00 in0.0 mm 0.00 in0.0 mm 0.00 in0.0 mm
01:50 PM 65.8°F18.8°C 45.6°F7.6°C 48% 4.2 mph ESE6.8 kmh ESE 9.9 mph15.9 kmh 30.44 in1030.8 mb 0.00 in0.0 mm 0.00 in0.0 mm 0.00 in0.0 mm
01:51 PM 66.0°F18.9°C 45.2°F7.3°C 47% 3.7 mph S6.0 kmh S 9.9 mph15.9 kmh 30.44 in1030.8 mb 0.00 in0.0 mm 0.00 in0.0 mm 0.00 in0.0 mm
01:52 PM 66.4°F19.1°C 45.6°F7.6°C 47% 3.7 mph S6.0 kmh S 8.9 mph14.3 kmh 30.44 in1030.8 mb 0.00 in0.0 mm 0.00 in0.0 mm 0.00 in0.0 mm
01:53 PM 66.6°F19.2°C 45.2°F7.3°C 46% 6.3 mph E10.1 kmh E 8.9 mph14.3 kmh 30.43 in1030.5 mb 0.00 in0.0 mm 0.00 in0.0 mm 0.00 in0.0 mm
01:54 PM 66.6°F19.2°C 45.2°F7.3°C 46% 7.3 mph ESE11.7 kmh ESE 8.9 mph14.3 kmh 30.43 in1030.5 mb 0.00 in0.0 mm 0.00 in0.0 mm 0.00 in0.0 mm
01:55 PM 66.4°F19.1°C 45.0°F7.2°C 46% 6.3 mph SE10.1 kmh SE 8.9 mph14.3 kmh 30.43 in1030.5 mb 0.00 in0.0 mm 0.00 in0.0 mm 0.00 in0.0 mm
01:56 PM 66.4°F19.1°C 45.0°F7.2°C 46% 2.2 mph E3.5 kmh E 8.9 mph14.3 kmh 30.43 in1030.5 mb 0.00 in0.0 mm 0.00 in0.0 mm 0.00 in0.0 mm
01:57 PM 66.7°F19.3°C 45.3°F7.4°C 46% 5.8 mph WSW9.3 kmh WSW 8.9 mph14.3 kmh 30.43 in1030.5 mb 0.00 in0.0 mm 0.00 in0.0 mm 0.00 in0.0 mm
01:58 PM 66.9°F19.4°C 44.9°F7.2°C 45% 6.3 mph SE10.1 kmh SE 8.9 mph14.3 kmh 30.43 in1030.5 mb 0.00 in0.0 mm 0.00 in0.0 mm 0.00 in0.0 mm
01:59 PM 66.9°F19.4°C 45.4°F7.4°C 46% 6.3 mph NNE10.1 kmh NNE 7.8 mph12.6 kmh 30.43 in1030.5 mb 0.00 in0.0 mm 0.00 in0.0 mm 0.00 in0.0 mm
02:00 PM 66.9°F19.4°C 45.4°F7.4°C 46% 5.3 mph SW8.5 kmh SW 7.8 mph12.6 kmh 30.43 in1030.5 mb 0.00 in0.0 mm 0.00 in0.0 mm 0.00 in0.0 mm
02:01 PM 66.9°F19.4°C 45.4°F7.4°C 46% 11.4 mph S18.3 kmh S 11.4 mph18.3 kmh 30.43 in1030.5 mb 0.00 in0.0 mm 0.00 in0.0 mm 0.00 in0.0 mm
02:02 PM 66.6°F19.2°C 45.2°F7.3°C 46% 7.8 mph W12.6 kmh W 11.4 mph18.3 kmh 30.43 in1030.5 mb 0.00 in0.0 mm 0.00 in0.0 mm 0.00 in0.0 mm
02:03 PM 66.7°F19.3°C 45.3°F7.4°C 46% 7.3 mph SW11.7 kmh SW 11.4 mph18.3 kmh 30.43 in1030.5 mb 0.00 in0.0 mm 0.00 in0.0 mm 0.00 in0.0 mm
02:04 PM 66.6°F19.2°C 45.2°F7.3°C 46% 4.2 mph SSE6.8 kmh SSE 11.4 mph18.3 kmh 30.43 in1030.5 mb 0.00 in0.0 mm 0.00 in0.0 mm 0.00 in0.0 mm
02:05 PM 66.7°F19.3°C 45.3°F7.4°C 46% 4.7 mph S7.6 kmh S 11.4 mph18.3 kmh 30.42 in1030.1 mb 0.00 in0.0 mm 0.00 in0.0 mm 0.00 in0.0 mm
02:06 PM 66.9°F19.4°C 45.4°F7.4°C 46% 8.3 mph NNW13.4 kmh NNW 11.4 mph18.3 kmh 30.42 in1030.1 mb 0.00 in0.0 mm 0.00 in0.0 mm 0.00 in0.0 mm
02:07 PM 66.9°F19.4°C 45.4°F7.4°C 46% 3.7 mph N6.0 kmh N 11.4 mph18.3 kmh 30.42 in1030.1 mb 0.00 in0.0 mm 0.00 in0.0 mm 0.00 in0.0 mm
02:08 PM 66.9°F19.4°C 45.4°F7.4°C 46% 4.7 mph SSE7.6 kmh SSE 11.4 mph18.3 kmh 30.42 in1030.1 mb 0.00 in0.0 mm 0.00 in0.0 mm 0.00 in0.0 mm
02:09 PM 66.7°F19.3°C 45.3°F7.4°C 46% 4.2 mph E6.8 kmh E 11.4 mph18.3 kmh 30.42 in1030.1 mb 0.00 in0.0 mm 0.00 in0.0 mm 0.00 in0.0 mm
02:10 PM 66.7°F19.3°C 45.3°F7.4°C 46% 12.5 mph W20.1 kmh W 12.5 mph20.1 kmh 30.42 in1030.1 mb 0.00 in0.0 mm 0.00 in0.0 mm 0.00 in0.0 mm
02:11 PM 66.4°F19.1°C 45.6°F7.6°C 47% 7.8 mph WNW12.6 kmh WNW 12.5 mph20.1 kmh 30.42 in1030.1 mb 0.00 in0.0 mm 0.00 in0.0 mm 0.00 in0.0 mm
02:12 PM 66.7°F19.3°C 45.3°F7.4°C 46% 10.9 mph W17.5 kmh W 12.5 mph20.1 kmh 30.42 in1030.1 mb 0.00 in0.0 mm 0.00 in0.0 mm 0.00 in0.0 mm
02:13 PM 66.6°F19.2°C 45.2°F7.3°C 46% 4.7 mph W7.6 kmh W 12.5 mph20.1 kmh 30.42 in1030.1 mb 0.00 in0.0 mm 0.00 in0.0 mm 0.00 in0.0 mm
02:14 PM 66.4°F19.1°C 45.0°F7.2°C 46% 5.3 mph ENE8.5 kmh ENE 12.5 mph20.1 kmh 30.42 in1030.1 mb 0.00 in0.0 mm 0.00 in0.0 mm 0.00 in0.0 mm
02:15 PM 66.4°F19.1°C 45.0°F7.2°C 46% 8.3 mph SSE13.4 kmh SSE 12.5 mph20.1 kmh 30.42 in1030.1 mb 0.00 in0.0 mm 0.00 in0.0 mm 0.00 in0.0 mm
02:16 PM 66.6°F19.2°C 45.2°F7.3°C 46% 5.3 mph SSW8.5 kmh SSW 12.5 mph20.1 kmh 30.42 in1030.1 mb 0.00 in0.0 mm 0.00 in0.0 mm 0.00 in0.0 mm
02:17 PM 66.6°F19.2°C 45.2°F7.3°C 46% 1.7 mph ESE2.7 kmh ESE 12.5 mph20.1 kmh 30.42 in1030.1 mb 0.00 in0.0 mm 0.00 in0.0 mm 0.00 in0.0 mm
02:18 PM 66.6°F19.2°C 45.2°F7.3°C 46% 4.7 mph W7.6 kmh W 12.5 mph20.1 kmh 30.42 in1030.1 mb 0.00 in0.0 mm 0.00 in0.0 mm 0.00 in0.0 mm
02:19 PM 66.7°F19.3°C 45.3°F7.4°C 46% 4.2 mph S6.8 kmh S 12.5 mph20.1 kmh 30.42 in1030.1 mb 0.00 in0.0 mm 0.00 in0.0 mm 0.00 in0.0 mm
02:20 PM 66.9°F19.4°C 45.4°F7.4°C 46% 2.7 mph SE4.3 kmh SE 10.9 mph17.5 kmh 30.42 in1030.1 mb 0.00 in0.0 mm 0.00 in0.0 mm 0.00 in0.0 mm
02:21 PM 66.9°F19.4°C 45.4°F7.4°C 46% 4.7 mph S7.6 kmh S 10.9 mph17.5 kmh 30.42 in1030.1 mb 0.00 in0.0 mm 0.00 in0.0 mm 0.00 in0.0 mm
02:22 PM 66.9°F19.4°C 45.4°F7.4°C 46% 8.3 mph W13.4 kmh W 10.9 mph17.5 kmh 30.42 in1030.1 mb 0.00 in0.0 mm 0.00 in0.0 mm 0.00 in0.0 mm
02:23 PM 66.6°F19.2°C 45.2°F7.3°C 46% 3.2 mph W5.1 kmh W 8.3 mph13.4 kmh 30.42 in1030.1 mb 0.00 in0.0 mm 0.00 in0.0 mm 0.00 in0.0 mm
02:24 PM 66.4°F19.1°C 45.0°F7.2°C 46% 3.7 mph N6.0 kmh N 9.9 mph15.9 kmh 30.42 in1030.1 mb 0.00 in0.0 mm 0.00 in0.0 mm 0.00 in0.0 mm
02:25 PM 66.2°F19.0°C 44.8°F7.1°C 46% 4.2 mph SE6.8 kmh SE 9.9 mph15.9 kmh 30.42 in1030.1 mb 0.00 in0.0 mm 0.00 in0.0 mm 0.00 in0.0 mm
02:26 PM 66.4°F19.1°C 45.6°F7.6°C 47% 3.7 mph W6.0 kmh W 9.9 mph15.9 kmh 30.42 in1030.1 mb 0.00 in0.0 mm 0.00 in0.0 mm 0.00 in0.0 mm
02:27 PM 66.4°F19.1°C 45.6°F7.6°C 47% 3.7 mph W6.0 kmh W 9.9 mph15.9 kmh 30.42 in1030.1 mb 0.00 in0.0 mm 0.00 in0.0 mm 0.00 in0.0 mm
02:28 PM 66.6°F19.2°C 45.7°F7.6°C 47% 3.2 mph NW5.1 kmh NW 9.9 mph15.9 kmh 30.42 in1030.1 mb 0.00 in0.0 mm 0.00 in0.0 mm 0.00 in0.0 mm
02:29 PM 67.1°F19.5°C 46.2°F7.9°C 47% 7.3 mph NNW11.7 kmh NNW 9.9 mph15.9 kmh 30.41 in1029.8 mb 0.00 in0.0 mm 0.00 in0.0 mm 0.00 in0.0 mm
02:30 PM 67.1°F19.5°C 46.2°F7.9°C 47% 4.2 mph ENE6.8 kmh ENE 9.9 mph15.9 kmh 30.41 in1029.8 mb 0.00 in0.0 mm 0.00 in0.0 mm 0.00 in0.0 mm
02:31 PM 67.1°F19.5°C 46.2°F7.9°C 47% 5.3 mph ENE8.5 kmh ENE 9.9 mph15.9 kmh 30.41 in1029.8 mb 0.00 in0.0 mm 0.00 in0.0 mm 0.00 in0.0 mm
02:32 PM 66.9°F19.4°C 46.0°F7.8°C 47% 6.3 mph ENE10.1 kmh ENE 9.9 mph15.9 kmh 30.41 in1029.8 mb 0.00 in0.0 mm 0.00 in0.0 mm 0.00 in0.0 mm
02:33 PM 66.6°F19.2°C 45.2°F7.3°C 46% 3.7 mph SSE6.0 kmh SSE 9.9 mph15.9 kmh 30.41 in1029.8 mb 0.00 in0.0 mm 0.00 in0.0 mm 0.00 in0.0 mm
02:34 PM 66.6°F19.2°C 45.2°F7.3°C 46% 6.3 mph S10.1 kmh S 7.3 mph11.7 kmh 30.41 in1029.8 mb 0.00 in0.0 mm 0.00 in0.0 mm 0.00 in0.0 mm
02:35 PM 66.6°F19.2°C 45.2°F7.3°C 46% 4.2 mph E6.8 kmh E 7.3 mph11.7 kmh 30.41 in1029.8 mb 0.00 in0.0 mm 0.00 in0.0 mm 0.00 in0.0 mm
02:36 PM 66.6°F19.2°C 45.2°F7.3°C 46% 3.7 mph W6.0 kmh W 7.3 mph11.7 kmh 30.41 in1029.8 mb 0.00 in0.0 mm 0.00 in0.0 mm 0.00 in0.0 mm
02:37 PM 66.6°F19.2°C 45.2°F7.3°C 46% 3.2 mph NNW5.1 kmh NNW 7.3 mph11.7 kmh 30.41 in1029.8 mb 0.00 in0.0 mm 0.00 in0.0 mm 0.00 in0.0 mm
02:38 PM 66.7°F19.3°C 45.3°F7.4°C 46% 4.7 mph ESE7.6 kmh ESE 7.3 mph11.7 kmh 30.41 in1029.8 mb 0.00 in0.0 mm 0.00 in0.0 mm 0.00 in0.0 mm
02:39 PM 66.9°F19.4°C 45.4°F7.4°C 46% 4.2 mph WNW6.8 kmh WNW 7.3 mph11.7 kmh 30.41 in1029.8 mb 0.00 in0.0 mm 0.00 in0.0 mm 0.00 in0.0 mm
02:40 PM 66.9°F19.4°C 45.4°F7.4°C 46% 5.8 mph NNE9.3 kmh NNE 7.8 mph12.6 kmh 30.41 in1029.8 mb 0.00 in0.0 mm 0.00 in0.0 mm 0.00 in0.0 mm
02:41 PM 66.7°F19.3°C 45.3°F7.4°C 46% 9.4 mph ESE15.1 kmh ESE 9.4 mph15.1 kmh 30.41 in1029.8 mb 0.00 in0.0 mm 0.00 in0.0 mm 0.00 in0.0 mm
02:42 PM 66.7°F19.3°C 45.3°F7.4°C 46% 4.7 mph S7.6 kmh S 9.4 mph15.1 kmh 30.41 in1029.8 mb 0.00 in0.0 mm 0.00 in0.0 mm 0.00 in0.0 mm
02:43 PM 66.7°F19.3°C 45.3°F7.4°C 46% 5.8 mph SE9.3 kmh SE 9.4 mph15.1 kmh 30.41 in1029.8 mb 0.00 in0.0 mm 0.00 in0.0 mm 0.00 in0.0 mm
02:44 PM 66.9°F19.4°C 45.4°F7.4°C 46% 3.7 mph NNW6.0 kmh NNW 9.4 mph15.1 kmh 30.41 in1029.8 mb 0.00 in0.0 mm 0.00 in0.0 mm 0.00 in0.0 mm
02:45 PM 66.9°F19.4°C 45.4°F7.4°C 46% 10.4 mph ESE16.7 kmh ESE 10.4 mph16.7 kmh 30.41 in1029.8 mb 0.00 in0.0 mm 0.00 in0.0 mm 0.00 in0.0 mm
02:46 PM 66.6°F19.2°C 45.7°F7.6°C 47% 2.7 mph E4.3 kmh E 10.4 mph16.7 kmh 30.41 in1029.8 mb 0.00 in0.0 mm 0.00 in0.0 mm 0.00 in0.0 mm
02:47 PM 66.6°F19.2°C 45.7°F7.6°C 47% 4.2 mph W6.8 kmh W 10.4 mph16.7 kmh 30.41 in1029.8 mb 0.00 in0.0 mm 0.00 in0.0 mm 0.00 in0.0 mm
02:48 PM 66.9°F19.4°C 45.4°F7.4°C 46% 8.3 mph W13.4 kmh W 10.9 mph17.5 kmh 30.41 in1029.8 mb 0.00 in0.0 mm 0.00 in0.0 mm 0.00 in0.0 mm
02:49 PM 66.9°F19.4°C 45.4°F7.4°C 46% 2.7 mph N4.3 kmh N 10.9 mph17.5 kmh 30.41 in1029.8 mb 0.00 in0.0 mm 0.00 in0.0 mm 0.00 in0.0 mm
02:50 PM 66.7°F19.3°C 45.8°F7.7°C 47% 4.7 mph W7.6 kmh W 10.9 mph17.5 kmh 30.41 in1029.8 mb 0.00 in0.0 mm 0.00 in0.0 mm 0.00 in0.0 mm
02:51 PM 66.9°F19.4°C 45.4°F7.4°C 46% 6.8 mph W10.9 kmh W 10.9 mph17.5 kmh 30.41 in1029.8 mb 0.00 in0.0 mm 0.00 in0.0 mm 0.00 in0.0 mm
02:52 PM 66.9°F19.4°C 46.0°F7.8°C 47% 7.3 mph N11.7 kmh N 10.9 mph17.5 kmh 30.41 in1029.8 mb 0.00 in0.0 mm 0.00 in0.0 mm 0.00 in0.0 mm
02:53 PM 66.9°F19.4°C 46.0°F7.8°C 47% 3.7 mph SSE6.0 kmh SSE 10.9 mph17.5 kmh 30.40 in1029.5 mb 0.00 in0.0 mm 0.00 in0.0 mm 0.00 in0.0 mm
02:54 PM 66.7°F19.3°C 45.8°F7.7°C 47% 3.2 mph NNE5.1 kmh NNE 10.9 mph17.5 kmh 30.40 in1029.5 mb 0.00 in0.0 mm 0.00 in0.0 mm 0.00 in0.0 mm
02:55 PM 66.7°F19.3°C 45.8°F7.7°C 47% 2.7 mph W4.3 kmh W 10.9 mph17.5 kmh 30.40 in1029.5 mb 0.00 in0.0 mm 0.00 in0.0 mm 0.00 in0.0 mm
02:56 PM 66.7°F19.3°C 45.8°F7.7°C 47% 2.7 mph WSW4.3 kmh WSW 10.9 mph17.5 kmh 30.40 in1029.5 mb 0.00 in0.0 mm 0.00 in0.0 mm 0.00 in0.0 mm
02:57 PM 66.9°F19.4°C 46.0°F7.8°C 47% 5.3 mph SSE8.5 kmh SSE 10.9 mph17.5 kmh 30.40 in1029.5 mb 0.00 in0.0 mm 0.00 in0.0 mm 0.00 in0.0 mm
02:58 PM 66.9°F19.4°C 46.0°F7.8°C 47% 4.7 mph ESE7.6 kmh ESE 8.3 mph13.4 kmh 30.40 in1029.5 mb 0.00 in0.0 mm 0.00 in0.0 mm 0.00 in0.0 mm
02:59 PM 66.7°F19.3°C 45.8°F7.7°C 47% 4.2 mph NE6.8 kmh NE 7.3 mph11.7 kmh 30.40 in1029.5 mb 0.00 in0.0 mm 0.00 in0.0 mm 0.00 in0.0 mm
03:00 PM 66.7°F19.3°C 45.8°F7.7°C 47% 7.3 mph SSW11.7 kmh SSW 7.3 mph11.7 kmh 30.40 in1029.5 mb 0.00 in0.0 mm 0.00 in0.0 mm 0.00 in0.0 mm
03:01 PM 66.7°F19.3°C 45.8°F7.7°C 47% 7.8 mph WNW12.6 kmh WNW 7.8 mph12.6 kmh 30.40 in1029.5 mb 0.00 in0.0 mm 0.00 in0.0 mm 0.00 in0.0 mm
03:02 PM 66.6°F19.2°C 45.7°F7.6°C 47% 3.7 mph SSE6.0 kmh SSE 7.8 mph12.6 kmh 30.40 in1029.5 mb 0.00 in0.0 mm 0.00 in0.0 mm 0.00 in0.0 mm
03:03 PM 66.4°F19.1°C 45.6°F7.6°C 47% 5.3 mph SSE8.5 kmh SSE 7.8 mph12.6 kmh 30.40 in1029.5 mb 0.00 in0.0 mm 0.00 in0.0 mm 0.00 in0.0 mm
03:04 PM 66.4°F19.1°C 45.6°F7.6°C 47% 4.7 mph E7.6 kmh E 7.8 mph12.6 kmh 30.40 in1029.5 mb 0.00 in0.0 mm 0.00 in0.0 mm 0.00 in0.0 mm
03:05 PM 66.7°F19.3°C 45.8°F7.7°C 47% 5.3 mph S8.5 kmh S 7.8 mph12.6 kmh 30.40 in1029.5 mb 0.00 in0.0 mm 0.00 in0.0 mm 0.00 in0.0 mm
03:06 PM 66.6°F19.2°C 45.7°F7.6°C 47% 9.4 mph W15.1 kmh W 9.9 mph15.9 kmh 30.40 in1029.5 mb 0.00 in0.0 mm 0.00 in0.0 mm 0.00 in0.0 mm
03:07 PM 66.6°F19.2°C 45.7°F7.6°C 47% 5.3 mph WSW8.5 kmh WSW 9.9 mph15.9 kmh 30.40 in1029.5 mb 0.00 in0.0 mm 0.00 in0.0 mm 0.00 in0.0 mm
03:08 PM 66.2°F19.0°C 45.4°F7.4°C 47% 4.2 mph NNE6.8 kmh NNE 9.9 mph15.9 kmh 30.40 in1029.5 mb 0.00 in0.0 mm 0.00 in0.0 mm 0.00 in0.0 mm
03:09 PM 65.8°F18.8°C 45.6°F7.6°C 48% 4.7 mph ESE7.6 kmh ESE 9.9 mph15.9 kmh 30.40 in1029.5 mb 0.00 in0.0 mm 0.00 in0.0 mm 0.00 in0.0 mm
03:10 PM 65.8°F18.8°C 45.6°F7.6°C 48% 7.8 mph NW12.6 kmh NW 9.9 mph15.9 kmh 30.40 in1029.5 mb 0.00 in0.0 mm 0.00 in0.0 mm 0.00 in0.0 mm
03:11 PM 65.8°F18.8°C 45.6°F7.6°C 48% 6.3 mph SSW10.1 kmh SSW 9.9 mph15.9 kmh 30.40 in1029.5 mb 0.00 in0.0 mm 0.00 in0.0 mm 0.00 in0.0 mm
03:12 PM 66.0°F18.9°C 45.7°F7.6°C 48% 3.7 mph SSE6.0 kmh SSE 9.9 mph15.9 kmh 30.40 in1029.5 mb 0.00 in0.0 mm 0.00 in0.0 mm 0.00 in0.0 mm
03:13 PM 65.8°F18.8°C 45.6°F7.6°C 48% 7.3 mph S11.7 kmh S 9.9 mph15.9 kmh 30.40 in1029.5 mb 0.00 in0.0 mm 0.00 in0.0 mm 0.00 in0.0 mm
03:14 PM 66.0°F18.9°C 45.2°F7.3°C 47% 8.9 mph SSW14.3 kmh SSW 9.9 mph15.9 kmh 30.40 in1029.5 mb 0.00 in0.0 mm 0.00 in0.0 mm 0.00 in0.0 mm
03:15 PM 66.2°F19.0°C 45.4°F7.4°C 47% 3.2 mph ESE5.1 kmh ESE 9.9 mph15.9 kmh 30.40 in1029.5 mb 0.00 in0.0 mm 0.00 in0.0 mm 0.00 in0.0 mm
03:16 PM 66.4°F19.1°C 45.6°F7.6°C 47% 4.7 mph ESE7.6 kmh ESE 9.4 mph15.1 kmh 30.40 in1029.5 mb 0.00 in0.0 mm 0.00 in0.0 mm 0.00 in0.0 mm
03:17 PM 66.4°F19.1°C 45.6°F7.6°C 47% 4.2 mph SSE6.8 kmh SSE 8.9 mph14.3 kmh 30.39 in1029.1 mb 0.00 in0.0 mm 0.00 in0.0 mm 0.00 in0.0 mm
03:18 PM 66.4°F19.1°C 45.6°F7.6°C 47% 4.7 mph W7.6 kmh W 8.9 mph14.3 kmh 30.39 in1029.1 mb 0.00 in0.0 mm 0.00 in0.0 mm 0.00 in0.0 mm
03:19 PM 66.6°F19.2°C 45.7°F7.6°C 47% 5.8 mph ENE9.3 kmh ENE 8.9 mph14.3 kmh 30.39 in1029.1 mb 0.00 in0.0 mm 0.00 in0.0 mm 0.00 in0.0 mm
03:20 PM 66.4°F19.1°C 45.6°F7.6°C 47% 9.4 mph S15.1 kmh S 9.4 mph15.1 kmh 30.39 in1029.1 mb 0.00 in0.0 mm 0.00 in0.0 mm 0.00 in0.0 mm
03:21 PM 66.0°F18.9°C 45.7°F7.6°C 48% 2.7 mph SSW4.3 kmh SSW 9.4 mph15.1 kmh 30.39 in1029.1 mb 0.00 in0.0 mm 0.00 in0.0 mm 0.00 in0.0 mm
03:22 PM 66.0°F18.9°C 45.7°F7.6°C 48% 3.2 mph SSE5.1 kmh SSE 9.4 mph15.1 kmh 30.39 in1029.1 mb 0.00 in0.0 mm 0.00 in0.0 mm 0.00 in0.0 mm
03:23 PM 66.0°F18.9°C 45.7°F7.6°C 48% 3.7 mph SE6.0 kmh SE 9.4 mph15.1 kmh 30.39 in1029.1 mb 0.00 in0.0 mm 0.00 in0.0 mm 0.00 in0.0 mm
03:24 PM 66.0°F18.9°C 45.2°F7.3°C 47% 11.4 mph S18.3 kmh S 11.4 mph18.3 kmh 30.39 in1029.1 mb 0.00 in0.0 mm 0.00 in0.0 mm 0.00 in0.0 mm
03:25 PM 66.0°F18.9°C 45.2°F7.3°C 47% 7.8 mph SSW12.6 kmh SSW 11.4 mph18.3 kmh 30.39 in1029.1 mb 0.00 in0.0 mm 0.00 in0.0 mm 0.00 in0.0 mm
03:26 PM 66.0°F18.9°C 45.2°F7.3°C 47% 5.8 mph WNW9.3 kmh WNW 11.4 mph18.3 kmh 30.39 in1029.1 mb 0.00 in0.0 mm 0.00 in0.0 mm 0.00 in0.0 mm
03:27 PM 66.2°F19.0°C 45.4°F7.4°C 47% 5.3 mph SSW8.5 kmh SSW 11.4 mph18.3 kmh 30.39 in1029.1 mb 0.00 in0.0 mm 0.00 in0.0 mm 0.00 in0.0 mm
03:28 PM 66.0°F18.9°C 45.2°F7.3°C 47% 5.3 mph SSW8.5 kmh SSW 11.4 mph18.3 kmh 30.39 in1029.1 mb 0.00 in0.0 mm 0.00 in0.0 mm 0.00 in0.0 mm
03:29 PM 66.0°F18.9°C 45.2°F7.3°C 47% 7.8 mph SSW12.6 kmh SSW 11.4 mph18.3 kmh 30.38 in1028.8 mb 0.00 in0.0 mm 0.00 in0.0 mm 0.00 in0.0 mm
03:30 PM 65.7°F18.7°C 45.5°F7.5°C 48% 2.7 mph WSW4.3 kmh WSW 11.4 mph18.3 kmh 30.38 in1028.8 mb 0.00 in0.0 mm 0.00 in0.0 mm 0.00 in0.0 mm
03:31 PM 65.8°F18.8°C 45.6°F7.6°C 48% 12.5 mph SSE20.1 kmh SSE 12.5 mph20.1 kmh 30.38 in1028.8 mb 0.00 in0.0 mm 0.00 in0.0 mm 0.00 in0.0 mm
03:32 PM 65.8°F18.8°C 45.6°F7.6°C 48% 3.2 mph NE5.1 kmh NE 12.5 mph20.1 kmh 30.38 in1028.8 mb 0.00 in0.0 mm 0.00 in0.0 mm 0.00 in0.0 mm
03:33 PM 65.7°F18.7°C 45.5°F7.5°C 48% 6.8 mph ESE10.9 kmh ESE 12.5 mph20.1 kmh 30.38 in1028.8 mb 0.00 in0.0 mm 0.00 in0.0 mm 0.00 in0.0 mm
03:34 PM 65.5°F18.6°C 45.3°F7.4°C 48% 6.8 mph W10.9 kmh W 12.5 mph20.1 kmh 30.38 in1028.8 mb 0.00 in0.0 mm 0.00 in0.0 mm 0.00 in0.0 mm
03:35 PM 65.3°F18.5°C 45.6°F7.6°C 49% 2.2 mph SE3.5 kmh SE 12.5 mph20.1 kmh 30.38 in1028.8 mb 0.00 in0.0 mm 0.00 in0.0 mm 0.00 in0.0 mm
03:36 PM 65.3°F18.5°C 45.6°F7.6°C 49% 6.8 mph WNW10.9 kmh WNW 12.5 mph20.1 kmh 30.38 in1028.8 mb 0.00 in0.0 mm 0.00 in0.0 mm 0.00 in0.0 mm
03:37 PM 65.3°F18.5°C 45.6°F7.6°C 49% 6.3 mph SSE10.1 kmh SSE 12.5 mph20.1 kmh 30.38 in1028.8 mb 0.00 in0.0 mm 0.00 in0.0 mm 0.00 in0.0 mm
03:38 PM 65.3°F18.5°C 45.6°F7.6°C 49% 4.2 mph WSW6.8 kmh WSW 12.5 mph20.1 kmh 30.38 in1028.8 mb 0.00 in0.0 mm 0.00 in0.0 mm 0.00 in0.0 mm
03:39 PM 65.3°F18.5°C 45.6°F7.6°C 49% 2.7 mph N4.3 kmh N 12.5 mph20.1 kmh 30.38 in1028.8 mb 0.00 in0.0 mm 0.00 in0.0 mm 0.00 in0.0 mm
03:40 PM 65.3°F18.5°C 45.6°F7.6°C 49% 5.3 mph SSW8.5 kmh SSW 12.5 mph20.1 kmh 30.38 in1028.8 mb 0.00 in0.0 mm 0.00 in0.0 mm 0.00 in0.0 mm
03:41 PM 65.3°F18.5°C 45.6°F7.6°C 49% 4.7 mph SSW7.6 kmh SSW 12.5 mph20.1 kmh 30.38 in1028.8 mb 0.00 in0.0 mm 0.00 in0.0 mm 0.00 in0.0 mm
03:42 PM 65.3°F18.5°C 45.6°F7.6°C 49% 3.7 mph S6.0 kmh S 12.5 mph20.1 kmh 30.38 in1028.8 mb 0.00 in0.0 mm 0.00 in0.0 mm 0.00 in0.0 mm
03:43 PM 65.3°F18.5°C 45.6°F7.6°C 49% 6.3 mph W10.1 kmh W 12.5 mph20.1 kmh 30.38 in1028.8 mb 0.00 in0.0 mm 0.00 in0.0 mm 0.00 in0.0 mm
03:44 PM 65.1°F18.4°C 45.5°F7.5°C 49% 6.3 mph W10.1 kmh W 12.5 mph20.1 kmh 30.38 in1028.8 mb 0.00 in0.0 mm 0.00 in0.0 mm 0.00 in0.0 mm
03:45 PM 65.3°F18.5°C 45.6°F7.6°C 49% 3.7 mph NNW6.0 kmh NNW 12.5 mph20.1 kmh 30.38 in1028.8 mb 0.00 in0.0 mm 0.00 in0.0 mm 0.00 in0.0 mm
03:46 PM 65.3°F18.5°C 45.1°F7.3°C 48% 5.3 mph SSW8.5 kmh SSW 12.5 mph20.1 kmh 30.38 in1028.8 mb 0.00 in0.0 mm 0.00 in0.0 mm 0.00 in0.0 mm
03:47 PM 65.3°F18.5°C 45.1°F7.3°C 48% 2.2 mph SSW3.5 kmh SSW 12.5 mph20.1 kmh 30.38 in1028.8 mb 0.00 in0.0 mm 0.00 in0.0 mm 0.00 in0.0 mm
03:48 PM 65.5°F18.6°C 45.3°F7.4°C 48% 4.2 mph NNW6.8 kmh NNW 12.5 mph20.1 kmh 30.38 in1028.8 mb 0.00 in0.0 mm 0.00 in0.0 mm 0.00 in0.0 mm
03:49 PM 65.5°F18.6°C 45.3°F7.4°C 48% 2.7 mph WSW4.3 kmh WSW 12.5 mph20.1 kmh 30.38 in1028.8 mb 0.00 in0.0 mm 0.00 in0.0 mm 0.00 in0.0 mm
03:50 PM 65.5°F18.6°C 45.8°F7.7°C 49% 3.2 mph N5.1 kmh N 12.5 mph20.1 kmh 30.38 in1028.8 mb 0.00 in0.0 mm 0.00 in0.0 mm 0.00 in0.0 mm
03:51 PM 65.5°F18.6°C 45.8°F7.7°C 49% 3.7 mph E6.0 kmh E 12.5 mph20.1 kmh 30.38 in1028.8 mb 0.00 in0.0 mm 0.00 in0.0 mm 0.00 in0.0 mm
03:52 PM 65.5°F18.6°C 45.8°F7.7°C 49% 3.7 mph NNE6.0 kmh NNE 12.5 mph20.1 kmh 30.38 in1028.8 mb 0.00 in0.0 mm 0.00 in0.0 mm 0.00 in0.0 mm
03:53 PM 65.3°F18.5°C 45.6°F7.6°C 49% 3.7 mph W6.0 kmh W 7.8 mph12.6 kmh 30.38 in1028.8 mb 0.00 in0.0 mm 0.00 in0.0 mm 0.00 in0.0 mm
03:54 PM 65.3°F18.5°C 45.6°F7.6°C 49% 2.7 mph W4.3 kmh W 7.8 mph12.6 kmh 30.38 in1028.8 mb 0.00 in0.0 mm 0.00 in0.0 mm 0.00 in0.0 mm
03:55 PM 65.3°F18.5°C 45.6°F7.6°C 49% 5.3 mph SSW8.5 kmh SSW 7.8 mph12.6 kmh 30.38 in1028.8 mb 0.00 in0.0 mm 0.00 in0.0 mm 0.00 in0.0 mm
03:56 PM 65.3°F18.5°C 45.6°F7.6°C 49% 2.7 mph WSW4.3 kmh WSW 5.8 mph9.3 kmh 30.38 in1028.8 mb 0.00 in0.0 mm 0.00 in0.0 mm 0.00 in0.0 mm
03:57 PM 65.3°F18.5°C 45.6°F7.6°C 49% 4.2 mph NNE6.8 kmh NNE 5.8 mph9.3 kmh 30.38 in1028.8 mb 0.00 in0.0 mm 0.00 in0.0 mm 0.00 in0.0 mm
03:58 PM 65.3°F18.5°C 45.6°F7.6°C 49% 4.7 mph ESE7.6 kmh ESE 5.8 mph9.3 kmh 30.38 in1028.8 mb 0.00 in0.0 mm 0.00 in0.0 mm 0.00 in0.0 mm
03:59 PM 65.3°F18.5°C 45.6°F7.6°C 49% 3.7 mph ENE6.0 kmh ENE 5.8 mph9.3 kmh 30.38 in1028.8 mb 0.00 in0.0 mm 0.00 in0.0 mm 0.00 in0.0 mm
04:00 PM 65.1°F18.4°C 45.5°F7.5°C 49% 3.2 mph WNW5.1 kmh WNW 6.3 mph10.1 kmh 30.38 in1028.8 mb 0.00 in0.0 mm 0.00 in0.0 mm 0.00 in0.0 mm
04:01 PM 65.1°F18.4°C 45.5°F7.5°C 49% 3.2 mph WNW5.1 kmh WNW 6.3 mph10.1 kmh 30.38 in1028.8 mb 0.00 in0.0 mm 0.00 in0.0 mm 0.00 in0.0 mm
04:02 PM 64.9°F18.3°C 45.3°F7.4°C 49% 5.8 mph W9.3 kmh W 6.3 mph10.1 kmh 30.38 in1028.8 mb 0.00 in0.0 mm 0.00 in0.0 mm 0.00 in0.0 mm
04:03 PM 64.9°F18.3°C 45.3°F7.4°C 49% 2.7 mph NNE4.3 kmh NNE 6.3 mph10.1 kmh 30.38 in1028.8 mb 0.00 in0.0 mm 0.00 in0.0 mm 0.00 in0.0 mm
04:04 PM 64.9°F18.3°C 45.3°F7.4°C 49% 2.7 mph W4.3 kmh W 6.3 mph10.1 kmh 30.38 in1028.8 mb 0.00 in0.0 mm 0.00 in0.0 mm 0.00 in0.0 mm
04:05 PM 64.9°F18.3°C 45.3°F7.4°C 49% 3.2 mph W5.1 kmh W 6.3 mph10.1 kmh 30.38 in1028.8 mb 0.00 in0.0 mm 0.00 in0.0 mm 0.00 in0.0 mm
04:06 PM 64.9°F18.3°C 45.3°F7.4°C 49% 1.7 mph WNW2.7 kmh WNW 6.3 mph10.1 kmh 30.38 in1028.8 mb 0.00 in0.0 mm 0.00 in0.0 mm 0.00 in0.0 mm
04:07 PM 64.9°F18.3°C 45.3°F7.4°C 49% 2.7 mph SW4.3 kmh SW 6.3 mph10.1 kmh 30.38 in1028.8 mb 0.00 in0.0 mm 0.00 in0.0 mm 0.00 in0.0 mm
04:08 PM 65.1°F18.4°C 45.5°F7.5°C 49% 2.7 mph NNW4.3 kmh NNW 6.3 mph10.1 kmh 30.38 in1028.8 mb 0.00 in0.0 mm 0.00 in0.0 mm 0.00 in0.0 mm
04:09 PM 65.1°F18.4°C 45.5°F7.5°C 49% 2.7 mph NNW4.3 kmh NNW 6.3 mph10.1 kmh 30.38 in1028.8 mb 0.00 in0.0 mm 0.00 in0.0 mm 0.00 in0.0 mm
04:10 PM 65.1°F18.4°C 45.5°F7.5°C 49% 3.2 mph W5.1 kmh W 5.8 mph9.3 kmh 30.38 in1028.8 mb 0.00 in0.0 mm 0.00 in0.0 mm 0.00 in0.0 mm
04:11 PM 65.1°F18.4°C 45.5°F7.5°C 49% 2.7 mph NW4.3 kmh NW 5.8 mph9.3 kmh 30.38 in1028.8 mb 0.00 in0.0 mm 0.00 in0.0 mm 0.00 in0.0 mm
04:12 PM 65.1°F18.4°C 45.5°F7.5°C 49% 3.2 mph S5.1 kmh S 5.8 mph9.3 kmh 30.38 in1028.8 mb 0.00 in0.0 mm 0.00 in0.0 mm 0.00 in0.0 mm
04:13 PM 65.1°F18.4°C 45.5°F7.5°C 49% 1.7 mph SSE2.7 kmh SSE 6.3 mph10.1 kmh 30.38 in1028.8 mb 0.00 in0.0 mm 0.00 in0.0 mm 0.00 in0.0 mm
04:14 PM 65.1°F18.4°C 45.5°F7.5°C 49% 3.7 mph SE6.0 kmh SE 6.3 mph10.1 kmh 30.38 in1028.8 mb 0.00 in0.0 mm 0.00 in0.0 mm 0.00 in0.0 mm
04:15 PM 64.9°F18.3°C 45.8°F7.7°C 50% 4.2 mph ENE6.8 kmh ENE 6.3 mph10.1 kmh 30.38 in1028.8 mb 0.00 in0.0 mm 0.00 in0.0 mm 0.00 in0.0 mm
04:16 PM 64.9°F18.3°C 45.8°F7.7°C 50% 3.7 mph NW6.0 kmh NW 6.3 mph10.1 kmh 30.38 in1028.8 mb 0.00 in0.0 mm 0.00 in0.0 mm 0.00 in0.0 mm
04:17 PM 64.9°F18.3°C 45.8°F7.7°C 50% 3.7 mph W6.0 kmh W 6.3 mph10.1 kmh 30.38 in1028.8 mb 0.00 in0.0 mm 0.00 in0.0 mm 0.00 in0.0 mm
04:18 PM 64.9°F18.3°C 45.8°F7.7°C 50% 2.7 mph WNW4.3 kmh WNW 6.3 mph10.1 kmh 30.38 in1028.8 mb 0.00 in0.0 mm 0.00 in0.0 mm 0.00 in0.0 mm
04:19 PM 64.9°F18.3°C 45.8°F7.7°C 50% 2.7 mph WNW4.3 kmh WNW 6.3 mph10.1 kmh 30.38 in1028.8 mb 0.00 in0.0 mm 0.00 in0.0 mm 0.00 in0.0 mm
04:20 PM 64.9°F18.3°C 45.8°F7.7°C 50% 1.7 mph SE2.7 kmh SE 6.3 mph10.1 kmh 30.38 in1028.8 mb 0.00 in0.0 mm 0.00 in0.0 mm 0.00 in0.0 mm
04:21 PM 65.3°F18.5°C 46.2°F7.9°C 50% 2.2 mph SE3.5 kmh SE 6.3 mph10.1 kmh 30.38 in1028.8 mb 0.00 in0.0 mm 0.00 in0.0 mm 0.00 in0.0 mm
04:22 PM 65.3°F18.5°C 46.2°F7.9°C 50% 1.7 mph NW2.7 kmh NW 6.3 mph10.1 kmh 30.38 in1028.8 mb 0.00 in0.0 mm 0.00 in0.0 mm 0.00 in0.0 mm
04:23 PM 65.3°F18.5°C 46.2°F7.9°C 50% 3.2 mph SE5.1 kmh SE 5.8 mph9.3 kmh 30.38 in1028.8 mb 0.00 in0.0 mm 0.00 in0.0 mm 0.00 in0.0 mm
04:24 PM 65.3°F18.5°C 46.2°F7.9°C 50% 2.2 mph SSW3.5 kmh SSW 5.8 mph9.3 kmh 30.38 in1028.8 mb 0.00 in0.0 mm 0.00 in0.0 mm 0.00 in0.0 mm
04:25 PM 64.9°F18.3°C 45.8°F7.7°C 50% 2.7 mph SE4.3 kmh SE 5.8 mph9.3 kmh 30.38 in1028.8 mb 0.00 in0.0 mm 0.00 in0.0 mm 0.00 in0.0 mm
04:26 PM 64.9°F18.3°C 45.8°F7.7°C 50% 2.7 mph NW4.3 kmh NW 5.8 mph9.3 kmh 30.38 in1028.8 mb 0.00 in0.0 mm 0.00 in0.0 mm 0.00 in0.0 mm
04:27 PM 65.1°F18.4°C 46.0°F7.8°C 50% 3.2 mph NNW5.1 kmh NNW 4.2 mph6.8 kmh 30.38 in1028.8 mb 0.00 in0.0 mm 0.00 in0.0 mm 0.00 in0.0 mm
04:28 PM 65.1°F18.4°C 46.0°F7.8°C 50% 2.2 mph ENE3.5 kmh ENE 4.2 mph6.8 kmh 30.38 in1028.8 mb 0.00 in0.0 mm 0.00 in0.0 mm 0.00 in0.0 mm
04:29 PM 65.1°F18.4°C 46.0°F7.8°C 50% 1.7 mph NNE2.7 kmh NNE 4.2 mph6.8 kmh 30.38 in1028.8 mb 0.00 in0.0 mm 0.00 in0.0 mm 0.00 in0.0 mm
04:30 PM 65.1°F18.4°C 46.0°F7.8°C 50% 3.7 mph NNE6.0 kmh NNE 4.2 mph6.8 kmh 30.38 in1028.8 mb 0.00 in0.0 mm 0.00 in0.0 mm 0.00 in0.0 mm
04:31 PM 64.9°F18.3°C 45.8°F7.7°C 50% 5.8 mph NW9.3 kmh NW 5.8 mph9.3 kmh 30.38 in1028.8 mb 0.00 in0.0 mm 0.00 in0.0 mm 0.00 in0.0 mm
04:32 PM 64.8°F18.2°C 46.2°F7.9°C 51% 2.7 mph WNW4.3 kmh WNW 5.8 mph9.3 kmh 30.38 in1028.8 mb 0.00 in0.0 mm 0.00 in0.0 mm 0.00 in0.0 mm
04:33 PM 64.8°F18.2°C 46.2°F7.9°C 51% 2.2 mph WNW3.5 kmh WNW 5.8 mph9.3 kmh 30.38 in1028.8 mb 0.00 in0.0 mm 0.00 in0.0 mm 0.00 in0.0 mm
04:34 PM 64.8°F18.2°C 46.2°F7.9°C 51% 2.7 mph ESE4.3 kmh ESE 5.8 mph9.3 kmh 30.38 in1028.8 mb 0.00 in0.0 mm 0.00 in0.0 mm 0.00 in0.0 mm
04:35 PM 64.8°F18.2°C 46.2°F7.9°C 51% 3.7 mph WSW6.0 kmh WSW 5.8 mph9.3 kmh 30.38 in1028.8 mb 0.00 in0.0 mm 0.00 in0.0 mm 0.00 in0.0 mm
04:36 PM 64.9°F18.3°C 45.8°F7.7°C 50% 2.2 mph SW3.5 kmh SW 5.8 mph9.3 kmh 30.38 in1028.8 mb 0.00 in0.0 mm 0.00 in0.0 mm 0.00 in0.0 mm
04:37 PM 65.1°F18.4°C 46.0°F7.8°C 50% 3.7 mph WNW6.0 kmh WNW 5.8 mph9.3 kmh 30.38 in1028.8 mb 0.00 in0.0 mm 0.00 in0.0 mm 0.00 in0.0 mm
04:38 PM 65.1°F18.4°C 46.0°F7.8°C 50% 4.7 mph SSE7.6 kmh SSE 5.8 mph9.3 kmh 30.38 in1028.8 mb 0.00 in0.0 mm 0.00 in0.0 mm 0.00 in0.0 mm
04:39 PM 64.8°F18.2°C 45.7°F7.6°C 50% 2.2 mph W3.5 kmh W 5.8 mph9.3 kmh 30.38 in1028.8 mb 0.00 in0.0 mm 0.00 in0.0 mm 0.00 in0.0 mm
04:40 PM 64.9°F18.3°C 45.8°F7.7°C 50% 2.2 mph S3.5 kmh S 5.8 mph9.3 kmh 30.39 in1029.1 mb 0.00 in0.0 mm 0.00 in0.0 mm 0.00 in0.0 mm
04:41 PM 65.1°F18.4°C 46.0°F7.8°C 50% 2.7 mph ESE4.3 kmh ESE 5.8 mph9.3 kmh 30.39 in1029.1 mb 0.00 in0.0 mm 0.00 in0.0 mm 0.00 in0.0 mm
04:42 PM 65.3°F18.5°C 46.2°F7.9°C 50% 2.2 mph WSW3.5 kmh WSW 5.8 mph9.3 kmh 30.39 in1029.1 mb 0.00 in0.0 mm 0.00 in0.0 mm 0.00 in0.0 mm
04:43 PM 65.3°F18.5°C 46.2°F7.9°C 50% 3.2 mph SE5.1 kmh SE 5.8 mph9.3 kmh 30.39 in1029.1 mb 0.00 in0.0 mm 0.00 in0.0 mm 0.00 in0.0 mm
04:44 PM 65.1°F18.4°C 46.0°F7.8°C 50% 2.2 mph SSW3.5 kmh SSW 4.7 mph7.6 kmh 30.39 in1029.1 mb 0.00 in0.0 mm 0.00 in0.0 mm 0.00 in0.0 mm
04:45 PM 64.9°F18.3°C 45.8°F7.7°C 50% 4.7 mph W7.6 kmh W 4.7 mph7.6 kmh 30.39 in1029.1 mb 0.00 in0.0 mm 0.00 in0.0 mm 0.00 in0.0 mm
04:46 PM 64.9°F18.3°C 45.8°F7.7°C 50% 3.2 mph SSE5.1 kmh SSE 5.3 mph8.5 kmh 30.39 in1029.1 mb 0.00 in0.0 mm 0.00 in0.0 mm 0.00 in0.0 mm
04:47 PM 64.6°F18.1°C 45.5°F7.5°C 50% 3.2 mph W5.1 kmh W 5.3 mph8.5 kmh 30.39 in1029.1 mb 0.00 in0.0 mm 0.00 in0.0 mm 0.00 in0.0 mm
04:48 PM 64.4°F18.0°C 45.4°F7.4°C 50% 3.7 mph SE6.0 kmh SE 7.3 mph11.7 kmh 30.39 in1029.1 mb 0.00 in0.0 mm 0.00 in0.0 mm 0.00 in0.0 mm
04:49 PM 64.2°F17.9°C 45.2°F7.3°C 50% 3.2 mph W5.1 kmh W 7.3 mph11.7 kmh 30.39 in1029.1 mb 0.00 in0.0 mm 0.00 in0.0 mm 0.00 in0.0 mm
04:50 PM 64.2°F17.9°C 45.7°F7.6°C 51% 2.7 mph WNW4.3 kmh WNW 7.3 mph11.7 kmh 30.39 in1029.1 mb 0.00 in0.0 mm 0.00 in0.0 mm 0.00 in0.0 mm
04:51 PM 64.2°F17.9°C 45.7°F7.6°C 51% 3.2 mph SSW5.1 kmh SSW 7.3 mph11.7 kmh 30.39 in1029.1 mb 0.00 in0.0 mm 0.00 in0.0 mm 0.00 in0.0 mm
04:52 PM 64.2°F17.9°C 45.7°F7.6°C 51% 2.7 mph NW4.3 kmh NW 7.3 mph11.7 kmh 30.39 in1029.1 mb 0.00 in0.0 mm 0.00 in0.0 mm 0.00 in0.0 mm
04:53 PM 64.2°F17.9°C 45.7°F7.6°C 51% 4.7 mph WSW7.6 kmh WSW 7.3 mph11.7 kmh 30.38 in1028.8 mb 0.00 in0.0 mm 0.00 in0.0 mm 0.00 in0.0 mm
04:54 PM 63.9°F17.7°C 45.4°F7.4°C 51% 2.2 mph SSE3.5 kmh SSE 7.3 mph11.7 kmh 30.38 in1028.8 mb 0.00 in0.0 mm 0.00 in0.0 mm 0.00 in0.0 mm
04:55 PM 63.9°F17.7°C 45.4°F7.4°C 51% 3.2 mph S5.1 kmh S 7.3 mph11.7 kmh 30.38 in1028.8 mb 0.00 in0.0 mm 0.00 in0.0 mm 0.00 in0.0 mm
04:56 PM 63.9°F17.7°C 45.4°F7.4°C 51% 2.7 mph NNW4.3 kmh NNW 7.3 mph11.7 kmh 30.38 in1028.8 mb 0.00 in0.0 mm 0.00 in0.0 mm 0.00 in0.0 mm
04:57 PM 63.7°F17.6°C 45.2°F7.3°C 51% 4.2 mph SSW6.8 kmh SSW 7.3 mph11.7 kmh 30.38 in1028.8 mb 0.00 in0.0 mm 0.00 in0.0 mm 0.00 in0.0 mm
04:58 PM 63.7°F17.6°C 45.2°F7.3°C 51% 3.7 mph WNW6.0 kmh WNW 7.3 mph11.7 kmh 30.38 in1028.8 mb 0.00 in0.0 mm 0.00 in0.0 mm 0.00 in0.0 mm
04:59 PM 63.5°F17.5°C 45.6°F7.6°C 52% 3.7 mph ESE6.0 kmh ESE 7.3 mph11.7 kmh 30.38 in1028.8 mb 0.00 in0.0 mm 0.00 in0.0 mm 0.00 in0.0 mm
05:00 PM 63.3°F17.4°C 45.4°F7.4°C 52% 2.7 mph WNW4.3 kmh WNW 7.3 mph11.7 kmh 30.38 in1028.8 mb 0.00 in0.0 mm 0.00 in0.0 mm 0.00 in0.0 mm
05:01 PM 63.3°F17.4°C 45.4°F7.4°C 52% 3.7 mph W6.0 kmh W 7.3 mph11.7 kmh 30.38 in1028.8 mb 0.00 in0.0 mm 0.00 in0.0 mm 0.00 in0.0 mm
05:02 PM 63.3°F17.4°C 45.4°F7.4°C 52% 3.7 mph ENE6.0 kmh ENE 7.3 mph11.7 kmh 30.38 in1028.8 mb 0.00 in0.0 mm 0.00 in0.0 mm 0.00 in0.0 mm
05:03 PM 63.3°F17.4°C 45.4°F7.4°C 52% 2.7 mph E4.3 kmh E 7.3 mph11.7 kmh 30.38 in1028.8 mb 0.00 in0.0 mm 0.00 in0.0 mm 0.00 in0.0 mm
05:04 PM 63.3°F17.4°C 45.4°F7.4°C 52% 2.2 mph SW3.5 kmh SW 7.3 mph11.7 kmh 30.38 in1028.8 mb 0.00 in0.0 mm 0.00 in0.0 mm 0.00 in0.0 mm
05:05 PM 63.1°F17.3°C 45.2°F7.3°C 52% 5.8 mph SW9.3 kmh SW 7.3 mph11.7 kmh 30.39 in1029.1 mb 0.00 in0.0 mm 0.00 in0.0 mm 0.00 in0.0 mm
05:06 PM 63.1°F17.3°C 45.2°F7.3°C 52% 2.2 mph E3.5 kmh E 7.3 mph11.7 kmh 30.39 in1029.1 mb 0.00 in0.0 mm 0.00 in0.0 mm 0.00 in0.0 mm
05:07 PM 63.0°F17.2°C 45.1°F7.3°C 52% 2.7 mph NNE4.3 kmh NNE 6.3 mph10.1 kmh 30.39 in1029.1 mb 0.00 in0.0 mm 0.00 in0.0 mm 0.00 in0.0 mm
05:08 PM 62.8°F17.1°C 45.4°F7.4°C 53% 6.3 mph NE10.1 kmh NE 6.3 mph10.1 kmh 30.39 in1029.1 mb 0.00 in0.0 mm 0.00 in0.0 mm 0.00 in0.0 mm
05:09 PM 62.8°F17.1°C 45.4°F7.4°C 53% 3.2 mph SW5.1 kmh SW 6.3 mph10.1 kmh 30.39 in1029.1 mb 0.00 in0.0 mm 0.00 in0.0 mm 0.00 in0.0 mm
05:10 PM 62.8°F17.1°C 45.4°F7.4°C 53% 4.2 mph NE6.8 kmh NE 6.3 mph10.1 kmh 30.39 in1029.1 mb 0.00 in0.0 mm 0.00 in0.0 mm 0.00 in0.0 mm
05:11 PM 62.6°F17.0°C 45.2°F7.3°C 53% 2.2 mph S3.5 kmh S 6.3 mph10.1 kmh 30.39 in1029.1 mb 0.00 in0.0 mm 0.00 in0.0 mm 0.00 in0.0 mm
05:12 PM 62.6°F17.0°C 45.2°F7.3°C 53% 3.2 mph W5.1 kmh W 6.3 mph10.1 kmh 30.39 in1029.1 mb 0.00 in0.0 mm 0.00 in0.0 mm 0.00 in0.0 mm
05:13 PM 62.6°F17.0°C 45.2°F7.3°C 53% 3.7 mph W6.0 kmh W 6.3 mph10.1 kmh 30.39 in1029.1 mb 0.00 in0.0 mm 0.00 in0.0 mm 0.00 in0.0 mm
05:14 PM 62.6°F17.0°C 45.2°F7.3°C 53% 3.7 mph ENE6.0 kmh ENE 6.3 mph10.1 kmh 30.39 in1029.1 mb 0.00 in0.0 mm 0.00 in0.0 mm 0.00 in0.0 mm
05:15 PM 62.6°F17.0°C 45.2°F7.3°C 53% 2.2 mph NW3.5 kmh NW 6.3 mph10.1 kmh 30.39 in1029.1 mb 0.00 in0.0 mm 0.00 in0.0 mm 0.00 in0.0 mm
05:16 PM 62.4°F16.9°C 45.0°F7.2°C 53% 3.2 mph S5.1 kmh S 6.3 mph10.1 kmh 30.39 in1029.1 mb 0.00 in0.0 mm 0.00 in0.0 mm 0.00 in0.0 mm
05:17 PM 62.2°F16.8°C 44.9°F7.2°C 53% 2.7 mph SE4.3 kmh SE 6.3 mph10.1 kmh 30.39 in1029.1 mb 0.00 in0.0 mm 0.00 in0.0 mm 0.00 in0.0 mm
05:18 PM 62.2°F16.8°C 44.9°F7.2°C 53% 3.2 mph NW5.1 kmh NW 4.7 mph7.6 kmh 30.39 in1029.1 mb 0.00 in0.0 mm 0.00 in0.0 mm 0.00 in0.0 mm
05:19 PM 62.2°F16.8°C 44.9°F7.2°C 53% 2.7 mph SSW4.3 kmh SSW 4.7 mph7.6 kmh 30.39 in1029.1 mb 0.00 in0.0 mm 0.00 in0.0 mm 0.00 in0.0 mm
05:20 PM 62.2°F16.8°C 44.9°F7.2°C 53% 2.2 mph SE3.5 kmh SE 4.7 mph7.6 kmh 30.39 in1029.1 mb 0.00 in0.0 mm 0.00 in0.0 mm 0.00 in0.0 mm
05:21 PM 62.1°F16.7°C 44.8°F7.1°C 53% 2.2 mph W3.5 kmh W 4.7 mph7.6 kmh 30.39 in1029.1 mb 0.00 in0.0 mm 0.00 in0.0 mm 0.00 in0.0 mm
05:22 PM 62.1°F16.7°C 44.8°F7.1°C 53% 2.7 mph W4.3 kmh W 4.7 mph7.6 kmh 30.39 in1029.1 mb 0.00 in0.0 mm 0.00 in0.0 mm 0.00 in0.0 mm
05:23 PM 61.9°F16.6°C 44.6°F7.0°C 53% 3.7 mph ESE6.0 kmh ESE 4.7 mph7.6 kmh 30.39 in1029.1 mb 0.00 in0.0 mm 0.00 in0.0 mm 0.00 in0.0 mm
05:24 PM 61.7°F16.5°C 44.9°F7.2°C 54% 2.2 mph ESE3.5 kmh ESE 4.7 mph7.6 kmh 30.39 in1029.1 mb 0.00 in0.0 mm 0.00 in0.0 mm 0.00 in0.0 mm
05:25 PM 61.7°F16.5°C 44.9°F7.2°C 54% 3.2 mph SSE5.1 kmh SSE 4.7 mph7.6 kmh 30.39 in1029.1 mb 0.00 in0.0 mm 0.00 in0.0 mm 0.00 in0.0 mm
05:26 PM 61.5°F16.4°C 44.7°F7.1°C 54% 3.7 mph W6.0 kmh W 4.7 mph7.6 kmh 30.39 in1029.1 mb 0.00 in0.0 mm 0.00 in0.0 mm 0.00 in0.0 mm
05:27 PM 61.5°F16.4°C 44.7°F7.1°C 54% 3.2 mph SSE5.1 kmh SSE 3.7 mph6.0 kmh 30.39 in1029.1 mb 0.00 in0.0 mm 0.00 in0.0 mm 0.00 in0.0 mm
05:28 PM 61.3°F16.3°C 44.5°F6.9°C 54% 2.7 mph NNE4.3 kmh NNE 3.7 mph6.0 kmh 30.39 in1029.1 mb 0.00 in0.0 mm 0.00 in0.0 mm 0.00 in0.0 mm
05:29 PM 61.3°F16.3°C 45.0°F7.2°C 55% 4.2 mph S6.8 kmh S 4.2 mph6.8 kmh 30.38 in1028.8 mb 0.00 in0.0 mm 0.00 in0.0 mm 0.00 in0.0 mm
05:30 PM 61.3°F16.3°C 45.0°F7.2°C 55% 1.7 mph ENE2.7 kmh ENE 4.2 mph6.8 kmh 30.38 in1028.8 mb 0.00 in0.0 mm 0.00 in0.0 mm 0.00 in0.0 mm
05:31 PM 61.2°F16.2°C 44.9°F7.2°C 55% 3.7 mph SE6.0 kmh SE 4.2 mph6.8 kmh 30.38 in1028.8 mb 0.00 in0.0 mm 0.00 in0.0 mm 0.00 in0.0 mm
05:32 PM 61.2°F16.2°C 44.9°F7.2°C 55% 2.2 mph N3.5 kmh N 4.2 mph6.8 kmh 30.38 in1028.8 mb 0.00 in0.0 mm 0.00 in0.0 mm 0.00 in0.0 mm
05:33 PM 61.2°F16.2°C 44.9°F7.2°C 55% 3.2 mph SE5.1 kmh SE 4.2 mph6.8 kmh 30.38 in1028.8 mb 0.00 in0.0 mm 0.00 in0.0 mm 0.00 in0.0 mm
05:34 PM 61.2°F16.2°C 44.9°F7.2°C 55% 3.7 mph SSW6.0 kmh SSW 4.7 mph7.6 kmh 30.38 in1028.8 mb 0.00 in0.0 mm 0.00 in0.0 mm 0.00 in0.0 mm
05:35 PM 61.0°F16.1°C 44.7°F7.1°C 55% 3.7 mph W6.0 kmh W 4.7 mph7.6 kmh 30.38 in1028.8 mb 0.00 in0.0 mm 0.00 in0.0 mm 0.00 in0.0 mm
05:36 PM 61.0°F16.1°C 44.7°F7.1°C 55% 2.7 mph ESE4.3 kmh ESE 4.7 mph7.6 kmh 30.38 in1028.8 mb 0.00 in0.0 mm 0.00 in0.0 mm 0.00 in0.0 mm
05:37 PM 61.0°F16.1°C 44.7°F7.1°C 55% 1.7 mph ESE2.7 kmh ESE 4.7 mph7.6 kmh 30.38 in1028.8 mb 0.00 in0.0 mm 0.00 in0.0 mm 0.00 in0.0 mm
05:38 PM 60.8°F16.0°C 44.5°F6.9°C 55% 2.2 mph SSE3.5 kmh SSE 4.7 mph7.6 kmh 30.38 in1028.8 mb 0.00 in0.0 mm 0.00 in0.0 mm 0.00 in0.0 mm
05:39 PM 60.8°F16.0°C 44.5°F6.9°C 55% 2.2 mph S3.5 kmh S 4.7 mph7.6 kmh 30.38 in1028.8 mb 0.00 in0.0 mm 0.00 in0.0 mm 0.00 in0.0 mm
05:40 PM 60.8°F16.0°C 44.5°F6.9°C 55% 1.7 mph SSE2.7 kmh SSE 4.7 mph7.6 kmh 30.38 in1028.8 mb 0.00 in0.0 mm 0.00 in0.0 mm 0.00 in0.0 mm
05:41 PM 60.6°F15.9°C 44.8°F7.1°C 56% 3.2 mph SW5.1 kmh SW 4.7 mph7.6 kmh 30.38 in1028.8 mb 0.00 in0.0 mm 0.00 in0.0 mm 0.00 in0.0 mm
05:42 PM 60.6°F15.9°C 44.8°F7.1°C 56% 1.7 mph NE2.7 kmh NE 4.7 mph7.6 kmh 30.38 in1028.8 mb 0.00 in0.0 mm 0.00 in0.0 mm 0.00 in0.0 mm
05:43 PM 60.6°F15.9°C 44.8°F7.1°C 56% 3.7 mph SE6.0 kmh SE 4.7 mph7.6 kmh 30.38 in1028.8 mb 0.00 in0.0 mm 0.00 in0.0 mm 0.00 in0.0 mm
05:44 PM 60.6°F15.9°C 44.8°F7.1°C 56% 2.7 mph W4.3 kmh W 4.7 mph7.6 kmh 30.38 in1028.8 mb 0.00 in0.0 mm 0.00 in0.0 mm 0.00 in0.0 mm
05:45 PM 60.6°F15.9°C 44.8°F7.1°C 56% 5.8 mph SW9.3 kmh SW 5.8 mph9.3 kmh 30.38 in1028.8 mb 0.00 in0.0 mm 0.00 in0.0 mm 0.00 in0.0 mm
05:46 PM 60.6°F15.9°C 44.8°F7.1°C 56% 1.7 mph SE2.7 kmh SE 5.8 mph9.3 kmh 30.38 in1028.8 mb 0.00 in0.0 mm 0.00 in0.0 mm 0.00 in0.0 mm
05:47 PM 60.4°F15.8°C 44.6°F7.0°C 56% 1.7 mph E2.7 kmh E 5.8 mph9.3 kmh 30.38 in1028.8 mb 0.00 in0.0 mm 0.00 in0.0 mm 0.00 in0.0 mm
05:48 PM 60.3°F15.7°C 44.5°F6.9°C 56% 2.2 mph S3.5 kmh S 5.8 mph9.3 kmh 30.38 in1028.8 mb 0.00 in0.0 mm 0.00 in0.0 mm 0.00 in0.0 mm
05:49 PM 60.3°F15.7°C 44.5°F6.9°C 56% 2.7 mph ESE4.3 kmh ESE 5.8 mph9.3 kmh 30.38 in1028.8 mb 0.00 in0.0 mm 0.00 in0.0 mm 0.00 in0.0 mm
05:50 PM 60.1°F15.6°C 44.4°F6.9°C 56% 1.1 mph SSE1.8 kmh SSE 5.8 mph9.3 kmh 30.38 in1028.8 mb 0.00 in0.0 mm 0.00 in0.0 mm 0.00 in0.0 mm
05:51 PM 60.1°F15.6°C 44.8°F7.1°C 57% 2.2 mph S3.5 kmh S 5.8 mph9.3 kmh 30.38 in1028.8 mb 0.00 in0.0 mm 0.00 in0.0 mm 0.00 in0.0 mm
05:52 PM 60.1°F15.6°C 44.8°F7.1°C 57% 2.2 mph SE3.5 kmh SE 5.8 mph9.3 kmh 30.38 in1028.8 mb 0.00 in0.0 mm 0.00 in0.0 mm 0.00 in0.0 mm
05:53 PM 59.9°F15.5°C 44.6°F7.0°C 57% 3.2 mph ENE5.1 kmh ENE 5.8 mph9.3 kmh 30.39 in1029.1 mb 0.00 in0.0 mm 0.00 in0.0 mm 0.00 in0.0 mm
05:54 PM 59.7°F15.4°C 44.4°F6.9°C 57% 3.7 mph SSE6.0 kmh SSE 5.8 mph9.3 kmh 30.39 in1029.1 mb 0.00 in0.0 mm 0.00 in0.0 mm 0.00 in0.0 mm
05:55 PM 60.1°F15.6°C 44.8°F7.1°C 57% 1.7 mph E2.7 kmh E 4.2 mph6.8 kmh 30.39 in1029.1 mb 0.00 in0.0 mm 0.00 in0.0 mm 0.00 in0.0 mm
05:56 PM 60.1°F15.6°C 44.8°F7.1°C 57% 1.7 mph S2.7 kmh S 4.2 mph6.8 kmh 30.39 in1029.1 mb 0.00 in0.0 mm 0.00 in0.0 mm 0.00 in0.0 mm
05:57 PM 59.7°F15.4°C 44.4°F6.9°C 57% 1.7 mph NE2.7 kmh NE 4.2 mph6.8 kmh 30.39 in1029.1 mb 0.00 in0.0 mm 0.00 in0.0 mm 0.00 in0.0 mm
05:58 PM 59.7°F15.4°C 44.4°F6.9°C 57% 2.2 mph ESE3.5 kmh ESE 4.2 mph6.8 kmh 30.39 in1029.1 mb 0.00 in0.0 mm 0.00 in0.0 mm 0.00 in0.0 mm
05:59 PM 59.5°F15.3°C 44.7°F7.1°C 58% 5.3 mph ESE8.5 kmh ESE 5.3 mph8.5 kmh 30.39 in1029.1 mb 0.00 in0.0 mm 0.00 in0.0 mm 0.00 in0.0 mm
06:00 PM 59.5°F15.3°C 44.7°F7.1°C 58% 2.2 mph S3.5 kmh S 5.3 mph8.5 kmh 30.39 in1029.1 mb 0.00 in0.0 mm 0.00 in0.0 mm 0.00 in0.0 mm
06:01 PM 59.4°F15.2°C 44.6°F7.0°C 58% 1.1 mph S1.8 kmh S 5.3 mph8.5 kmh 30.39 in1029.1 mb 0.00 in0.0 mm 0.00 in0.0 mm 0.00 in0.0 mm
06:02 PM 59.4°F15.2°C 44.6°F7.0°C 58% 1.1 mph N1.8 kmh N 5.3 mph8.5 kmh 30.39 in1029.1 mb 0.00 in0.0 mm 0.00 in0.0 mm 0.00 in0.0 mm
06:03 PM 59.4°F15.2°C 44.6°F7.0°C 58% 2.2 mph WSW3.5 kmh WSW 5.3 mph8.5 kmh 30.39 in1029.1 mb 0.00 in0.0 mm 0.00 in0.0 mm 0.00 in0.0 mm
06:04 PM 59.4°F15.2°C 44.6°F7.0°C 58% 2.2 mph ESE3.5 kmh ESE 5.3 mph8.5 kmh 30.39 in1029.1 mb 0.00 in0.0 mm 0.00 in0.0 mm 0.00 in0.0 mm
06:05 PM 59.4°F15.2°C 44.6°F7.0°C 58% 2.2 mph E3.5 kmh E 5.3 mph8.5 kmh 30.38 in1028.8 mb 0.00 in0.0 mm 0.00 in0.0 mm 0.00 in0.0 mm
06:06 PM 59.4°F15.2°C 45.1°F7.3°C 59% 2.2 mph E3.5 kmh E 5.3 mph8.5 kmh 30.38 in1028.8 mb 0.00 in0.0 mm 0.00 in0.0 mm 0.00 in0.0 mm
06:07 PM 59.4°F15.2°C 45.1°F7.3°C 59% 4.7 mph S7.6 kmh S 5.3 mph8.5 kmh 30.38 in1028.8 mb 0.00 in0.0 mm 0.00 in0.0 mm 0.00 in0.0 mm
06:08 PM 59.4°F15.2°C 45.1°F7.3°C 59% 1.7 mph SSW2.7 kmh SSW 5.3 mph8.5 kmh 30.38 in1028.8 mb 0.00 in0.0 mm 0.00 in0.0 mm 0.00 in0.0 mm
06:09 PM 59.4°F15.2°C 45.1°F7.3°C 59% 1.1 mph SW1.8 kmh SW 4.7 mph7.6 kmh 30.38 in1028.8 mb 0.00 in0.0 mm 0.00 in0.0 mm 0.00 in0.0 mm
06:10 PM 59.4°F15.2°C 45.1°F7.3°C 59% 2.2 mph NE3.5 kmh NE 4.7 mph7.6 kmh 30.38 in1028.8 mb 0.00 in0.0 mm 0.00 in0.0 mm 0.00 in0.0 mm
06:11 PM 59.2°F15.1°C 44.9°F7.2°C 59% 2.2 mph ESE3.5 kmh ESE 4.7 mph7.6 kmh 30.38 in1028.8 mb 0.00 in0.0 mm 0.00 in0.0 mm 0.00 in0.0 mm
06:12 PM 59.2°F15.1°C 44.9°F7.2°C 59% 1.7 mph SE2.7 kmh SE 4.7 mph7.6 kmh 30.38 in1028.8 mb 0.00 in0.0 mm 0.00 in0.0 mm 0.00 in0.0 mm
06:13 PM 59.2°F15.1°C 44.9°F7.2°C 59% 1.7 mph SSE2.7 kmh SSE 4.7 mph7.6 kmh 30.38 in1028.8 mb 0.00 in0.0 mm 0.00 in0.0 mm 0.00 in0.0 mm
06:14 PM 59.2°F15.1°C 44.9°F7.2°C 59% 1.7 mph S2.7 kmh S 4.7 mph7.6 kmh 30.38 in1028.8 mb 0.00 in0.0 mm 0.00 in0.0 mm 0.00 in0.0 mm
06:15 PM 59.2°F15.1°C 44.9°F7.2°C 59% 2.7 mph S4.3 kmh S 4.7 mph7.6 kmh 30.38 in1028.8 mb 0.00 in0.0 mm 0.00 in0.0 mm 0.00 in0.0 mm
06:16 PM 59.2°F15.1°C 44.9°F7.2°C 59% 2.7 mph E4.3 kmh E 4.7 mph7.6 kmh 30.38 in1028.8 mb 0.00 in0.0 mm 0.00 in0.0 mm 0.00 in0.0 mm
06:17 PM 59.0°F15.0°C 44.7°F7.1°C 59% 2.7 mph SE4.3 kmh SE 3.7 mph6.0 kmh 30.38 in1028.8 mb 0.00 in0.0 mm 0.00 in0.0 mm 0.00 in0.0 mm
06:18 PM 59.0°F15.0°C 44.7°F7.1°C 59% 1.7 mph NE2.7 kmh NE 3.2 mph5.1 kmh 30.38 in1028.8 mb 0.00 in0.0 mm 0.00 in0.0 mm 0.00 in0.0 mm
06:19 PM 59.0°F15.0°C 44.7°F7.1°C 59% 1.7 mph SE2.7 kmh SE 3.2 mph5.1 kmh 30.38 in1028.8 mb 0.00 in0.0 mm 0.00 in0.0 mm 0.00 in0.0 mm
06:20 PM 58.8°F14.9°C 44.5°F6.9°C 59% 1.1 mph SE1.8 kmh SE 3.2 mph5.1 kmh 30.38 in1028.8 mb 0.00 in0.0 mm 0.00 in0.0 mm 0.00 in0.0 mm
06:21 PM 58.8°F14.9°C 44.9°F7.2°C 60% 1.7 mph SSE2.7 kmh SSE 3.2 mph5.1 kmh 30.38 in1028.8 mb 0.00 in0.0 mm 0.00 in0.0 mm 0.00 in0.0 mm
06:22 PM 58.8°F14.9°C 44.9°F7.2°C 60% 3.2 mph SE5.1 kmh SE 3.2 mph5.1 kmh 30.38 in1028.8 mb 0.00 in0.0 mm 0.00 in0.0 mm 0.00 in0.0 mm
06:23 PM 58.8°F14.9°C 44.9°F7.2°C 60% 2.2 mph W3.5 kmh W 3.2 mph5.1 kmh 30.38 in1028.8 mb 0.00 in0.0 mm 0.00 in0.0 mm 0.00 in0.0 mm
06:24 PM 58.8°F14.9°C 44.9°F7.2°C 60% 2.2 mph NNE3.5 kmh NNE 3.2 mph5.1 kmh 30.38 in1028.8 mb 0.00 in0.0 mm 0.00 in0.0 mm 0.00 in0.0 mm
06:25 PM 58.6°F14.8°C 44.8°F7.1°C 60% 2.2 mph SE3.5 kmh SE 3.2 mph5.1 kmh 30.38 in1028.8 mb 0.00 in0.0 mm 0.00 in0.0 mm 0.00 in0.0 mm
06:26 PM 58.6°F14.8°C 44.8°F7.1°C 60% 2.2 mph S3.5 kmh S 3.2 mph5.1 kmh 30.38 in1028.8 mb 0.00 in0.0 mm 0.00 in0.0 mm 0.00 in0.0 mm
06:27 PM 58.5°F14.7°C 44.7°F7.1°C 60% Calm Calm 3.2 mph5.1 kmh 30.38 in1028.8 mb 0.00 in0.0 mm 0.00 in0.0 mm 0.00 in0.0 mm
06:28 PM 58.5°F14.7°C 44.7°F7.1°C 60% 1.7 mph SSE2.7 kmh SSE 3.2 mph5.1 kmh 30.38 in1028.8 mb 0.00 in0.0 mm 0.00 in0.0 mm 0.00 in0.0 mm
06:29 PM 58.5°F14.7°C 44.7°F7.1°C 60% 1.7 mph SSE2.7 kmh SSE 3.2 mph5.1 kmh 30.39 in1029.1 mb 0.00 in0.0 mm 0.00 in0.0 mm 0.00 in0.0 mm
06:30 PM 58.3°F14.6°C 44.9°F7.2°C 61% 1.7 mph SSE2.7 kmh SSE 3.2 mph5.1 kmh 30.39 in1029.1 mb 0.00 in0.0 mm 0.00 in0.0 mm 0.00 in0.0 mm
06:31 PM 58.3°F14.6°C 44.9°F7.2°C 61% 3.2 mph SSW5.1 kmh SSW 3.2 mph5.1 kmh 30.39 in1029.1 mb 0.00 in0.0 mm 0.00 in0.0 mm 0.00 in0.0 mm
06:32 PM 58.5°F14.7°C 45.1°F7.3°C 61% 4.2 mph S6.8 kmh S 4.2 mph6.8 kmh 30.39 in1029.1 mb 0.00 in0.0 mm 0.00 in0.0 mm 0.00 in0.0 mm
06:33 PM 58.8°F14.9°C 45.4°F7.4°C 61% 2.7 mph S4.3 kmh S 5.3 mph8.5 kmh 30.39 in1029.1 mb 0.00 in0.0 mm 0.00 in0.0 mm 0.00 in0.0 mm
06:34 PM 58.8°F14.9°C 45.4°F7.4°C 61% 1.7 mph S2.7 kmh S 5.3 mph8.5 kmh 30.39 in1029.1 mb 0.00 in0.0 mm 0.00 in0.0 mm 0.00 in0.0 mm
06:35 PM 58.8°F14.9°C 44.9°F7.2°C 60% 1.7 mph S2.7 kmh S 5.3 mph8.5 kmh 30.39 in1029.1 mb 0.00 in0.0 mm 0.00 in0.0 mm 0.00 in0.0 mm
06:36 PM 58.6°F14.8°C 44.8°F7.1°C 60% 3.2 mph S5.1 kmh S 5.3 mph8.5 kmh 30.39 in1029.1 mb 0.00 in0.0 mm 0.00 in0.0 mm 0.00 in0.0 mm
06:37 PM 58.6°F14.8°C 44.8°F7.1°C 60% 1.7 mph ENE2.7 kmh ENE 5.3 mph8.5 kmh 30.39 in1029.1 mb 0.00 in0.0 mm 0.00 in0.0 mm 0.00 in0.0 mm
06:38 PM 58.6°F14.8°C 44.8°F7.1°C 60% 1.7 mph ENE2.7 kmh ENE 5.3 mph8.5 kmh 30.39 in1029.1 mb 0.00 in0.0 mm 0.00 in0.0 mm 0.00 in0.0 mm
06:39 PM 58.6°F14.8°C 44.8°F7.1°C 60% 4.7 mph SE7.6 kmh SE 5.3 mph8.5 kmh 30.39 in1029.1 mb 0.00 in0.0 mm 0.00 in0.0 mm 0.00 in0.0 mm
06:40 PM 59.0°F15.0°C 45.1°F7.3°C 60% 3.2 mph SSE5.1 kmh SSE 5.3 mph8.5 kmh 30.39 in1029.1 mb 0.00 in0.0 mm 0.00 in0.0 mm 0.00 in0.0 mm
06:41 PM 59.2°F15.1°C 45.3°F7.4°C 60% 3.2 mph SSE5.1 kmh SSE 5.3 mph8.5 kmh 30.38 in1028.8 mb 0.00 in0.0 mm 0.00 in0.0 mm 0.00 in0.0 mm
06:42 PM 59.0°F15.0°C 45.1°F7.3°C 60% 4.7 mph SE7.6 kmh SE 5.3 mph8.5 kmh 30.38 in1028.8 mb 0.00 in0.0 mm 0.00 in0.0 mm 0.00 in0.0 mm
06:43 PM 59.2°F15.1°C 45.3°F7.4°C 60% 3.2 mph SE5.1 kmh SE 4.7 mph7.6 kmh 30.38 in1028.8 mb 0.00 in0.0 mm 0.00 in0.0 mm 0.00 in0.0 mm
06:44 PM 59.2°F15.1°C 45.3°F7.4°C 60% 4.7 mph SSE7.6 kmh SSE 5.3 mph8.5 kmh 30.38 in1028.8 mb 0.00 in0.0 mm 0.00 in0.0 mm 0.00 in0.0 mm
06:45 PM 59.2°F15.1°C 45.3°F7.4°C 60% 2.2 mph SSE3.5 kmh SSE 5.3 mph8.5 kmh 30.38 in1028.8 mb 0.00 in0.0 mm 0.00 in0.0 mm 0.00 in0.0 mm
06:46 PM 59.2°F15.1°C 45.3°F7.4°C 60% 3.7 mph S6.0 kmh S 5.3 mph8.5 kmh 30.38 in1028.8 mb 0.00 in0.0 mm 0.00 in0.0 mm 0.00 in0.0 mm
06:47 PM 59.2°F15.1°C 45.3°F7.4°C 60% 3.2 mph ESE5.1 kmh ESE 5.3 mph8.5 kmh 30.38 in1028.8 mb 0.00 in0.0 mm 0.00 in0.0 mm 0.00 in0.0 mm
06:48 PM 59.2°F15.1°C 45.3°F7.4°C 60% 4.2 mph S6.8 kmh S 5.3 mph8.5 kmh 30.38 in1028.8 mb 0.00 in0.0 mm 0.00 in0.0 mm 0.00 in0.0 mm
06:49 PM 59.2°F15.1°C 45.3°F7.4°C 60% 4.2 mph SSE6.8 kmh SSE 5.3 mph8.5 kmh 30.38 in1028.8 mb 0.00 in0.0 mm 0.00 in0.0 mm 0.00 in0.0 mm
06:50 PM 59.2°F15.1°C 45.3°F7.4°C 60% 3.7 mph SSW6.0 kmh SSW 5.3 mph8.5 kmh 30.38 in1028.8 mb 0.00 in0.0 mm 0.00 in0.0 mm 0.00 in0.0 mm
06:51 PM 59.2°F15.1°C 45.3°F7.4°C 60% 2.7 mph SE4.3 kmh SE 5.3 mph8.5 kmh 30.38 in1028.8 mb 0.00 in0.0 mm 0.00 in0.0 mm 0.00 in0.0 mm
06:52 PM 59.0°F15.0°C 45.1°F7.3°C 60% 3.2 mph SSE5.1 kmh SSE 5.3 mph8.5 kmh 30.38 in1028.8 mb 0.00 in0.0 mm 0.00 in0.0 mm 0.00 in0.0 mm
06:53 PM 59.0°F15.0°C 45.1°F7.3°C 60% 4.7 mph S7.6 kmh S 5.3 mph8.5 kmh 30.38 in1028.8 mb 0.00 in0.0 mm 0.00 in0.0 mm 0.00 in0.0 mm
06:54 PM 59.0°F15.0°C 45.1°F7.3°C 60% 7.3 mph ESE11.7 kmh ESE 7.3 mph11.7 kmh 30.38 in1028.8 mb 0.00 in0.0 mm 0.00 in0.0 mm 0.00 in0.0 mm
06:55 PM 59.2°F15.1°C 45.3°F7.4°C 60% 3.7 mph W6.0 kmh W 7.3 mph11.7 kmh 30.38 in1028.8 mb 0.00 in0.0 mm 0.00 in0.0 mm 0.00 in0.0 mm
06:56 PM 59.2°F15.1°C 45.3°F7.4°C 60% 2.7 mph SE4.3 kmh SE 7.3 mph11.7 kmh 30.38 in1028.8 mb 0.00 in0.0 mm 0.00 in0.0 mm 0.00 in0.0 mm
06:57 PM 59.2°F15.1°C 45.3°F7.4°C 60% 2.7 mph S4.3 kmh S 7.3 mph11.7 kmh 30.38 in1028.8 mb 0.00 in0.0 mm 0.00 in0.0 mm 0.00 in0.0 mm
06:58 PM 59.2°F15.1°C 45.3°F7.4°C 60% 3.2 mph SE5.1 kmh SE 7.3 mph11.7 kmh 30.38 in1028.8 mb 0.00 in0.0 mm 0.00 in0.0 mm 0.00 in0.0 mm
06:59 PM 59.0°F15.0°C 45.1°F7.3°C 60% 2.2 mph S3.5 kmh S 7.3 mph11.7 kmh 30.38 in1028.8 mb 0.00 in0.0 mm 0.00 in0.0 mm 0.00 in0.0 mm
07:00 PM 59.0°F15.0°C 45.1°F7.3°C 60% 2.7 mph S4.3 kmh S 7.3 mph11.7 kmh 30.38 in1028.8 mb 0.00 in0.0 mm 0.00 in0.0 mm 0.00 in0.0 mm
07:01 PM 59.0°F15.0°C 45.1°F7.3°C 60% 2.7 mph S4.3 kmh S 7.3 mph11.7 kmh 30.38 in1028.8 mb 0.00 in0.0 mm 0.00 in0.0 mm 0.00 in0.0 mm
07:02 PM 58.8°F14.9°C 44.9°F7.2°C 60% 4.2 mph W6.8 kmh W 7.3 mph11.7 kmh 30.38 in1028.8 mb 0.00 in0.0 mm 0.00 in0.0 mm 0.00 in0.0 mm
07:03 PM 59.0°F15.0°C 45.1°F7.3°C 60% 4.7 mph ESE7.6 kmh ESE 7.3 mph11.7 kmh 30.38 in1028.8 mb 0.00 in0.0 mm 0.00 in0.0 mm 0.00 in0.0 mm
07:04 PM 59.0°F15.0°C 45.1°F7.3°C 60% 3.7 mph S6.0 kmh S 5.3 mph8.5 kmh 30.38 in1028.8 mb 0.00 in0.0 mm 0.00 in0.0 mm 0.00 in0.0 mm
07:05 PM 58.8°F14.9°C 44.9°F7.2°C 60% 2.7 mph ESE4.3 kmh ESE 4.7 mph7.6 kmh 30.38 in1028.8 mb 0.00 in0.0 mm 0.00 in0.0 mm 0.00 in0.0 mm
07:06 PM 58.8°F14.9°C 44.9°F7.2°C 60% 4.7 mph WSW7.6 kmh WSW 4.7 mph7.6 kmh 30.38 in1028.8 mb 0.00 in0.0 mm 0.00 in0.0 mm 0.00 in0.0 mm
07:07 PM 58.8°F14.9°C 44.9°F7.2°C 60% 3.7 mph SE6.0 kmh SE 4.7 mph7.6 kmh 30.38 in1028.8 mb 0.00 in0.0 mm 0.00 in0.0 mm 0.00 in0.0 mm
07:08 PM 58.8°F14.9°C 44.9°F7.2°C 60% 3.2 mph S5.1 kmh S 4.7 mph7.6 kmh 30.38 in1028.8 mb 0.00 in0.0 mm 0.00 in0.0 mm 0.00 in0.0 mm
07:09 PM 58.8°F14.9°C 44.9°F7.2°C 60% 3.2 mph SE5.1 kmh SE 4.7 mph7.6 kmh 30.38 in1028.8 mb 0.00 in0.0 mm 0.00 in0.0 mm 0.00 in0.0 mm
07:10 PM 58.8°F14.9°C 44.9°F7.2°C 60% 3.7 mph SSW6.0 kmh SSW 4.7 mph7.6 kmh 30.38 in1028.8 mb 0.00 in0.0 mm 0.00 in0.0 mm 0.00 in0.0 mm
07:11 PM 58.6°F14.8°C 45.2°F7.3°C 61% 1.7 mph SE2.7 kmh SE 4.7 mph7.6 kmh 30.38 in1028.8 mb 0.00 in0.0 mm 0.00 in0.0 mm 0.00 in0.0 mm
07:12 PM 58.5°F14.7°C 45.1°F7.3°C 61% 3.7 mph SE6.0 kmh SE 4.7 mph7.6 kmh 30.38 in1028.8 mb 0.00 in0.0 mm 0.00 in0.0 mm 0.00 in0.0 mm
07:13 PM 58.5°F14.7°C 45.1°F7.3°C 61% 2.2 mph ESE3.5 kmh ESE 4.7 mph7.6 kmh 30.38 in1028.8 mb 0.00 in0.0 mm 0.00 in0.0 mm 0.00 in0.0 mm
07:14 PM 58.5°F14.7°C 45.1°F7.3°C 61% 3.2 mph SE5.1 kmh SE 4.7 mph7.6 kmh 30.38 in1028.8 mb 0.00 in0.0 mm 0.00 in0.0 mm 0.00 in0.0 mm
07:15 PM 58.6°F14.8°C 45.2°F7.3°C 61% 3.2 mph SSW5.1 kmh SSW 4.7 mph7.6 kmh 30.38 in1028.8 mb 0.00 in0.0 mm 0.00 in0.0 mm 0.00 in0.0 mm
07:16 PM 58.6°F14.8°C 45.2°F7.3°C 61% 4.2 mph SSE6.8 kmh SSE 4.7 mph7.6 kmh 30.38 in1028.8 mb 0.00 in0.0 mm 0.00 in0.0 mm 0.00 in0.0 mm
07:17 PM 58.6°F14.8°C 45.2°F7.3°C 61% 2.2 mph S3.5 kmh S 4.7 mph7.6 kmh 30.39 in1029.1 mb 0.00 in0.0 mm 0.00 in0.0 mm 0.00 in0.0 mm
07:18 PM 58.5°F14.7°C 45.1°F7.3°C 61% 1.7 mph S2.7 kmh S 4.7 mph7.6 kmh 30.39 in1029.1 mb 0.00 in0.0 mm 0.00 in0.0 mm 0.00 in0.0 mm
07:19 PM 58.3°F14.6°C 44.9°F7.2°C 61% 3.2 mph SSE5.1 kmh SSE 4.7 mph7.6 kmh 30.39 in1029.1 mb 0.00 in0.0 mm 0.00 in0.0 mm 0.00 in0.0 mm
07:20 PM 58.3°F14.6°C 44.9°F7.2°C 61% 2.7 mph SSW4.3 kmh SSW 4.7 mph7.6 kmh 30.39 in1029.1 mb 0.00 in0.0 mm 0.00 in0.0 mm 0.00 in0.0 mm
07:21 PM 58.3°F14.6°C 45.3°F7.4°C 62% 4.2 mph SW6.8 kmh SW 4.7 mph7.6 kmh 30.39 in1029.1 mb 0.00 in0.0 mm 0.00 in0.0 mm 0.00 in0.0 mm
07:22 PM 58.5°F14.7°C 45.5°F7.5°C 62% 7.8 mph SSE12.6 kmh SSE 7.8 mph12.6 kmh 30.39 in1029.1 mb 0.00 in0.0 mm 0.00 in0.0 mm 0.00 in0.0 mm
07:23 PM 58.8°F14.9°C 45.8°F7.7°C 62% 5.3 mph WNW8.5 kmh WNW 7.8 mph12.6 kmh 30.39 in1029.1 mb 0.00 in0.0 mm 0.00 in0.0 mm 0.00 in0.0 mm
07:24 PM 58.8°F14.9°C 45.8°F7.7°C 62% 7.8 mph SSE12.6 kmh SSE 7.8 mph12.6 kmh 30.39 in1029.1 mb 0.00 in0.0 mm 0.00 in0.0 mm 0.00 in0.0 mm
07:25 PM 58.8°F14.9°C 45.8°F7.7°C 62% 6.8 mph S10.9 kmh S 7.8 mph12.6 kmh 30.39 in1029.1 mb 0.00 in0.0 mm 0.00 in0.0 mm 0.00 in0.0 mm
07:26 PM 58.8°F14.9°C 45.8°F7.7°C 62% 3.2 mph S5.1 kmh S 7.8 mph12.6 kmh 30.39 in1029.1 mb 0.00 in0.0 mm 0.00 in0.0 mm 0.00 in0.0 mm
07:27 PM 58.8°F14.9°C 45.8°F7.7°C 62% 5.8 mph SSW9.3 kmh SSW 7.8 mph12.6 kmh 30.39 in1029.1 mb 0.00 in0.0 mm 0.00 in0.0 mm 0.00 in0.0 mm
07:28 PM 58.8°F14.9°C 45.8°F7.7°C 62% 2.7 mph S4.3 kmh S 7.8 mph12.6 kmh 30.39 in1029.1 mb 0.00 in0.0 mm 0.00 in0.0 mm 0.00 in0.0 mm
07:29 PM 58.8°F14.9°C 45.8°F7.7°C 62% 3.7 mph SSW6.0 kmh SSW 7.8 mph12.6 kmh 30.39 in1029.1 mb 0.00 in0.0 mm 0.00 in0.0 mm 0.00 in0.0 mm
07:30 PM 58.8°F14.9°C 45.8°F7.7°C 62% 4.2 mph SSE6.8 kmh SSE 7.8 mph12.6 kmh 30.38 in1028.8 mb 0.00 in0.0 mm 0.00 in0.0 mm 0.00 in0.0 mm
07:31 PM 58.8°F14.9°C 45.8°F7.7°C 62% 2.7 mph S4.3 kmh S 7.8 mph12.6 kmh 30.38 in1028.8 mb 0.00 in0.0 mm 0.00 in0.0 mm 0.00 in0.0 mm
07:32 PM 58.8°F14.9°C 45.8°F7.7°C 62% 5.3 mph SSE8.5 kmh SSE 7.8 mph12.6 kmh 30.38 in1028.8 mb 0.00 in0.0 mm 0.00 in0.0 mm 0.00 in0.0 mm
07:33 PM 58.8°F14.9°C 45.8°F7.7°C 62% 3.2 mph SSE5.1 kmh SSE 7.8 mph12.6 kmh 30.38 in1028.8 mb 0.00 in0.0 mm 0.00 in0.0 mm 0.00 in0.0 mm
07:34 PM 58.8°F14.9°C 45.8°F7.7°C 62% 3.7 mph NE6.0 kmh NE 7.8 mph12.6 kmh 30.38 in1028.8 mb 0.00 in0.0 mm 0.00 in0.0 mm 0.00 in0.0 mm
07:35 PM 58.8°F14.9°C 45.8°F7.7°C 62% 3.7 mph NNW6.0 kmh NNW 7.8 mph12.6 kmh 30.38 in1028.8 mb 0.00 in0.0 mm 0.00 in0.0 mm 0.00 in0.0 mm
07:36 PM 58.6°F14.8°C 45.6°F7.6°C 62% 5.3 mph S8.5 kmh S 7.8 mph12.6 kmh 30.38 in1028.8 mb 0.00 in0.0 mm 0.00 in0.0 mm 0.00 in0.0 mm
07:37 PM 58.6°F14.8°C 45.6°F7.6°C 62% 5.3 mph ESE8.5 kmh ESE 7.8 mph12.6 kmh 30.38 in1028.8 mb 0.00 in0.0 mm 0.00 in0.0 mm 0.00 in0.0 mm
07:38 PM 58.8°F14.9°C 45.8°F7.7°C 62% 3.7 mph S6.0 kmh S 7.8 mph12.6 kmh 30.38 in1028.8 mb 0.00 in0.0 mm 0.00 in0.0 mm 0.00 in0.0 mm
07:39 PM 58.8°F14.9°C 45.8°F7.7°C 62% 3.2 mph S5.1 kmh S 7.8 mph12.6 kmh 30.38 in1028.8 mb 0.00 in0.0 mm 0.00 in0.0 mm 0.00 in0.0 mm
07:40 PM 58.8°F14.9°C 45.8°F7.7°C 62% 3.7 mph SE6.0 kmh SE 5.8 mph9.3 kmh 30.38 in1028.8 mb 0.00 in0.0 mm 0.00 in0.0 mm 0.00 in0.0 mm
07:41 PM 58.8°F14.9°C 45.8°F7.7°C 62% 4.2 mph W6.8 kmh W 5.8 mph9.3 kmh 30.39 in1029.1 mb 0.00 in0.0 mm 0.00 in0.0 mm 0.00 in0.0 mm
07:42 PM 58.8°F14.9°C 45.8°F7.7°C 62% 4.2 mph SSE6.8 kmh SSE 5.8 mph9.3 kmh 30.39 in1029.1 mb 0.00 in0.0 mm 0.00 in0.0 mm 0.00 in0.0 mm
07:43 PM 58.8°F14.9°C 45.8°F7.7°C 62% 1.1 mph ESE1.8 kmh ESE 5.8 mph9.3 kmh 30.39 in1029.1 mb 0.00 in0.0 mm 0.00 in0.0 mm 0.00 in0.0 mm
07:44 PM 58.8°F14.9°C 46.2°F7.9°C 63% 3.2 mph SE5.1 kmh SE 5.8 mph9.3 kmh 30.39 in1029.1 mb 0.00 in0.0 mm 0.00 in0.0 mm 0.00 in0.0 mm
07:45 PM 58.8°F14.9°C 46.2°F7.9°C 63% 4.2 mph SE6.8 kmh SE 5.8 mph9.3 kmh 30.39 in1029.1 mb 0.00 in0.0 mm 0.00 in0.0 mm 0.00 in0.0 mm
07:46 PM 58.8°F14.9°C 46.2°F7.9°C 63% 3.7 mph SSW6.0 kmh SSW 5.8 mph9.3 kmh 30.39 in1029.1 mb 0.00 in0.0 mm 0.00 in0.0 mm 0.00 in0.0 mm
07:47 PM 58.8°F14.9°C 46.2°F7.9°C 63% 1.1 mph SSW1.8 kmh SSW 5.8 mph9.3 kmh 30.39 in1029.1 mb 0.00 in0.0 mm 0.00 in0.0 mm 0.00 in0.0 mm
07:48 PM 58.8°F14.9°C 46.2°F7.9°C 63% 4.2 mph SE6.8 kmh SE 4.2 mph6.8 kmh 30.39 in1029.1 mb 0.00 in0.0 mm 0.00 in0.0 mm 0.00 in0.0 mm
07:49 PM 58.8°F14.9°C 46.2°F7.9°C 63% 4.7 mph ENE7.6 kmh ENE 5.8 mph9.3 kmh 30.39 in1029.1 mb 0.00 in0.0 mm 0.00 in0.0 mm 0.00 in0.0 mm
07:50 PM 58.8°F14.9°C 46.2°F7.9°C 63% 2.7 mph ENE4.3 kmh ENE 5.8 mph9.3 kmh 30.39 in1029.1 mb 0.00 in0.0 mm 0.00 in0.0 mm 0.00 in0.0 mm
07:51 PM 58.8°F14.9°C 46.2°F7.9°C 63% 3.7 mph ESE6.0 kmh ESE 5.8 mph9.3 kmh 30.39 in1029.1 mb 0.00 in0.0 mm 0.00 in0.0 mm 0.00 in0.0 mm
07:52 PM 58.8°F14.9°C 46.2°F7.9°C 63% 3.2 mph S